<?xml version="1.0" encoding="UTF-8" standalone="no" ?>
<gpx xmlns="http://www.topografix.com/GPX/1/1" xmlns:xsi="http://www.w3.org/2001/XMLSchema-instance" xsi:schemaLocation="http://www.topografix.com/GPX/1/1 http://www.topografix.com/GPX/1/1/gpx.xsd" version="1.1" creator="VisuGPX - https://www.visugpx.com">
  <metadata>
    <name>En balcon sur le Champsaur depuis Gap</name>
    <desc><![CDATA[Au menu le Col de Manse puis le Col de Moissière avec vue d\\\'ensemble sur la]]></desc>
  </metadata>
  <trk>
    <name><![CDATA[ACTIVE LOG 006]]></name>
    <trkseg>
      <trkpt lat="44.5583" lon="6.07464">
        <ele>745</ele>
        <time>2011-05-30T07:56:53Z</time>
      </trkpt>
      <trkpt lat="44.55879" lon="6.07533">
        <ele>746</ele>
        <time>2011-05-30T07:57:28Z</time>
      </trkpt>
      <trkpt lat="44.55863" lon="6.07575">
        <ele>746</ele>
        <time>2011-05-30T07:57:39Z</time>
      </trkpt>
      <trkpt lat="44.55846" lon="6.07613">
        <ele>744</ele>
        <time>2011-05-30T07:57:48Z</time>
      </trkpt>
      <trkpt lat="44.55842" lon="6.07624">
        <ele>744</ele>
        <time>2011-05-30T07:58:01Z</time>
      </trkpt>
      <trkpt lat="44.55839" lon="6.07633">
        <ele>743</ele>
        <time>2011-05-30T07:58:24Z</time>
      </trkpt>
      <trkpt lat="44.55865" lon="6.07659">
        <ele>743</ele>
        <time>2011-05-30T07:58:35Z</time>
      </trkpt>
      <trkpt lat="44.55892" lon="6.07673">
        <ele>742</ele>
        <time>2011-05-30T07:58:47Z</time>
      </trkpt>
      <trkpt lat="44.55932" lon="6.07677">
        <ele>743</ele>
        <time>2011-05-30T07:58:59Z</time>
      </trkpt>
      <trkpt lat="44.55933" lon="6.07678">
        <ele>743</ele>
        <time>2011-05-30T07:59:00Z</time>
      </trkpt>
      <trkpt lat="44.55944" lon="6.07716">
        <ele>743</ele>
        <time>2011-05-30T07:59:07Z</time>
      </trkpt>
      <trkpt lat="44.55969" lon="6.07756">
        <ele>743</ele>
        <time>2011-05-30T07:59:15Z</time>
      </trkpt>
      <trkpt lat="44.55988" lon="6.07876">
        <ele>742</ele>
        <time>2011-05-30T07:59:31Z</time>
      </trkpt>
      <trkpt lat="44.56006" lon="6.0798">
        <ele>744</ele>
        <time>2011-05-30T07:59:46Z</time>
      </trkpt>
      <trkpt lat="44.56012" lon="6.08014">
        <ele>744</ele>
        <time>2011-05-30T07:59:52Z</time>
      </trkpt>
      <trkpt lat="44.56017" lon="6.08037">
        <ele>744</ele>
        <time>2011-05-30T07:59:56Z</time>
      </trkpt>
      <trkpt lat="44.5603" lon="6.08099">
        <ele>742</ele>
        <time>2011-05-30T08:00:08Z</time>
      </trkpt>
      <trkpt lat="44.56057" lon="6.08151">
        <ele>741</ele>
        <time>2011-05-30T08:00:21Z</time>
      </trkpt>
      <trkpt lat="44.56096" lon="6.08208">
        <ele>741</ele>
        <time>2011-05-30T08:00:39Z</time>
      </trkpt>
      <trkpt lat="44.56125" lon="6.08227">
        <ele>742</ele>
        <time>2011-05-30T08:00:49Z</time>
      </trkpt>
      <trkpt lat="44.56148" lon="6.0826">
        <ele>743</ele>
        <time>2011-05-30T08:01:00Z</time>
      </trkpt>
      <trkpt lat="44.5618" lon="6.08337">
        <ele>745</ele>
        <time>2011-05-30T08:01:18Z</time>
      </trkpt>
      <trkpt lat="44.56197" lon="6.08376">
        <ele>745</ele>
        <time>2011-05-30T08:01:31Z</time>
      </trkpt>
      <trkpt lat="44.56198" lon="6.08378">
        <ele>745</ele>
        <time>2011-05-30T08:01:37Z</time>
      </trkpt>
      <trkpt lat="44.56177" lon="6.08421">
        <ele>743</ele>
        <time>2011-05-30T08:01:48Z</time>
      </trkpt>
      <trkpt lat="44.56201" lon="6.08432">
        <ele>744</ele>
        <time>2011-05-30T08:01:56Z</time>
      </trkpt>
      <trkpt lat="44.56222" lon="6.08401">
        <ele>745</ele>
        <time>2011-05-30T08:02:06Z</time>
      </trkpt>
      <trkpt lat="44.56256" lon="6.08399">
        <ele>745</ele>
        <time>2011-05-30T08:02:17Z</time>
      </trkpt>
      <trkpt lat="44.56314" lon="6.08393">
        <ele>746</ele>
        <time>2011-05-30T08:02:36Z</time>
      </trkpt>
      <trkpt lat="44.5637" lon="6.08389">
        <ele>748</ele>
        <time>2011-05-30T08:02:55Z</time>
      </trkpt>
      <trkpt lat="44.56408" lon="6.08494">
        <ele>746</ele>
        <time>2011-05-30T08:03:13Z</time>
      </trkpt>
      <trkpt lat="44.56466" lon="6.08635">
        <ele>746</ele>
        <time>2011-05-30T08:03:37Z</time>
      </trkpt>
      <trkpt lat="44.56475" lon="6.08647">
        <ele>746</ele>
        <time>2011-05-30T08:03:41Z</time>
      </trkpt>
      <trkpt lat="44.56482" lon="6.08651">
        <ele>746</ele>
        <time>2011-05-30T08:03:49Z</time>
      </trkpt>
      <trkpt lat="44.56482" lon="6.08651">
        <ele>746</ele>
        <time>2011-05-30T08:04:15Z</time>
      </trkpt>
      <trkpt lat="44.56482" lon="6.08651">
        <ele>746</ele>
        <time>2011-05-30T08:04:57Z</time>
      </trkpt>
      <trkpt lat="44.56482" lon="6.08651">
        <ele>746</ele>
        <time>2011-05-30T08:06:25Z</time>
      </trkpt>
      <trkpt lat="44.56501" lon="6.08662">
        <ele>747</ele>
        <time>2011-05-30T08:07:31Z</time>
      </trkpt>
      <trkpt lat="44.56549" lon="6.08683">
        <ele>746</ele>
        <time>2011-05-30T08:07:44Z</time>
      </trkpt>
      <trkpt lat="44.56557" lon="6.08686">
        <ele>746</ele>
        <time>2011-05-30T08:07:47Z</time>
      </trkpt>
      <trkpt lat="44.56559" lon="6.08687">
        <ele>746</ele>
        <time>2011-05-30T08:07:54Z</time>
      </trkpt>
      <trkpt lat="44.56559" lon="6.08687">
        <ele>746</ele>
        <time>2011-05-30T08:07:56Z</time>
      </trkpt>
      <trkpt lat="44.56559" lon="6.08687">
        <ele>746</ele>
        <time>2011-05-30T08:10:06Z</time>
      </trkpt>
      <trkpt lat="44.56559" lon="6.08687">
        <ele>746</ele>
        <time>2011-05-30T08:10:49Z</time>
      </trkpt>
      <trkpt lat="44.56559" lon="6.08687">
        <ele>746</ele>
        <time>2011-05-30T08:10:57Z</time>
      </trkpt>
      <trkpt lat="44.56568" lon="6.0869">
        <ele>746</ele>
        <time>2011-05-30T08:11:01Z</time>
      </trkpt>
      <trkpt lat="44.56595" lon="6.08726">
        <ele>747</ele>
        <time>2011-05-30T08:11:15Z</time>
      </trkpt>
      <trkpt lat="44.56608" lon="6.08733">
        <ele>747</ele>
        <time>2011-05-30T08:11:19Z</time>
      </trkpt>
      <trkpt lat="44.56602" lon="6.08713">
        <ele>747</ele>
        <time>2011-05-30T08:11:29Z</time>
      </trkpt>
      <trkpt lat="44.56602" lon="6.08713">
        <ele>747</ele>
        <time>2011-05-30T08:11:31Z</time>
      </trkpt>
      <trkpt lat="44.56682" lon="6.08766">
        <ele>751</ele>
        <time>2011-05-30T08:11:48Z</time>
      </trkpt>
      <trkpt lat="44.56728" lon="6.08797">
        <ele>751</ele>
        <time>2011-05-30T08:12:08Z</time>
      </trkpt>
      <trkpt lat="44.56763" lon="6.08821">
        <ele>754</ele>
        <time>2011-05-30T08:12:24Z</time>
      </trkpt>
      <trkpt lat="44.56796" lon="6.08845">
        <ele>755</ele>
        <time>2011-05-30T08:12:38Z</time>
      </trkpt>
      <trkpt lat="44.56833" lon="6.08882">
        <ele>756</ele>
        <time>2011-05-30T08:12:56Z</time>
      </trkpt>
      <trkpt lat="44.56863" lon="6.08916">
        <ele>764</ele>
        <time>2011-05-30T08:13:13Z</time>
      </trkpt>
      <trkpt lat="44.56889" lon="6.08954">
        <ele>765</ele>
        <time>2011-05-30T08:13:30Z</time>
      </trkpt>
      <trkpt lat="44.56891" lon="6.08956">
        <ele>765</ele>
        <time>2011-05-30T08:13:31Z</time>
      </trkpt>
      <trkpt lat="44.56908" lon="6.08979">
        <ele>767</ele>
        <time>2011-05-30T08:13:43Z</time>
      </trkpt>
      <trkpt lat="44.56923" lon="6.09002">
        <ele>773</ele>
        <time>2011-05-30T08:13:55Z</time>
      </trkpt>
      <trkpt lat="44.56934" lon="6.09021">
        <ele>776</ele>
        <time>2011-05-30T08:14:05Z</time>
      </trkpt>
      <trkpt lat="44.56942" lon="6.09042">
        <ele>777</ele>
        <time>2011-05-30T08:14:15Z</time>
      </trkpt>
      <trkpt lat="44.56955" lon="6.09064">
        <ele>778</ele>
        <time>2011-05-30T08:14:27Z</time>
      </trkpt>
      <trkpt lat="44.56968" lon="6.09082">
        <ele>780</ele>
        <time>2011-05-30T08:14:37Z</time>
      </trkpt>
      <trkpt lat="44.56989" lon="6.09102">
        <ele>783</ele>
        <time>2011-05-30T08:14:52Z</time>
      </trkpt>
      <trkpt lat="44.57011" lon="6.09126">
        <ele>789</ele>
        <time>2011-05-30T08:15:09Z</time>
      </trkpt>
      <trkpt lat="44.57029" lon="6.09146">
        <ele>790</ele>
        <time>2011-05-30T08:15:22Z</time>
      </trkpt>
      <trkpt lat="44.57062" lon="6.09174">
        <ele>791</ele>
        <time>2011-05-30T08:15:42Z</time>
      </trkpt>
      <trkpt lat="44.57083" lon="6.09191">
        <ele>792</ele>
        <time>2011-05-30T08:15:55Z</time>
      </trkpt>
      <trkpt lat="44.57118" lon="6.09215">
        <ele>796</ele>
        <time>2011-05-30T08:16:16Z</time>
      </trkpt>
      <trkpt lat="44.57142" lon="6.09232">
        <ele>797</ele>
        <time>2011-05-30T08:16:31Z</time>
      </trkpt>
      <trkpt lat="44.57172" lon="6.09253">
        <ele>800</ele>
        <time>2011-05-30T08:16:48Z</time>
      </trkpt>
      <trkpt lat="44.57212" lon="6.0928">
        <ele>801</ele>
        <time>2011-05-30T08:17:08Z</time>
      </trkpt>
      <trkpt lat="44.57249" lon="6.09315">
        <ele>800</ele>
        <time>2011-05-30T08:17:23Z</time>
      </trkpt>
      <trkpt lat="44.57264" lon="6.09334">
        <ele>799</ele>
        <time>2011-05-30T08:17:27Z</time>
      </trkpt>
      <trkpt lat="44.57292" lon="6.09369">
        <ele>798</ele>
        <time>2011-05-30T08:17:33Z</time>
      </trkpt>
      <trkpt lat="44.57298" lon="6.09375">
        <ele>798</ele>
        <time>2011-05-30T08:17:34Z</time>
      </trkpt>
      <trkpt lat="44.57349" lon="6.09427">
        <ele>795</ele>
        <time>2011-05-30T08:17:44Z</time>
      </trkpt>
      <trkpt lat="44.57368" lon="6.09435">
        <ele>795</ele>
        <time>2011-05-30T08:17:48Z</time>
      </trkpt>
      <trkpt lat="44.57369" lon="6.09441">
        <ele>795</ele>
        <time>2011-05-30T08:17:57Z</time>
      </trkpt>
      <trkpt lat="44.57369" lon="6.09441">
        <ele>795</ele>
        <time>2011-05-30T08:17:58Z</time>
      </trkpt>
      <trkpt lat="44.57369" lon="6.09441">
        <ele>795</ele>
        <time>2011-05-30T08:17:59Z</time>
      </trkpt>
      <trkpt lat="44.57369" lon="6.09441">
        <ele>795</ele>
        <time>2011-05-30T08:18:23Z</time>
      </trkpt>
      <trkpt lat="44.57369" lon="6.09441">
        <ele>795</ele>
        <time>2011-05-30T08:21:36Z</time>
      </trkpt>
      <trkpt lat="44.57377" lon="6.09468">
        <ele>795</ele>
        <time>2011-05-30T08:22:01Z</time>
      </trkpt>
      <trkpt lat="44.57407" lon="6.09538">
        <ele>794</ele>
        <time>2011-05-30T08:22:17Z</time>
      </trkpt>
      <trkpt lat="44.57447" lon="6.09577">
        <ele>795</ele>
        <time>2011-05-30T08:22:33Z</time>
      </trkpt>
      <trkpt lat="44.57494" lon="6.09613">
        <ele>796</ele>
        <time>2011-05-30T08:22:54Z</time>
      </trkpt>
      <trkpt lat="44.57524" lon="6.09633">
        <ele>799</ele>
        <time>2011-05-30T08:23:09Z</time>
      </trkpt>
      <trkpt lat="44.57548" lon="6.09652">
        <ele>800</ele>
        <time>2011-05-30T08:23:22Z</time>
      </trkpt>
      <trkpt lat="44.57588" lon="6.09684">
        <ele>803</ele>
        <time>2011-05-30T08:23:42Z</time>
      </trkpt>
      <trkpt lat="44.57628" lon="6.09725">
        <ele>804</ele>
        <time>2011-05-30T08:24:03Z</time>
      </trkpt>
      <trkpt lat="44.57671" lon="6.09784">
        <ele>807</ele>
        <time>2011-05-30T08:24:28Z</time>
      </trkpt>
      <trkpt lat="44.5769" lon="6.09851">
        <ele>808</ele>
        <time>2011-05-30T08:24:48Z</time>
      </trkpt>
      <trkpt lat="44.57706" lon="6.09936">
        <ele>809</ele>
        <time>2011-05-30T08:25:11Z</time>
      </trkpt>
      <trkpt lat="44.57721" lon="6.10023">
        <ele>811</ele>
        <time>2011-05-30T08:25:34Z</time>
      </trkpt>
      <trkpt lat="44.57755" lon="6.10092">
        <ele>812</ele>
        <time>2011-05-30T08:25:55Z</time>
      </trkpt>
      <trkpt lat="44.57791" lon="6.1011">
        <ele>812</ele>
        <time>2011-05-30T08:26:07Z</time>
      </trkpt>
      <trkpt lat="44.57878" lon="6.1011">
        <ele>819</ele>
        <time>2011-05-30T08:26:27Z</time>
      </trkpt>
      <trkpt lat="44.57887" lon="6.10111">
        <ele>820</ele>
        <time>2011-05-30T08:26:30Z</time>
      </trkpt>
      <trkpt lat="44.57915" lon="6.1012">
        <ele>821</ele>
        <time>2011-05-30T08:26:43Z</time>
      </trkpt>
      <trkpt lat="44.57964" lon="6.10139">
        <ele>828</ele>
        <time>2011-05-30T08:27:06Z</time>
      </trkpt>
      <trkpt lat="44.57962" lon="6.10174">
        <ele>828</ele>
        <time>2011-05-30T08:27:18Z</time>
      </trkpt>
      <trkpt lat="44.5793" lon="6.10187">
        <ele>826</ele>
        <time>2011-05-30T08:27:34Z</time>
      </trkpt>
      <trkpt lat="44.57899" lon="6.10208">
        <ele>822</ele>
        <time>2011-05-30T08:27:52Z</time>
      </trkpt>
      <trkpt lat="44.57894" lon="6.10257">
        <ele>827</ele>
        <time>2011-05-30T08:28:09Z</time>
      </trkpt>
      <trkpt lat="44.57911" lon="6.10297">
        <ele>828</ele>
        <time>2011-05-30T08:28:26Z</time>
      </trkpt>
      <trkpt lat="44.57931" lon="6.10339">
        <ele>835</ele>
        <time>2011-05-30T08:28:45Z</time>
      </trkpt>
      <trkpt lat="44.57932" lon="6.10341">
        <ele>835</ele>
        <time>2011-05-30T08:28:46Z</time>
      </trkpt>
      <trkpt lat="44.5796" lon="6.10391">
        <ele>836</ele>
        <time>2011-05-30T08:29:11Z</time>
      </trkpt>
      <trkpt lat="44.57983" lon="6.10448">
        <ele>836</ele>
        <time>2011-05-30T08:29:35Z</time>
      </trkpt>
      <trkpt lat="44.57986" lon="6.10455">
        <ele>836</ele>
        <time>2011-05-30T08:29:38Z</time>
      </trkpt>
      <trkpt lat="44.57998" lon="6.10443">
        <ele>837</ele>
        <time>2011-05-30T08:29:44Z</time>
      </trkpt>
      <trkpt lat="44.58045" lon="6.10412">
        <ele>843</ele>
        <time>2011-05-30T08:30:06Z</time>
      </trkpt>
      <trkpt lat="44.58091" lon="6.10406">
        <ele>847</ele>
        <time>2011-05-30T08:30:28Z</time>
      </trkpt>
      <trkpt lat="44.5813" lon="6.10405">
        <ele>850</ele>
        <time>2011-05-30T08:30:48Z</time>
      </trkpt>
      <trkpt lat="44.58167" lon="6.10406">
        <ele>855</ele>
        <time>2011-05-30T08:31:06Z</time>
      </trkpt>
      <trkpt lat="44.58199" lon="6.10431">
        <ele>858</ele>
        <time>2011-05-30T08:31:25Z</time>
      </trkpt>
      <trkpt lat="44.58218" lon="6.10484">
        <ele>860</ele>
        <time>2011-05-30T08:31:46Z</time>
      </trkpt>
      <trkpt lat="44.58218" lon="6.10556">
        <ele>860</ele>
        <time>2011-05-30T08:32:11Z</time>
      </trkpt>
      <trkpt lat="44.58218" lon="6.10609">
        <ele>862</ele>
        <time>2011-05-30T08:32:29Z</time>
      </trkpt>
      <trkpt lat="44.5822" lon="6.10659">
        <ele>863</ele>
        <time>2011-05-30T08:32:47Z</time>
      </trkpt>
      <trkpt lat="44.58232" lon="6.10718">
        <ele>865</ele>
        <time>2011-05-30T08:33:07Z</time>
      </trkpt>
      <trkpt lat="44.58239" lon="6.10741">
        <ele>868</ele>
        <time>2011-05-30T08:33:15Z</time>
      </trkpt>
      <trkpt lat="44.58254" lon="6.10775">
        <ele>872</ele>
        <time>2011-05-30T08:33:29Z</time>
      </trkpt>
      <trkpt lat="44.58275" lon="6.10798">
        <ele>872</ele>
        <time>2011-05-30T08:33:44Z</time>
      </trkpt>
      <trkpt lat="44.5829" lon="6.10813">
        <ele>873</ele>
        <time>2011-05-30T08:33:55Z</time>
      </trkpt>
      <trkpt lat="44.58293" lon="6.10853">
        <ele>873</ele>
        <time>2011-05-30T08:34:12Z</time>
      </trkpt>
      <trkpt lat="44.58293" lon="6.10888">
        <ele>873</ele>
        <time>2011-05-30T08:34:26Z</time>
      </trkpt>
      <trkpt lat="44.58297" lon="6.10937">
        <ele>874</ele>
        <time>2011-05-30T08:34:45Z</time>
      </trkpt>
      <trkpt lat="44.58305" lon="6.10991">
        <ele>876</ele>
        <time>2011-05-30T08:35:06Z</time>
      </trkpt>
      <trkpt lat="44.58311" lon="6.11039">
        <ele>879</ele>
        <time>2011-05-30T08:35:25Z</time>
      </trkpt>
      <trkpt lat="44.5832" lon="6.11082">
        <ele>882</ele>
        <time>2011-05-30T08:35:43Z</time>
      </trkpt>
      <trkpt lat="44.58332" lon="6.11122">
        <ele>883</ele>
        <time>2011-05-30T08:36:01Z</time>
      </trkpt>
      <trkpt lat="44.58344" lon="6.1116">
        <ele>889</ele>
        <time>2011-05-30T08:36:18Z</time>
      </trkpt>
      <trkpt lat="44.58363" lon="6.11204">
        <ele>894</ele>
        <time>2011-05-30T08:36:38Z</time>
      </trkpt>
      <trkpt lat="44.58378" lon="6.11239">
        <ele>895</ele>
        <time>2011-05-30T08:36:55Z</time>
      </trkpt>
      <trkpt lat="44.58384" lon="6.1125">
        <ele>896</ele>
        <time>2011-05-30T08:37:01Z</time>
      </trkpt>
      <trkpt lat="44.58404" lon="6.11281">
        <ele>900</ele>
        <time>2011-05-30T08:37:19Z</time>
      </trkpt>
      <trkpt lat="44.58427" lon="6.11331">
        <ele>905</ele>
        <time>2011-05-30T08:37:42Z</time>
      </trkpt>
      <trkpt lat="44.58447" lon="6.11386">
        <ele>908</ele>
        <time>2011-05-30T08:38:03Z</time>
      </trkpt>
      <trkpt lat="44.58471" lon="6.11443">
        <ele>912</ele>
        <time>2011-05-30T08:38:26Z</time>
      </trkpt>
      <trkpt lat="44.58491" lon="6.11486">
        <ele>914</ele>
        <time>2011-05-30T08:38:45Z</time>
      </trkpt>
      <trkpt lat="44.58523" lon="6.11546">
        <ele>916</ele>
        <time>2011-05-30T08:39:05Z</time>
      </trkpt>
      <trkpt lat="44.58543" lon="6.1159">
        <ele>916</ele>
        <time>2011-05-30T08:39:15Z</time>
      </trkpt>
      <trkpt lat="44.58576" lon="6.11657">
        <ele>916</ele>
        <time>2011-05-30T08:39:32Z</time>
      </trkpt>
      <trkpt lat="44.58621" lon="6.11682">
        <ele>919</ele>
        <time>2011-05-30T08:39:54Z</time>
      </trkpt>
      <trkpt lat="44.58656" lon="6.11717">
        <ele>921</ele>
        <time>2011-05-30T08:40:15Z</time>
      </trkpt>
      <trkpt lat="44.5869" lon="6.11756">
        <ele>925</ele>
        <time>2011-05-30T08:40:38Z</time>
      </trkpt>
      <trkpt lat="44.58724" lon="6.11789">
        <ele>927</ele>
        <time>2011-05-30T08:40:59Z</time>
      </trkpt>
      <trkpt lat="44.58755" lon="6.11808">
        <ele>931</ele>
        <time>2011-05-30T08:41:18Z</time>
      </trkpt>
      <trkpt lat="44.5879" lon="6.11825">
        <ele>932</ele>
        <time>2011-05-30T08:41:38Z</time>
      </trkpt>
      <trkpt lat="44.58792" lon="6.11825">
        <ele>932</ele>
        <time>2011-05-30T08:41:39Z</time>
      </trkpt>
      <trkpt lat="44.58829" lon="6.11844">
        <ele>934</ele>
        <time>2011-05-30T08:42:01Z</time>
      </trkpt>
      <trkpt lat="44.58864" lon="6.1186">
        <ele>940</ele>
        <time>2011-05-30T08:42:22Z</time>
      </trkpt>
      <trkpt lat="44.58889" lon="6.11886">
        <ele>943</ele>
        <time>2011-05-30T08:42:39Z</time>
      </trkpt>
      <trkpt lat="44.58912" lon="6.11917">
        <ele>947</ele>
        <time>2011-05-30T08:42:58Z</time>
      </trkpt>
      <trkpt lat="44.58917" lon="6.1193">
        <ele>950</ele>
        <time>2011-05-30T08:43:04Z</time>
      </trkpt>
      <trkpt lat="44.58922" lon="6.11942">
        <ele>951</ele>
        <time>2011-05-30T08:43:09Z</time>
      </trkpt>
      <trkpt lat="44.5894" lon="6.11986">
        <ele>951</ele>
        <time>2011-05-30T08:43:30Z</time>
      </trkpt>
      <trkpt lat="44.58957" lon="6.12022">
        <ele>948</ele>
        <time>2011-05-30T08:43:49Z</time>
      </trkpt>
      <trkpt lat="44.58977" lon="6.12051">
        <ele>949</ele>
        <time>2011-05-30T08:44:07Z</time>
      </trkpt>
      <trkpt lat="44.58998" lon="6.12069">
        <ele>951</ele>
        <time>2011-05-30T08:44:23Z</time>
      </trkpt>
      <trkpt lat="44.59002" lon="6.12072">
        <ele>957</ele>
        <time>2011-05-30T08:44:26Z</time>
      </trkpt>
      <trkpt lat="44.59025" lon="6.12083">
        <ele>961</ele>
        <time>2011-05-30T08:44:43Z</time>
      </trkpt>
      <trkpt lat="44.59054" lon="6.12093">
        <ele>961</ele>
        <time>2011-05-30T08:45:02Z</time>
      </trkpt>
      <trkpt lat="44.59081" lon="6.12092">
        <ele>968</ele>
        <time>2011-05-30T08:45:19Z</time>
      </trkpt>
      <trkpt lat="44.59108" lon="6.12093">
        <ele>976</ele>
        <time>2011-05-30T08:45:36Z</time>
      </trkpt>
      <trkpt lat="44.5913" lon="6.12122">
        <ele>977</ele>
        <time>2011-05-30T08:45:53Z</time>
      </trkpt>
      <trkpt lat="44.59135" lon="6.1213">
        <ele>977</ele>
        <time>2011-05-30T08:45:58Z</time>
      </trkpt>
      <trkpt lat="44.59162" lon="6.12149">
        <ele>978</ele>
        <time>2011-05-30T08:46:17Z</time>
      </trkpt>
      <trkpt lat="44.59188" lon="6.12152">
        <ele>987</ele>
        <time>2011-05-30T08:46:35Z</time>
      </trkpt>
      <trkpt lat="44.59207" lon="6.12125">
        <ele>992</ele>
        <time>2011-05-30T08:46:53Z</time>
      </trkpt>
      <trkpt lat="44.5921" lon="6.121">
        <ele>993</ele>
        <time>2011-05-30T08:47:05Z</time>
      </trkpt>
      <trkpt lat="44.5921" lon="6.12096">
        <ele>993</ele>
        <time>2011-05-30T08:47:07Z</time>
      </trkpt>
      <trkpt lat="44.59211" lon="6.12073">
        <ele>999</ele>
        <time>2011-05-30T08:47:17Z</time>
      </trkpt>
      <trkpt lat="44.59215" lon="6.12031">
        <ele>1000</ele>
        <time>2011-05-30T08:47:36Z</time>
      </trkpt>
      <trkpt lat="44.59217" lon="6.12026">
        <ele>1000</ele>
        <time>2011-05-30T08:47:39Z</time>
      </trkpt>
      <trkpt lat="44.59222" lon="6.12018">
        <ele>1001</ele>
        <time>2011-05-30T08:47:43Z</time>
      </trkpt>
      <trkpt lat="44.59232" lon="6.12018">
        <ele>1001</ele>
        <time>2011-05-30T08:47:46Z</time>
      </trkpt>
      <trkpt lat="44.5925" lon="6.1205">
        <ele>1000</ele>
        <time>2011-05-30T08:48:03Z</time>
      </trkpt>
      <trkpt lat="44.59257" lon="6.12092">
        <ele>1005</ele>
        <time>2011-05-30T08:48:20Z</time>
      </trkpt>
      <trkpt lat="44.59268" lon="6.12144">
        <ele>1008</ele>
        <time>2011-05-30T08:48:42Z</time>
      </trkpt>
      <trkpt lat="44.59273" lon="6.12188">
        <ele>1010</ele>
        <time>2011-05-30T08:49:01Z</time>
      </trkpt>
      <trkpt lat="44.59272" lon="6.12235">
        <ele>1011</ele>
        <time>2011-05-30T08:49:21Z</time>
      </trkpt>
      <trkpt lat="44.59259" lon="6.12277">
        <ele>1015</ele>
        <time>2011-05-30T08:49:40Z</time>
      </trkpt>
      <trkpt lat="44.59234" lon="6.1232">
        <ele>1004</ele>
        <time>2011-05-30T08:50:01Z</time>
      </trkpt>
      <trkpt lat="44.59228" lon="6.12367">
        <ele>1008</ele>
        <time>2011-05-30T08:50:16Z</time>
      </trkpt>
      <trkpt lat="44.59233" lon="6.12428">
        <ele>1015</ele>
        <time>2011-05-30T08:50:37Z</time>
      </trkpt>
      <trkpt lat="44.59241" lon="6.12477">
        <ele>1015</ele>
        <time>2011-05-30T08:50:56Z</time>
      </trkpt>
      <trkpt lat="44.59245" lon="6.1252">
        <ele>1018</ele>
        <time>2011-05-30T08:51:14Z</time>
      </trkpt>
      <trkpt lat="44.59239" lon="6.12561">
        <ele>1019</ele>
        <time>2011-05-30T08:51:32Z</time>
      </trkpt>
      <trkpt lat="44.59232" lon="6.12601">
        <ele>1022</ele>
        <time>2011-05-30T08:51:50Z</time>
      </trkpt>
      <trkpt lat="44.59243" lon="6.12632">
        <ele>1023</ele>
        <time>2011-05-30T08:52:07Z</time>
      </trkpt>
      <trkpt lat="44.59251" lon="6.12597">
        <ele>1029</ele>
        <time>2011-05-30T08:52:21Z</time>
      </trkpt>
      <trkpt lat="44.5926" lon="6.12576">
        <ele>1027</ele>
        <time>2011-05-30T08:52:30Z</time>
      </trkpt>
      <trkpt lat="44.59291" lon="6.12559">
        <ele>1030</ele>
        <time>2011-05-30T08:52:50Z</time>
      </trkpt>
      <trkpt lat="44.5932" lon="6.12544">
        <ele>1032</ele>
        <time>2011-05-30T08:53:09Z</time>
      </trkpt>
      <trkpt lat="44.59323" lon="6.12498">
        <ele>1033</ele>
        <time>2011-05-30T08:53:30Z</time>
      </trkpt>
      <trkpt lat="44.59324" lon="6.12462">
        <ele>1030</ele>
        <time>2011-05-30T08:53:46Z</time>
      </trkpt>
      <trkpt lat="44.59331" lon="6.12407">
        <ele>1033</ele>
        <time>2011-05-30T08:54:07Z</time>
      </trkpt>
      <trkpt lat="44.59362" lon="6.12388">
        <ele>1042</ele>
        <time>2011-05-30T08:54:23Z</time>
      </trkpt>
      <trkpt lat="44.59384" lon="6.12426">
        <ele>1045</ele>
        <time>2011-05-30T08:54:39Z</time>
      </trkpt>
      <trkpt lat="44.59389" lon="6.12489">
        <ele>1047</ele>
        <time>2011-05-30T08:55:00Z</time>
      </trkpt>
      <trkpt lat="44.59393" lon="6.12528">
        <ele>1048</ele>
        <time>2011-05-30T08:55:15Z</time>
      </trkpt>
      <trkpt lat="44.594" lon="6.12576">
        <ele>1051</ele>
        <time>2011-05-30T08:55:34Z</time>
      </trkpt>
      <trkpt lat="44.59404" lon="6.12629">
        <ele>1053</ele>
        <time>2011-05-30T08:55:55Z</time>
      </trkpt>
      <trkpt lat="44.59406" lon="6.12673">
        <ele>1057</ele>
        <time>2011-05-30T08:56:13Z</time>
      </trkpt>
      <trkpt lat="44.59412" lon="6.12717">
        <ele>1057</ele>
        <time>2011-05-30T08:56:31Z</time>
      </trkpt>
      <trkpt lat="44.5942" lon="6.12761">
        <ele>1067</ele>
        <time>2011-05-30T08:56:50Z</time>
      </trkpt>
      <trkpt lat="44.59428" lon="6.12813">
        <ele>1069</ele>
        <time>2011-05-30T08:57:13Z</time>
      </trkpt>
      <trkpt lat="44.59433" lon="6.1286">
        <ele>1071</ele>
        <time>2011-05-30T08:57:34Z</time>
      </trkpt>
      <trkpt lat="44.59445" lon="6.12903">
        <ele>1073</ele>
        <time>2011-05-30T08:57:53Z</time>
      </trkpt>
      <trkpt lat="44.59457" lon="6.12938">
        <ele>1076</ele>
        <time>2011-05-30T08:58:08Z</time>
      </trkpt>
      <trkpt lat="44.59473" lon="6.12974">
        <ele>1077</ele>
        <time>2011-05-30T08:58:26Z</time>
      </trkpt>
      <trkpt lat="44.59491" lon="6.13019">
        <ele>1081</ele>
        <time>2011-05-30T08:58:47Z</time>
      </trkpt>
      <trkpt lat="44.59505" lon="6.13062">
        <ele>1090</ele>
        <time>2011-05-30T08:59:07Z</time>
      </trkpt>
      <trkpt lat="44.5951" lon="6.13099">
        <ele>1092</ele>
        <time>2011-05-30T08:59:23Z</time>
      </trkpt>
      <trkpt lat="44.59517" lon="6.1314">
        <ele>1094</ele>
        <time>2011-05-30T08:59:43Z</time>
      </trkpt>
      <trkpt lat="44.59518" lon="6.13185">
        <ele>1095</ele>
        <time>2011-05-30T09:00:02Z</time>
      </trkpt>
      <trkpt lat="44.59518" lon="6.13196">
        <ele>1095</ele>
        <time>2011-05-30T09:00:07Z</time>
      </trkpt>
      <trkpt lat="44.59524" lon="6.13209">
        <ele>1096</ele>
        <time>2011-05-30T09:00:15Z</time>
      </trkpt>
      <trkpt lat="44.59536" lon="6.13182">
        <ele>1096</ele>
        <time>2011-05-30T09:00:31Z</time>
      </trkpt>
      <trkpt lat="44.59553" lon="6.13143">
        <ele>1097</ele>
        <time>2011-05-30T09:00:52Z</time>
      </trkpt>
      <trkpt lat="44.59581" lon="6.1314">
        <ele>1099</ele>
        <time>2011-05-30T09:01:08Z</time>
      </trkpt>
      <trkpt lat="44.5961" lon="6.13149">
        <ele>1106</ele>
        <time>2011-05-30T09:01:26Z</time>
      </trkpt>
      <trkpt lat="44.59639" lon="6.1315">
        <ele>1108</ele>
        <time>2011-05-30T09:01:45Z</time>
      </trkpt>
      <trkpt lat="44.59641" lon="6.13148">
        <ele>1108</ele>
        <time>2011-05-30T09:01:47Z</time>
      </trkpt>
      <trkpt lat="44.59656" lon="6.13131">
        <ele>1109</ele>
        <time>2011-05-30T09:01:58Z</time>
      </trkpt>
      <trkpt lat="44.59684" lon="6.13099">
        <ele>1114</ele>
        <time>2011-05-30T09:02:20Z</time>
      </trkpt>
      <trkpt lat="44.59707" lon="6.1308">
        <ele>1114</ele>
        <time>2011-05-30T09:02:36Z</time>
      </trkpt>
      <trkpt lat="44.59728" lon="6.13088">
        <ele>1116</ele>
        <time>2011-05-30T09:02:50Z</time>
      </trkpt>
      <trkpt lat="44.59742" lon="6.13125">
        <ele>1117</ele>
        <time>2011-05-30T09:03:07Z</time>
      </trkpt>
      <trkpt lat="44.59756" lon="6.13165">
        <ele>1120</ele>
        <time>2011-05-30T09:03:27Z</time>
      </trkpt>
      <trkpt lat="44.5978" lon="6.13211">
        <ele>1123</ele>
        <time>2011-05-30T09:03:49Z</time>
      </trkpt>
      <trkpt lat="44.59797" lon="6.13257">
        <ele>1125</ele>
        <time>2011-05-30T09:04:07Z</time>
      </trkpt>
      <trkpt lat="44.59806" lon="6.13307">
        <ele>1126</ele>
        <time>2011-05-30T09:04:25Z</time>
      </trkpt>
      <trkpt lat="44.59817" lon="6.13364">
        <ele>1128</ele>
        <time>2011-05-30T09:04:47Z</time>
      </trkpt>
      <trkpt lat="44.59835" lon="6.13406">
        <ele>1134</ele>
        <time>2011-05-30T09:05:07Z</time>
      </trkpt>
      <trkpt lat="44.59842" lon="6.13442">
        <ele>1138</ele>
        <time>2011-05-30T09:05:23Z</time>
      </trkpt>
      <trkpt lat="44.59834" lon="6.13482">
        <ele>1139</ele>
        <time>2011-05-30T09:05:40Z</time>
      </trkpt>
      <trkpt lat="44.59838" lon="6.13523">
        <ele>1141</ele>
        <time>2011-05-30T09:06:01Z</time>
      </trkpt>
      <trkpt lat="44.59856" lon="6.13498">
        <ele>1140</ele>
        <time>2011-05-30T09:06:16Z</time>
      </trkpt>
      <trkpt lat="44.59878" lon="6.13464">
        <ele>1141</ele>
        <time>2011-05-30T09:06:35Z</time>
      </trkpt>
      <trkpt lat="44.59887" lon="6.13469">
        <ele>1142</ele>
        <time>2011-05-30T09:06:41Z</time>
      </trkpt>
      <trkpt lat="44.59893" lon="6.13479">
        <ele>1143</ele>
        <time>2011-05-30T09:06:46Z</time>
      </trkpt>
      <trkpt lat="44.59891" lon="6.13521">
        <ele>1145</ele>
        <time>2011-05-30T09:07:04Z</time>
      </trkpt>
      <trkpt lat="44.59893" lon="6.13532">
        <ele>1145</ele>
        <time>2011-05-30T09:07:08Z</time>
      </trkpt>
      <trkpt lat="44.59897" lon="6.13535">
        <ele>1145</ele>
        <time>2011-05-30T09:07:11Z</time>
      </trkpt>
      <trkpt lat="44.59925" lon="6.1353">
        <ele>1150</ele>
        <time>2011-05-30T09:07:27Z</time>
      </trkpt>
      <trkpt lat="44.59955" lon="6.1355">
        <ele>1151</ele>
        <time>2011-05-30T09:07:43Z</time>
      </trkpt>
      <trkpt lat="44.59975" lon="6.13565">
        <ele>1152</ele>
        <time>2011-05-30T09:07:54Z</time>
      </trkpt>
      <trkpt lat="44.59997" lon="6.13582">
        <ele>1155</ele>
        <time>2011-05-30T09:08:07Z</time>
      </trkpt>
      <trkpt lat="44.60034" lon="6.13607">
        <ele>1158</ele>
        <time>2011-05-30T09:08:27Z</time>
      </trkpt>
      <trkpt lat="44.60062" lon="6.13612">
        <ele>1159</ele>
        <time>2011-05-30T09:08:41Z</time>
      </trkpt>
      <trkpt lat="44.60088" lon="6.13614">
        <ele>1163</ele>
        <time>2011-05-30T09:08:55Z</time>
      </trkpt>
      <trkpt lat="44.60105" lon="6.13586">
        <ele>1163</ele>
        <time>2011-05-30T09:09:10Z</time>
      </trkpt>
      <trkpt lat="44.60109" lon="6.13581">
        <ele>1164</ele>
        <time>2011-05-30T09:09:13Z</time>
      </trkpt>
      <trkpt lat="44.60139" lon="6.13596">
        <ele>1165</ele>
        <time>2011-05-30T09:09:30Z</time>
      </trkpt>
      <trkpt lat="44.60171" lon="6.13626">
        <ele>1169</ele>
        <time>2011-05-30T09:09:52Z</time>
      </trkpt>
      <trkpt lat="44.60203" lon="6.13621">
        <ele>1170</ele>
        <time>2011-05-30T09:10:10Z</time>
      </trkpt>
      <trkpt lat="44.60233" lon="6.13594">
        <ele>1171</ele>
        <time>2011-05-30T09:10:29Z</time>
      </trkpt>
      <trkpt lat="44.60264" lon="6.13573">
        <ele>1177</ele>
        <time>2011-05-30T09:10:47Z</time>
      </trkpt>
      <trkpt lat="44.60281" lon="6.13567">
        <ele>1179</ele>
        <time>2011-05-30T09:10:57Z</time>
      </trkpt>
      <trkpt lat="44.60305" lon="6.13556">
        <ele>1181</ele>
        <time>2011-05-30T09:11:12Z</time>
      </trkpt>
      <trkpt lat="44.60324" lon="6.13532">
        <ele>1182</ele>
        <time>2011-05-30T09:11:28Z</time>
      </trkpt>
      <trkpt lat="44.60346" lon="6.13531">
        <ele>1193</ele>
        <time>2011-05-30T09:11:43Z</time>
      </trkpt>
      <trkpt lat="44.60347" lon="6.13538">
        <ele>1194</ele>
        <time>2011-05-30T09:11:46Z</time>
      </trkpt>
      <trkpt lat="44.60349" lon="6.1355">
        <ele>1194</ele>
        <time>2011-05-30T09:11:51Z</time>
      </trkpt>
      <trkpt lat="44.60349" lon="6.13559">
        <ele>1194</ele>
        <time>2011-05-30T09:11:55Z</time>
      </trkpt>
      <trkpt lat="44.60352" lon="6.13606">
        <ele>1196</ele>
        <time>2011-05-30T09:12:15Z</time>
      </trkpt>
      <trkpt lat="44.60356" lon="6.13653">
        <ele>1196</ele>
        <time>2011-05-30T09:12:34Z</time>
      </trkpt>
      <trkpt lat="44.60359" lon="6.13691">
        <ele>1202</ele>
        <time>2011-05-30T09:12:50Z</time>
      </trkpt>
      <trkpt lat="44.60352" lon="6.13735">
        <ele>1203</ele>
        <time>2011-05-30T09:13:10Z</time>
      </trkpt>
      <trkpt lat="44.60339" lon="6.13763">
        <ele>1206</ele>
        <time>2011-05-30T09:13:25Z</time>
      </trkpt>
      <trkpt lat="44.60323" lon="6.13801">
        <ele>1198</ele>
        <time>2011-05-30T09:13:45Z</time>
      </trkpt>
      <trkpt lat="44.60321" lon="6.13807">
        <ele>1199</ele>
        <time>2011-05-30T09:13:48Z</time>
      </trkpt>
      <trkpt lat="44.60319" lon="6.13814">
        <ele>1200</ele>
        <time>2011-05-30T09:13:52Z</time>
      </trkpt>
      <trkpt lat="44.60309" lon="6.13858">
        <ele>1203</ele>
        <time>2011-05-30T09:14:12Z</time>
      </trkpt>
      <trkpt lat="44.60309" lon="6.13907">
        <ele>1205</ele>
        <time>2011-05-30T09:14:33Z</time>
      </trkpt>
      <trkpt lat="44.60314" lon="6.13951">
        <ele>1209</ele>
        <time>2011-05-30T09:14:51Z</time>
      </trkpt>
      <trkpt lat="44.60307" lon="6.13993">
        <ele>1210</ele>
        <time>2011-05-30T09:15:09Z</time>
      </trkpt>
      <trkpt lat="44.60298" lon="6.14029">
        <ele>1210</ele>
        <time>2011-05-30T09:15:26Z</time>
      </trkpt>
      <trkpt lat="44.60311" lon="6.14069">
        <ele>1212</ele>
        <time>2011-05-30T09:15:43Z</time>
      </trkpt>
      <trkpt lat="44.60331" lon="6.14084">
        <ele>1217</ele>
        <time>2011-05-30T09:15:56Z</time>
      </trkpt>
      <trkpt lat="44.60351" lon="6.14095">
        <ele>1221</ele>
        <time>2011-05-30T09:16:09Z</time>
      </trkpt>
      <trkpt lat="44.60382" lon="6.14101">
        <ele>1223</ele>
        <time>2011-05-30T09:16:27Z</time>
      </trkpt>
      <trkpt lat="44.60396" lon="6.14133">
        <ele>1224</ele>
        <time>2011-05-30T09:16:43Z</time>
      </trkpt>
      <trkpt lat="44.60402" lon="6.14179">
        <ele>1228</ele>
        <time>2011-05-30T09:17:01Z</time>
      </trkpt>
      <trkpt lat="44.60411" lon="6.14226">
        <ele>1230</ele>
        <time>2011-05-30T09:17:20Z</time>
      </trkpt>
      <trkpt lat="44.60412" lon="6.14231">
        <ele>1231</ele>
        <time>2011-05-30T09:17:22Z</time>
      </trkpt>
      <trkpt lat="44.60424" lon="6.14229">
        <ele>1235</ele>
        <time>2011-05-30T09:17:29Z</time>
      </trkpt>
      <trkpt lat="44.6046" lon="6.14214">
        <ele>1236</ele>
        <time>2011-05-30T09:17:49Z</time>
      </trkpt>
      <trkpt lat="44.60488" lon="6.14212">
        <ele>1238</ele>
        <time>2011-05-30T09:18:04Z</time>
      </trkpt>
      <trkpt lat="44.60517" lon="6.1421">
        <ele>1243</ele>
        <time>2011-05-30T09:18:20Z</time>
      </trkpt>
      <trkpt lat="44.60529" lon="6.14209">
        <ele>1244</ele>
        <time>2011-05-30T09:18:27Z</time>
      </trkpt>
      <trkpt lat="44.60556" lon="6.14206">
        <ele>1245</ele>
        <time>2011-05-30T09:18:42Z</time>
      </trkpt>
      <trkpt lat="44.60566" lon="6.14205">
        <ele>1245</ele>
        <time>2011-05-30T09:18:48Z</time>
      </trkpt>
      <trkpt lat="44.60579" lon="6.14203">
        <ele>1246</ele>
        <time>2011-05-30T09:18:56Z</time>
      </trkpt>
      <trkpt lat="44.60599" lon="6.14198">
        <ele>1250</ele>
        <time>2011-05-30T09:19:08Z</time>
      </trkpt>
      <trkpt lat="44.60606" lon="6.14197">
        <ele>1250</ele>
        <time>2011-05-30T09:19:12Z</time>
      </trkpt>
      <trkpt lat="44.60638" lon="6.14189">
        <ele>1251</ele>
        <time>2011-05-30T09:19:32Z</time>
      </trkpt>
      <trkpt lat="44.60664" lon="6.14182">
        <ele>1252</ele>
        <time>2011-05-30T09:19:47Z</time>
      </trkpt>
      <trkpt lat="44.60711" lon="6.14164">
        <ele>1254</ele>
        <time>2011-05-30T09:20:13Z</time>
      </trkpt>
      <trkpt lat="44.60756" lon="6.14139">
        <ele>1257</ele>
        <time>2011-05-30T09:20:35Z</time>
      </trkpt>
      <trkpt lat="44.60806" lon="6.14111">
        <ele>1258</ele>
        <time>2011-05-30T09:20:56Z</time>
      </trkpt>
      <trkpt lat="44.60855" lon="6.14093">
        <ele>1261</ele>
        <time>2011-05-30T09:21:14Z</time>
      </trkpt>
      <trkpt lat="44.60923" lon="6.14071">
        <ele>1265</ele>
        <time>2011-05-30T09:21:36Z</time>
      </trkpt>
      <trkpt lat="44.60956" lon="6.14049">
        <ele>1267</ele>
        <time>2011-05-30T09:21:49Z</time>
      </trkpt>
      <trkpt lat="44.61005" lon="6.14009">
        <ele>1269</ele>
        <time>2011-05-30T09:22:09Z</time>
      </trkpt>
      <trkpt lat="44.6105" lon="6.13968">
        <ele>1271</ele>
        <time>2011-05-30T09:22:29Z</time>
      </trkpt>
      <trkpt lat="44.61059" lon="6.13955">
        <ele>1271</ele>
        <time>2011-05-30T09:22:35Z</time>
      </trkpt>
      <trkpt lat="44.61094" lon="6.13908">
        <ele>1272</ele>
        <time>2011-05-30T09:22:52Z</time>
      </trkpt>
      <trkpt lat="44.61103" lon="6.13904">
        <ele>1272</ele>
        <time>2011-05-30T09:22:55Z</time>
      </trkpt>
      <trkpt lat="44.61132" lon="6.13901">
        <ele>1272</ele>
        <time>2011-05-30T09:23:06Z</time>
      </trkpt>
      <trkpt lat="44.61138" lon="6.13901">
        <ele>1272</ele>
        <time>2011-05-30T09:23:20Z</time>
      </trkpt>
      <trkpt lat="44.61138" lon="6.13901">
        <ele>1272</ele>
        <time>2011-05-30T09:23:49Z</time>
      </trkpt>
      <trkpt lat="44.61138" lon="6.13901">
        <ele>1272</ele>
        <time>2011-05-30T09:24:38Z</time>
      </trkpt>
      <trkpt lat="44.61138" lon="6.13901">
        <ele>1272</ele>
        <time>2011-05-30T09:25:04Z</time>
      </trkpt>
      <trkpt lat="44.61138" lon="6.13901">
        <ele>1272</ele>
        <time>2011-05-30T09:25:05Z</time>
      </trkpt>
      <trkpt lat="44.61138" lon="6.13901">
        <ele>1272</ele>
        <time>2011-05-30T09:25:06Z</time>
      </trkpt>
      <trkpt lat="44.61138" lon="6.13901">
        <ele>1272</ele>
        <time>2011-05-30T09:25:08Z</time>
      </trkpt>
      <trkpt lat="44.61138" lon="6.13901">
        <ele>1272</ele>
        <time>2011-05-30T09:26:37Z</time>
      </trkpt>
      <trkpt lat="44.61138" lon="6.13901">
        <ele>1272</ele>
        <time>2011-05-30T09:26:38Z</time>
      </trkpt>
      <trkpt lat="44.61147" lon="6.13901">
        <ele>1271</ele>
        <time>2011-05-30T09:26:45Z</time>
      </trkpt>
      <trkpt lat="44.61195" lon="6.13898">
        <ele>1270</ele>
        <time>2011-05-30T09:27:00Z</time>
      </trkpt>
      <trkpt lat="44.61277" lon="6.13879">
        <ele>1268</ele>
        <time>2011-05-30T09:27:15Z</time>
      </trkpt>
      <trkpt lat="44.61348" lon="6.13845">
        <ele>1266</ele>
        <time>2011-05-30T09:27:25Z</time>
      </trkpt>
      <trkpt lat="44.61355" lon="6.1384">
        <ele>1266</ele>
        <time>2011-05-30T09:27:26Z</time>
      </trkpt>
      <trkpt lat="44.61432" lon="6.13782">
        <ele>1263</ele>
        <time>2011-05-30T09:27:38Z</time>
      </trkpt>
      <trkpt lat="44.61479" lon="6.13794">
        <ele>1262</ele>
        <time>2011-05-30T09:27:46Z</time>
      </trkpt>
      <trkpt lat="44.61528" lon="6.13865">
        <ele>1257</ele>
        <time>2011-05-30T09:27:56Z</time>
      </trkpt>
      <trkpt lat="44.6156" lon="6.13906">
        <ele>1256</ele>
        <time>2011-05-30T09:28:01Z</time>
      </trkpt>
      <trkpt lat="44.616" lon="6.13949">
        <ele>1253</ele>
        <time>2011-05-30T09:28:06Z</time>
      </trkpt>
      <trkpt lat="44.61616" lon="6.13969">
        <ele>1252</ele>
        <time>2011-05-30T09:28:08Z</time>
      </trkpt>
      <trkpt lat="44.61675" lon="6.14065">
        <ele>1253</ele>
        <time>2011-05-30T09:28:17Z</time>
      </trkpt>
      <trkpt lat="44.61722" lon="6.14111">
        <ele>1255</ele>
        <time>2011-05-30T09:28:25Z</time>
      </trkpt>
      <trkpt lat="44.61765" lon="6.14152">
        <ele>1257</ele>
        <time>2011-05-30T09:28:38Z</time>
      </trkpt>
      <trkpt lat="44.61788" lon="6.14186">
        <ele>1262</ele>
        <time>2011-05-30T09:28:51Z</time>
      </trkpt>
      <trkpt lat="44.61826" lon="6.14219">
        <ele>1264</ele>
        <time>2011-05-30T09:29:10Z</time>
      </trkpt>
      <trkpt lat="44.61851" lon="6.14226">
        <ele>1265</ele>
        <time>2011-05-30T09:29:21Z</time>
      </trkpt>
      <trkpt lat="44.61886" lon="6.14232">
        <ele>1266</ele>
        <time>2011-05-30T09:29:36Z</time>
      </trkpt>
      <trkpt lat="44.6193" lon="6.14251">
        <ele>1271</ele>
        <time>2011-05-30T09:29:56Z</time>
      </trkpt>
      <trkpt lat="44.61967" lon="6.1428">
        <ele>1273</ele>
        <time>2011-05-30T09:30:14Z</time>
      </trkpt>
      <trkpt lat="44.62002" lon="6.14317">
        <ele>1276</ele>
        <time>2011-05-30T09:30:34Z</time>
      </trkpt>
      <trkpt lat="44.62031" lon="6.14355">
        <ele>1279</ele>
        <time>2011-05-30T09:30:50Z</time>
      </trkpt>
      <trkpt lat="44.62053" lon="6.14381">
        <ele>1280</ele>
        <time>2011-05-30T09:31:03Z</time>
      </trkpt>
      <trkpt lat="44.62094" lon="6.14409">
        <ele>1280</ele>
        <time>2011-05-30T09:31:22Z</time>
      </trkpt>
      <trkpt lat="44.62139" lon="6.14432">
        <ele>1283</ele>
        <time>2011-05-30T09:31:42Z</time>
      </trkpt>
      <trkpt lat="44.62176" lon="6.14465">
        <ele>1281</ele>
        <time>2011-05-30T09:32:01Z</time>
      </trkpt>
      <trkpt lat="44.6219" lon="6.14524">
        <ele>1285</ele>
        <time>2011-05-30T09:32:20Z</time>
      </trkpt>
      <trkpt lat="44.62174" lon="6.14573">
        <ele>1289</ele>
        <time>2011-05-30T09:32:38Z</time>
      </trkpt>
      <trkpt lat="44.6219" lon="6.14628">
        <ele>1291</ele>
        <time>2011-05-30T09:32:55Z</time>
      </trkpt>
      <trkpt lat="44.62225" lon="6.14674">
        <ele>1294</ele>
        <time>2011-05-30T09:33:11Z</time>
      </trkpt>
      <trkpt lat="44.62252" lon="6.1474">
        <ele>1294</ele>
        <time>2011-05-30T09:33:30Z</time>
      </trkpt>
      <trkpt lat="44.62273" lon="6.14812">
        <ele>1298</ele>
        <time>2011-05-30T09:33:50Z</time>
      </trkpt>
      <trkpt lat="44.6231" lon="6.14866">
        <ele>1304</ele>
        <time>2011-05-30T09:34:09Z</time>
      </trkpt>
      <trkpt lat="44.62342" lon="6.1492">
        <ele>1307</ele>
        <time>2011-05-30T09:34:28Z</time>
      </trkpt>
      <trkpt lat="44.62378" lon="6.14987">
        <ele>1310</ele>
        <time>2011-05-30T09:34:53Z</time>
      </trkpt>
      <trkpt lat="44.62414" lon="6.15026">
        <ele>1316</ele>
        <time>2011-05-30T09:35:13Z</time>
      </trkpt>
      <trkpt lat="44.62447" lon="6.15046">
        <ele>1310</ele>
        <time>2011-05-30T09:35:28Z</time>
      </trkpt>
      <trkpt lat="44.62499" lon="6.1508">
        <ele>1312</ele>
        <time>2011-05-30T09:35:50Z</time>
      </trkpt>
      <trkpt lat="44.62513" lon="6.15138">
        <ele>1314</ele>
        <time>2011-05-30T09:36:07Z</time>
      </trkpt>
      <trkpt lat="44.62496" lon="6.15192">
        <ele>1322</ele>
        <time>2011-05-30T09:36:24Z</time>
      </trkpt>
      <trkpt lat="44.62475" lon="6.15259">
        <ele>1323</ele>
        <time>2011-05-30T09:36:45Z</time>
      </trkpt>
      <trkpt lat="44.62475" lon="6.15325">
        <ele>1323</ele>
        <time>2011-05-30T09:37:04Z</time>
      </trkpt>
      <trkpt lat="44.62458" lon="6.15405">
        <ele>1322</ele>
        <time>2011-05-30T09:37:27Z</time>
      </trkpt>
      <trkpt lat="44.62425" lon="6.15471">
        <ele>1321</ele>
        <time>2011-05-30T09:37:39Z</time>
      </trkpt>
      <trkpt lat="44.62405" lon="6.15512">
        <ele>1323</ele>
        <time>2011-05-30T09:37:47Z</time>
      </trkpt>
      <trkpt lat="44.62374" lon="6.15586">
        <ele>1325</ele>
        <time>2011-05-30T09:38:04Z</time>
      </trkpt>
      <trkpt lat="44.62365" lon="6.15647">
        <ele>1326</ele>
        <time>2011-05-30T09:38:19Z</time>
      </trkpt>
      <trkpt lat="44.62359" lon="6.15703">
        <ele>1326</ele>
        <time>2011-05-30T09:38:36Z</time>
      </trkpt>
      <trkpt lat="44.62341" lon="6.15757">
        <ele>1329</ele>
        <time>2011-05-30T09:38:52Z</time>
      </trkpt>
      <trkpt lat="44.6233" lon="6.15826">
        <ele>1335</ele>
        <time>2011-05-30T09:39:12Z</time>
      </trkpt>
      <trkpt lat="44.62347" lon="6.15907">
        <ele>1335</ele>
        <time>2011-05-30T09:39:36Z</time>
      </trkpt>
      <trkpt lat="44.62356" lon="6.15959">
        <ele>1336</ele>
        <time>2011-05-30T09:39:52Z</time>
      </trkpt>
      <trkpt lat="44.62368" lon="6.16015">
        <ele>1338</ele>
        <time>2011-05-30T09:40:09Z</time>
      </trkpt>
      <trkpt lat="44.62391" lon="6.16079">
        <ele>1338</ele>
        <time>2011-05-30T09:40:28Z</time>
      </trkpt>
      <trkpt lat="44.62386" lon="6.16115">
        <ele>1336</ele>
        <time>2011-05-30T09:40:39Z</time>
      </trkpt>
      <trkpt lat="44.62356" lon="6.16124">
        <ele>1336</ele>
        <time>2011-05-30T09:40:52Z</time>
      </trkpt>
      <trkpt lat="44.62292" lon="6.16119">
        <ele>1341</ele>
        <time>2011-05-30T09:41:09Z</time>
      </trkpt>
      <trkpt lat="44.62269" lon="6.16121">
        <ele>1341</ele>
        <time>2011-05-30T09:41:14Z</time>
      </trkpt>
      <trkpt lat="44.6226" lon="6.16122">
        <ele>1341</ele>
        <time>2011-05-30T09:41:16Z</time>
      </trkpt>
      <trkpt lat="44.62237" lon="6.16163">
        <ele>1341</ele>
        <time>2011-05-30T09:41:24Z</time>
      </trkpt>
      <trkpt lat="44.62237" lon="6.1617">
        <ele>1340</ele>
        <time>2011-05-30T09:41:25Z</time>
      </trkpt>
      <trkpt lat="44.62239" lon="6.16189">
        <ele>1341</ele>
        <time>2011-05-30T09:41:28Z</time>
      </trkpt>
      <trkpt lat="44.62249" lon="6.16259">
        <ele>1344</ele>
        <time>2011-05-30T09:41:43Z</time>
      </trkpt>
      <trkpt lat="44.62262" lon="6.16351">
        <ele>1345</ele>
        <time>2011-05-30T09:42:01Z</time>
      </trkpt>
      <trkpt lat="44.62283" lon="6.16482">
        <ele>1345</ele>
        <time>2011-05-30T09:42:22Z</time>
      </trkpt>
      <trkpt lat="44.62299" lon="6.1659">
        <ele>1346</ele>
        <time>2011-05-30T09:42:43Z</time>
      </trkpt>
      <trkpt lat="44.62316" lon="6.16714">
        <ele>1346</ele>
        <time>2011-05-30T09:43:05Z</time>
      </trkpt>
      <trkpt lat="44.62316" lon="6.16736">
        <ele>1346</ele>
        <time>2011-05-30T09:43:08Z</time>
      </trkpt>
      <trkpt lat="44.62314" lon="6.16759">
        <ele>1343</ele>
        <time>2011-05-30T09:43:11Z</time>
      </trkpt>
      <trkpt lat="44.62276" lon="6.16857">
        <ele>1336</ele>
        <time>2011-05-30T09:43:24Z</time>
      </trkpt>
      <trkpt lat="44.62261" lon="6.16894">
        <ele>1335</ele>
        <time>2011-05-30T09:43:28Z</time>
      </trkpt>
      <trkpt lat="44.6224" lon="6.16929">
        <ele>1336</ele>
        <time>2011-05-30T09:43:32Z</time>
      </trkpt>
      <trkpt lat="44.62234" lon="6.16938">
        <ele>1336</ele>
        <time>2011-05-30T09:43:33Z</time>
      </trkpt>
      <trkpt lat="44.6221" lon="6.16969">
        <ele>1335</ele>
        <time>2011-05-30T09:43:37Z</time>
      </trkpt>
      <trkpt lat="44.62193" lon="6.1699">
        <ele>1336</ele>
        <time>2011-05-30T09:43:40Z</time>
      </trkpt>
      <trkpt lat="44.62125" lon="6.17082">
        <ele>1336</ele>
        <time>2011-05-30T09:43:54Z</time>
      </trkpt>
      <trkpt lat="44.62113" lon="6.17098">
        <ele>1329</ele>
        <time>2011-05-30T09:43:56Z</time>
      </trkpt>
      <trkpt lat="44.62101" lon="6.17116">
        <ele>1328</ele>
        <time>2011-05-30T09:43:58Z</time>
      </trkpt>
      <trkpt lat="44.62076" lon="6.17155">
        <ele>1330</ele>
        <time>2011-05-30T09:44:02Z</time>
      </trkpt>
      <trkpt lat="44.62053" lon="6.17231">
        <ele>1325</ele>
        <time>2011-05-30T09:44:08Z</time>
      </trkpt>
      <trkpt lat="44.62033" lon="6.17308">
        <ele>1320</ele>
        <time>2011-05-30T09:44:14Z</time>
      </trkpt>
      <trkpt lat="44.62014" lon="6.17382">
        <ele>1313</ele>
        <time>2011-05-30T09:44:20Z</time>
      </trkpt>
      <trkpt lat="44.62009" lon="6.17394">
        <ele>1313</ele>
        <time>2011-05-30T09:44:21Z</time>
      </trkpt>
      <trkpt lat="44.61992" lon="6.17429">
        <ele>1314</ele>
        <time>2011-05-30T09:44:24Z</time>
      </trkpt>
      <trkpt lat="44.61978" lon="6.17449">
        <ele>1313</ele>
        <time>2011-05-30T09:44:26Z</time>
      </trkpt>
      <trkpt lat="44.61947" lon="6.17486">
        <ele>1312</ele>
        <time>2011-05-30T09:44:30Z</time>
      </trkpt>
      <trkpt lat="44.61918" lon="6.17519">
        <ele>1307</ele>
        <time>2011-05-30T09:44:34Z</time>
      </trkpt>
      <trkpt lat="44.6191" lon="6.17526">
        <ele>1309</ele>
        <time>2011-05-30T09:44:35Z</time>
      </trkpt>
      <trkpt lat="44.61895" lon="6.17542">
        <ele>1308</ele>
        <time>2011-05-30T09:44:37Z</time>
      </trkpt>
      <trkpt lat="44.61866" lon="6.17594">
        <ele>1302</ele>
        <time>2011-05-30T09:44:42Z</time>
      </trkpt>
      <trkpt lat="44.61851" lon="6.1763">
        <ele>1300</ele>
        <time>2011-05-30T09:44:45Z</time>
      </trkpt>
      <trkpt lat="44.61846" lon="6.17643">
        <ele>1300</ele>
        <time>2011-05-30T09:44:46Z</time>
      </trkpt>
      <trkpt lat="44.61817" lon="6.17751">
        <ele>1299</ele>
        <time>2011-05-30T09:44:55Z</time>
      </trkpt>
      <trkpt lat="44.61788" lon="6.17894">
        <ele>1297</ele>
        <time>2011-05-30T09:45:08Z</time>
      </trkpt>
      <trkpt lat="44.61781" lon="6.17942">
        <ele>1296</ele>
        <time>2011-05-30T09:45:14Z</time>
      </trkpt>
      <trkpt lat="44.6178" lon="6.17949">
        <ele>1296</ele>
        <time>2011-05-30T09:45:15Z</time>
      </trkpt>
      <trkpt lat="44.61784" lon="6.18064">
        <ele>1296</ele>
        <time>2011-05-30T09:45:31Z</time>
      </trkpt>
      <trkpt lat="44.618" lon="6.18142">
        <ele>1295</ele>
        <time>2011-05-30T09:45:40Z</time>
      </trkpt>
      <trkpt lat="44.61828" lon="6.18234">
        <ele>1294</ele>
        <time>2011-05-30T09:45:52Z</time>
      </trkpt>
      <trkpt lat="44.61855" lon="6.1833">
        <ele>1294</ele>
        <time>2011-05-30T09:46:10Z</time>
      </trkpt>
      <trkpt lat="44.61861" lon="6.18375">
        <ele>1295</ele>
        <time>2011-05-30T09:46:23Z</time>
      </trkpt>
      <trkpt lat="44.61859" lon="6.18472">
        <ele>1296</ele>
        <time>2011-05-30T09:46:42Z</time>
      </trkpt>
      <trkpt lat="44.61847" lon="6.1856">
        <ele>1298</ele>
        <time>2011-05-30T09:46:59Z</time>
      </trkpt>
      <trkpt lat="44.61833" lon="6.18694">
        <ele>1301</ele>
        <time>2011-05-30T09:47:25Z</time>
      </trkpt>
      <trkpt lat="44.61831" lon="6.18803">
        <ele>1304</ele>
        <time>2011-05-30T09:47:46Z</time>
      </trkpt>
      <trkpt lat="44.61831" lon="6.189">
        <ele>1306</ele>
        <time>2011-05-30T09:48:07Z</time>
      </trkpt>
      <trkpt lat="44.61831" lon="6.18999">
        <ele>1306</ele>
        <time>2011-05-30T09:48:30Z</time>
      </trkpt>
      <trkpt lat="44.61831" lon="6.19094">
        <ele>1310</ele>
        <time>2011-05-30T09:48:51Z</time>
      </trkpt>
      <trkpt lat="44.61835" lon="6.19189">
        <ele>1310</ele>
        <time>2011-05-30T09:49:12Z</time>
      </trkpt>
      <trkpt lat="44.61831" lon="6.19265">
        <ele>1314</ele>
        <time>2011-05-30T09:49:32Z</time>
      </trkpt>
      <trkpt lat="44.61823" lon="6.19324">
        <ele>1316</ele>
        <time>2011-05-30T09:49:49Z</time>
      </trkpt>
      <trkpt lat="44.61811" lon="6.19396">
        <ele>1323</ele>
        <time>2011-05-30T09:50:09Z</time>
      </trkpt>
      <trkpt lat="44.61803" lon="6.19455">
        <ele>1326</ele>
        <time>2011-05-30T09:50:27Z</time>
      </trkpt>
      <trkpt lat="44.61795" lon="6.19513">
        <ele>1326</ele>
        <time>2011-05-30T09:50:44Z</time>
      </trkpt>
      <trkpt lat="44.61795" lon="6.19519">
        <ele>1326</ele>
        <time>2011-05-30T09:50:56Z</time>
      </trkpt>
      <trkpt lat="44.61795" lon="6.19519">
        <ele>1326</ele>
        <time>2011-05-30T09:51:19Z</time>
      </trkpt>
      <trkpt lat="44.61795" lon="6.19519">
        <ele>1326</ele>
        <time>2011-05-30T09:52:13Z</time>
      </trkpt>
      <trkpt lat="44.61795" lon="6.19519">
        <ele>1326</ele>
        <time>2011-05-30T09:52:14Z</time>
      </trkpt>
      <trkpt lat="44.61795" lon="6.19519">
        <ele>1326</ele>
        <time>2011-05-30T09:52:20Z</time>
      </trkpt>
      <trkpt lat="44.61795" lon="6.19519">
        <ele>1326</ele>
        <time>2011-05-30T09:52:21Z</time>
      </trkpt>
      <trkpt lat="44.61795" lon="6.19519">
        <ele>1326</ele>
        <time>2011-05-30T09:52:22Z</time>
      </trkpt>
      <trkpt lat="44.61795" lon="6.19519">
        <ele>1326</ele>
        <time>2011-05-30T09:52:23Z</time>
      </trkpt>
      <trkpt lat="44.61795" lon="6.19519">
        <ele>1326</ele>
        <time>2011-05-30T09:52:36Z</time>
      </trkpt>
      <trkpt lat="44.61795" lon="6.19519">
        <ele>1326</ele>
        <time>2011-05-30T09:52:57Z</time>
      </trkpt>
      <trkpt lat="44.61795" lon="6.19519">
        <ele>1326</ele>
        <time>2011-05-30T09:52:58Z</time>
      </trkpt>
      <trkpt lat="44.61795" lon="6.19519">
        <ele>1326</ele>
        <time>2011-05-30T09:53:04Z</time>
      </trkpt>
      <trkpt lat="44.61795" lon="6.19519">
        <ele>1326</ele>
        <time>2011-05-30T09:53:05Z</time>
      </trkpt>
      <trkpt lat="44.61795" lon="6.19519">
        <ele>1326</ele>
        <time>2011-05-30T09:53:06Z</time>
      </trkpt>
      <trkpt lat="44.61795" lon="6.19519">
        <ele>1326</ele>
        <time>2011-05-30T09:53:07Z</time>
      </trkpt>
      <trkpt lat="44.61795" lon="6.19519">
        <ele>1326</ele>
        <time>2011-05-30T09:53:37Z</time>
      </trkpt>
      <trkpt lat="44.61795" lon="6.19519">
        <ele>1326</ele>
        <time>2011-05-30T09:53:38Z</time>
      </trkpt>
      <trkpt lat="44.61795" lon="6.19519">
        <ele>1326</ele>
        <time>2011-05-30T09:53:44Z</time>
      </trkpt>
      <trkpt lat="44.61795" lon="6.19519">
        <ele>1326</ele>
        <time>2011-05-30T09:53:45Z</time>
      </trkpt>
      <trkpt lat="44.61795" lon="6.19519">
        <ele>1326</ele>
        <time>2011-05-30T09:54:26Z</time>
      </trkpt>
      <trkpt lat="44.61795" lon="6.19519">
        <ele>1326</ele>
        <time>2011-05-30T09:54:27Z</time>
      </trkpt>
      <trkpt lat="44.61795" lon="6.19519">
        <ele>1326</ele>
        <time>2011-05-30T09:54:28Z</time>
      </trkpt>
      <trkpt lat="44.61795" lon="6.19519">
        <ele>1326</ele>
        <time>2011-05-30T09:54:29Z</time>
      </trkpt>
      <trkpt lat="44.61795" lon="6.19519">
        <ele>1326</ele>
        <time>2011-05-30T09:54:33Z</time>
      </trkpt>
      <trkpt lat="44.61795" lon="6.19519">
        <ele>1326</ele>
        <time>2011-05-30T09:54:34Z</time>
      </trkpt>
      <trkpt lat="44.61795" lon="6.19519">
        <ele>1326</ele>
        <time>2011-05-30T09:54:35Z</time>
      </trkpt>
      <trkpt lat="44.61795" lon="6.19519">
        <ele>1326</ele>
        <time>2011-05-30T09:54:36Z</time>
      </trkpt>
      <trkpt lat="44.61795" lon="6.19519">
        <ele>1326</ele>
        <time>2011-05-30T09:55:06Z</time>
      </trkpt>
      <trkpt lat="44.61795" lon="6.19519">
        <ele>1326</ele>
        <time>2011-05-30T09:55:07Z</time>
      </trkpt>
      <trkpt lat="44.61795" lon="6.19519">
        <ele>1326</ele>
        <time>2011-05-30T09:55:08Z</time>
      </trkpt>
      <trkpt lat="44.61795" lon="6.19519">
        <ele>1326</ele>
        <time>2011-05-30T09:55:09Z</time>
      </trkpt>
      <trkpt lat="44.61795" lon="6.19519">
        <ele>1326</ele>
        <time>2011-05-30T09:55:13Z</time>
      </trkpt>
      <trkpt lat="44.61795" lon="6.19519">
        <ele>1326</ele>
        <time>2011-05-30T09:55:14Z</time>
      </trkpt>
      <trkpt lat="44.61795" lon="6.19519">
        <ele>1326</ele>
        <time>2011-05-30T09:55:32Z</time>
      </trkpt>
      <trkpt lat="44.61795" lon="6.19519">
        <ele>1326</ele>
        <time>2011-05-30T09:55:33Z</time>
      </trkpt>
      <trkpt lat="44.61795" lon="6.19519">
        <ele>1326</ele>
        <time>2011-05-30T09:55:38Z</time>
      </trkpt>
      <trkpt lat="44.61795" lon="6.19519">
        <ele>1326</ele>
        <time>2011-05-30T09:55:39Z</time>
      </trkpt>
      <trkpt lat="44.61795" lon="6.19519">
        <ele>1326</ele>
        <time>2011-05-30T09:55:40Z</time>
      </trkpt>
      <trkpt lat="44.61795" lon="6.19519">
        <ele>1326</ele>
        <time>2011-05-30T09:55:41Z</time>
      </trkpt>
      <trkpt lat="44.61795" lon="6.19519">
        <ele>1326</ele>
        <time>2011-05-30T09:56:09Z</time>
      </trkpt>
      <trkpt lat="44.61795" lon="6.19519">
        <ele>1326</ele>
        <time>2011-05-30T09:56:10Z</time>
      </trkpt>
      <trkpt lat="44.61795" lon="6.19519">
        <ele>1326</ele>
        <time>2011-05-30T09:56:19Z</time>
      </trkpt>
      <trkpt lat="44.61796" lon="6.1953">
        <ele>1326</ele>
        <time>2011-05-30T09:56:23Z</time>
      </trkpt>
      <trkpt lat="44.61803" lon="6.19572">
        <ele>1325</ele>
        <time>2011-05-30T09:56:39Z</time>
      </trkpt>
      <trkpt lat="44.61803" lon="6.19572">
        <ele>1325</ele>
        <time>2011-05-30T09:57:08Z</time>
      </trkpt>
      <trkpt lat="44.61803" lon="6.19572">
        <ele>1325</ele>
        <time>2011-05-30T09:57:14Z</time>
      </trkpt>
      <trkpt lat="44.61803" lon="6.19572">
        <ele>1325</ele>
        <time>2011-05-30T09:57:43Z</time>
      </trkpt>
      <trkpt lat="44.61803" lon="6.19572">
        <ele>1325</ele>
        <time>2011-05-30T09:57:44Z</time>
      </trkpt>
      <trkpt lat="44.61803" lon="6.19572">
        <ele>1325</ele>
        <time>2011-05-30T09:57:49Z</time>
      </trkpt>
      <trkpt lat="44.61803" lon="6.19572">
        <ele>1325</ele>
        <time>2011-05-30T09:57:50Z</time>
      </trkpt>
      <trkpt lat="44.61803" lon="6.19572">
        <ele>1325</ele>
        <time>2011-05-30T09:57:52Z</time>
      </trkpt>
      <trkpt lat="44.61805" lon="6.19582">
        <ele>1325</ele>
        <time>2011-05-30T09:57:56Z</time>
      </trkpt>
      <trkpt lat="44.61829" lon="6.19637">
        <ele>1325</ele>
        <time>2011-05-30T09:58:12Z</time>
      </trkpt>
      <trkpt lat="44.61884" lon="6.19751">
        <ele>1325</ele>
        <time>2011-05-30T09:58:37Z</time>
      </trkpt>
      <trkpt lat="44.61928" lon="6.19838">
        <ele>1324</ele>
        <time>2011-05-30T09:58:55Z</time>
      </trkpt>
      <trkpt lat="44.61964" lon="6.1994">
        <ele>1324</ele>
        <time>2011-05-30T09:59:17Z</time>
      </trkpt>
      <trkpt lat="44.61995" lon="6.20058">
        <ele>1325</ele>
        <time>2011-05-30T09:59:44Z</time>
      </trkpt>
      <trkpt lat="44.6203" lon="6.20129">
        <ele>1326</ele>
        <time>2011-05-30T10:00:01Z</time>
      </trkpt>
      <trkpt lat="44.62073" lon="6.20204">
        <ele>1328</ele>
        <time>2011-05-30T10:00:19Z</time>
      </trkpt>
      <trkpt lat="44.62104" lon="6.20248">
        <ele>1328</ele>
        <time>2011-05-30T10:00:33Z</time>
      </trkpt>
      <trkpt lat="44.62123" lon="6.20301">
        <ele>1331</ele>
        <time>2011-05-30T10:00:50Z</time>
      </trkpt>
      <trkpt lat="44.62132" lon="6.20374">
        <ele>1334</ele>
        <time>2011-05-30T10:01:08Z</time>
      </trkpt>
      <trkpt lat="44.62141" lon="6.20482">
        <ele>1336</ele>
        <time>2011-05-30T10:01:34Z</time>
      </trkpt>
      <trkpt lat="44.62142" lon="6.20546">
        <ele>1337</ele>
        <time>2011-05-30T10:01:51Z</time>
      </trkpt>
      <trkpt lat="44.62145" lon="6.20608">
        <ele>1339</ele>
        <time>2011-05-30T10:02:07Z</time>
      </trkpt>
      <trkpt lat="44.62165" lon="6.20682">
        <ele>1341</ele>
        <time>2011-05-30T10:02:26Z</time>
      </trkpt>
      <trkpt lat="44.62185" lon="6.20759">
        <ele>1342</ele>
        <time>2011-05-30T10:02:47Z</time>
      </trkpt>
      <trkpt lat="44.622" lon="6.20828">
        <ele>1341</ele>
        <time>2011-05-30T10:03:06Z</time>
      </trkpt>
      <trkpt lat="44.62214" lon="6.20902">
        <ele>1341</ele>
        <time>2011-05-30T10:03:28Z</time>
      </trkpt>
      <trkpt lat="44.62217" lon="6.20921">
        <ele>1342</ele>
        <time>2011-05-30T10:03:34Z</time>
      </trkpt>
      <trkpt lat="44.62205" lon="6.20939">
        <ele>1343</ele>
        <time>2011-05-30T10:03:41Z</time>
      </trkpt>
      <trkpt lat="44.62161" lon="6.20935">
        <ele>1345</ele>
        <time>2011-05-30T10:03:59Z</time>
      </trkpt>
      <trkpt lat="44.62158" lon="6.20935">
        <ele>1346</ele>
        <time>2011-05-30T10:04:14Z</time>
      </trkpt>
      <trkpt lat="44.62158" lon="6.20935">
        <ele>1346</ele>
        <time>2011-05-30T10:06:05Z</time>
      </trkpt>
      <trkpt lat="44.62158" lon="6.20935">
        <ele>1346</ele>
        <time>2011-05-30T10:06:06Z</time>
      </trkpt>
      <trkpt lat="44.62158" lon="6.20935">
        <ele>1346</ele>
        <time>2011-05-30T10:06:07Z</time>
      </trkpt>
      <trkpt lat="44.62158" lon="6.20935">
        <ele>1346</ele>
        <time>2011-05-30T10:06:09Z</time>
      </trkpt>
      <trkpt lat="44.62139" lon="6.20934">
        <ele>1346</ele>
        <time>2011-05-30T10:06:34Z</time>
      </trkpt>
      <trkpt lat="44.62105" lon="6.20933">
        <ele>1348</ele>
        <time>2011-05-30T10:06:49Z</time>
      </trkpt>
      <trkpt lat="44.62064" lon="6.20931">
        <ele>1350</ele>
        <time>2011-05-30T10:07:07Z</time>
      </trkpt>
      <trkpt lat="44.62022" lon="6.20929">
        <ele>1352</ele>
        <time>2011-05-30T10:07:26Z</time>
      </trkpt>
      <trkpt lat="44.61967" lon="6.2092">
        <ele>1354</ele>
        <time>2011-05-30T10:07:50Z</time>
      </trkpt>
      <trkpt lat="44.61927" lon="6.20912">
        <ele>1355</ele>
        <time>2011-05-30T10:08:09Z</time>
      </trkpt>
      <trkpt lat="44.61882" lon="6.20919">
        <ele>1356</ele>
        <time>2011-05-30T10:08:30Z</time>
      </trkpt>
      <trkpt lat="44.61845" lon="6.20944">
        <ele>1357</ele>
        <time>2011-05-30T10:08:49Z</time>
      </trkpt>
      <trkpt lat="44.61796" lon="6.20982">
        <ele>1360</ele>
        <time>2011-05-30T10:09:14Z</time>
      </trkpt>
      <trkpt lat="44.61746" lon="6.21023">
        <ele>1363</ele>
        <time>2011-05-30T10:09:39Z</time>
      </trkpt>
      <trkpt lat="44.61707" lon="6.21056">
        <ele>1365</ele>
        <time>2011-05-30T10:09:59Z</time>
      </trkpt>
      <trkpt lat="44.61666" lon="6.21096">
        <ele>1372</ele>
        <time>2011-05-30T10:10:22Z</time>
      </trkpt>
      <trkpt lat="44.61643" lon="6.2114">
        <ele>1377</ele>
        <time>2011-05-30T10:10:41Z</time>
      </trkpt>
      <trkpt lat="44.61633" lon="6.21193">
        <ele>1382</ele>
        <time>2011-05-30T10:11:01Z</time>
      </trkpt>
      <trkpt lat="44.61627" lon="6.21246">
        <ele>1385</ele>
        <time>2011-05-30T10:11:23Z</time>
      </trkpt>
      <trkpt lat="44.61628" lon="6.2128">
        <ele>1391</ele>
        <time>2011-05-30T10:11:37Z</time>
      </trkpt>
      <trkpt lat="44.61635" lon="6.2134">
        <ele>1396</ele>
        <time>2011-05-30T10:12:00Z</time>
      </trkpt>
      <trkpt lat="44.61643" lon="6.21397">
        <ele>1397</ele>
        <time>2011-05-30T10:12:24Z</time>
      </trkpt>
      <trkpt lat="44.61649" lon="6.21442">
        <ele>1397</ele>
        <time>2011-05-30T10:12:44Z</time>
      </trkpt>
      <trkpt lat="44.61655" lon="6.21485">
        <ele>1397</ele>
        <time>2011-05-30T10:13:03Z</time>
      </trkpt>
      <trkpt lat="44.61648" lon="6.21536">
        <ele>1401</ele>
        <time>2011-05-30T10:13:26Z</time>
      </trkpt>
      <trkpt lat="44.61642" lon="6.2155">
        <ele>1402</ele>
        <time>2011-05-30T10:13:34Z</time>
      </trkpt>
      <trkpt lat="44.61615" lon="6.21579">
        <ele>1402</ele>
        <time>2011-05-30T10:13:54Z</time>
      </trkpt>
      <trkpt lat="44.61584" lon="6.21601">
        <ele>1412</ele>
        <time>2011-05-30T10:14:15Z</time>
      </trkpt>
      <trkpt lat="44.61579" lon="6.21606">
        <ele>1409</ele>
        <time>2011-05-30T10:14:19Z</time>
      </trkpt>
      <trkpt lat="44.61572" lon="6.21611">
        <ele>1410</ele>
        <time>2011-05-30T10:14:24Z</time>
      </trkpt>
      <trkpt lat="44.61541" lon="6.21635">
        <ele>1414</ele>
        <time>2011-05-30T10:14:46Z</time>
      </trkpt>
      <trkpt lat="44.61509" lon="6.21657">
        <ele>1415</ele>
        <time>2011-05-30T10:15:07Z</time>
      </trkpt>
      <trkpt lat="44.6147" lon="6.21669">
        <ele>1426</ele>
        <time>2011-05-30T10:15:28Z</time>
      </trkpt>
      <trkpt lat="44.61441" lon="6.21663">
        <ele>1417</ele>
        <time>2011-05-30T10:15:44Z</time>
      </trkpt>
      <trkpt lat="44.61434" lon="6.21665">
        <ele>1417</ele>
        <time>2011-05-30T10:15:48Z</time>
      </trkpt>
      <trkpt lat="44.61429" lon="6.21671">
        <ele>1424</ele>
        <time>2011-05-30T10:15:51Z</time>
      </trkpt>
      <trkpt lat="44.61448" lon="6.21699">
        <ele>1430</ele>
        <time>2011-05-30T10:16:06Z</time>
      </trkpt>
      <trkpt lat="44.61486" lon="6.21697">
        <ele>1430</ele>
        <time>2011-05-30T10:16:28Z</time>
      </trkpt>
      <trkpt lat="44.61495" lon="6.21697">
        <ele>1429</ele>
        <time>2011-05-30T10:16:34Z</time>
      </trkpt>
      <trkpt lat="44.61536" lon="6.21692">
        <ele>1437</ele>
        <time>2011-05-30T10:16:59Z</time>
      </trkpt>
      <trkpt lat="44.61555" lon="6.21678">
        <ele>1436</ele>
        <time>2011-05-30T10:17:12Z</time>
      </trkpt>
      <trkpt lat="44.61585" lon="6.21657">
        <ele>1427</ele>
        <time>2011-05-30T10:17:33Z</time>
      </trkpt>
      <trkpt lat="44.61603" lon="6.21648">
        <ele>1426</ele>
        <time>2011-05-30T10:17:45Z</time>
      </trkpt>
      <trkpt lat="44.61642" lon="6.2164">
        <ele>1429</ele>
        <time>2011-05-30T10:18:09Z</time>
      </trkpt>
      <trkpt lat="44.61676" lon="6.21638">
        <ele>1438</ele>
        <time>2011-05-30T10:18:29Z</time>
      </trkpt>
      <trkpt lat="44.61681" lon="6.21635">
        <ele>1437</ele>
        <time>2011-05-30T10:18:32Z</time>
      </trkpt>
      <trkpt lat="44.61689" lon="6.21637">
        <ele>1438</ele>
        <time>2011-05-30T10:18:36Z</time>
      </trkpt>
      <trkpt lat="44.61692" lon="6.21646">
        <ele>1440</ele>
        <time>2011-05-30T10:18:38Z</time>
      </trkpt>
      <trkpt lat="44.6169" lon="6.21658">
        <ele>1442</ele>
        <time>2011-05-30T10:18:42Z</time>
      </trkpt>
      <trkpt lat="44.61655" lon="6.21658">
        <ele>1440</ele>
        <time>2011-05-30T10:18:59Z</time>
      </trkpt>
      <trkpt lat="44.61622" lon="6.21659">
        <ele>1429</ele>
        <time>2011-05-30T10:19:19Z</time>
      </trkpt>
      <trkpt lat="44.61593" lon="6.21686">
        <ele>1447</ele>
        <time>2011-05-30T10:19:41Z</time>
      </trkpt>
      <trkpt lat="44.6157" lon="6.21717">
        <ele>1446</ele>
        <time>2011-05-30T10:20:02Z</time>
      </trkpt>
      <trkpt lat="44.61551" lon="6.21746">
        <ele>1450</ele>
        <time>2011-05-30T10:20:19Z</time>
      </trkpt>
      <trkpt lat="44.61529" lon="6.21757">
        <ele>1470</ele>
        <time>2011-05-30T10:20:33Z</time>
      </trkpt>
      <trkpt lat="44.61514" lon="6.21758">
        <ele>1464</ele>
        <time>2011-05-30T10:20:42Z</time>
      </trkpt>
      <trkpt lat="44.61484" lon="6.21761">
        <ele>1459</ele>
        <time>2011-05-30T10:21:02Z</time>
      </trkpt>
      <trkpt lat="44.61472" lon="6.21769">
        <ele>1462</ele>
        <time>2011-05-30T10:21:11Z</time>
      </trkpt>
      <trkpt lat="44.61454" lon="6.21795">
        <ele>1467</ele>
        <time>2011-05-30T10:21:28Z</time>
      </trkpt>
      <trkpt lat="44.61429" lon="6.2182">
        <ele>1473</ele>
        <time>2011-05-30T10:21:46Z</time>
      </trkpt>
      <trkpt lat="44.61422" lon="6.21817">
        <ele>1473</ele>
        <time>2011-05-30T10:21:50Z</time>
      </trkpt>
      <trkpt lat="44.61392" lon="6.21817">
        <ele>1474</ele>
        <time>2011-05-30T10:22:10Z</time>
      </trkpt>
      <trkpt lat="44.61361" lon="6.21807">
        <ele>1475</ele>
        <time>2011-05-30T10:22:28Z</time>
      </trkpt>
      <trkpt lat="44.61341" lon="6.21784">
        <ele>1472</ele>
        <time>2011-05-30T10:22:42Z</time>
      </trkpt>
      <trkpt lat="44.61314" lon="6.21761">
        <ele>1475</ele>
        <time>2011-05-30T10:23:00Z</time>
      </trkpt>
      <trkpt lat="44.61312" lon="6.2176">
        <ele>1475</ele>
        <time>2011-05-30T10:23:01Z</time>
      </trkpt>
      <trkpt lat="44.61285" lon="6.21763">
        <ele>1477</ele>
        <time>2011-05-30T10:23:19Z</time>
      </trkpt>
      <trkpt lat="44.61254" lon="6.21784">
        <ele>1480</ele>
        <time>2011-05-30T10:23:39Z</time>
      </trkpt>
      <trkpt lat="44.61222" lon="6.21793">
        <ele>1478</ele>
        <time>2011-05-30T10:23:58Z</time>
      </trkpt>
      <trkpt lat="44.61199" lon="6.21827">
        <ele>1481</ele>
        <time>2011-05-30T10:24:18Z</time>
      </trkpt>
      <trkpt lat="44.6118" lon="6.21865">
        <ele>1500</ele>
        <time>2011-05-30T10:24:36Z</time>
      </trkpt>
      <trkpt lat="44.61144" lon="6.21874">
        <ele>1496</ele>
        <time>2011-05-30T10:24:54Z</time>
      </trkpt>
      <trkpt lat="44.61108" lon="6.2188">
        <ele>1496</ele>
        <time>2011-05-30T10:25:13Z</time>
      </trkpt>
      <trkpt lat="44.61071" lon="6.21893">
        <ele>1497</ele>
        <time>2011-05-30T10:25:33Z</time>
      </trkpt>
      <trkpt lat="44.61036" lon="6.21883">
        <ele>1494</ele>
        <time>2011-05-30T10:25:50Z</time>
      </trkpt>
      <trkpt lat="44.60999" lon="6.21884">
        <ele>1495</ele>
        <time>2011-05-30T10:26:07Z</time>
      </trkpt>
      <trkpt lat="44.60958" lon="6.2186">
        <ele>1494</ele>
        <time>2011-05-30T10:26:23Z</time>
      </trkpt>
      <trkpt lat="44.60913" lon="6.21858">
        <ele>1499</ele>
        <time>2011-05-30T10:26:41Z</time>
      </trkpt>
      <trkpt lat="44.60868" lon="6.21847">
        <ele>1503</ele>
        <time>2011-05-30T10:26:57Z</time>
      </trkpt>
      <trkpt lat="44.60863" lon="6.21842">
        <ele>1503</ele>
        <time>2011-05-30T10:26:59Z</time>
      </trkpt>
      <trkpt lat="44.60852" lon="6.21777">
        <ele>1498</ele>
        <time>2011-05-30T10:27:14Z</time>
      </trkpt>
      <trkpt lat="44.60876" lon="6.21715">
        <ele>1496</ele>
        <time>2011-05-30T10:27:31Z</time>
      </trkpt>
      <trkpt lat="44.60869" lon="6.21655">
        <ele>1502</ele>
        <time>2011-05-30T10:27:46Z</time>
      </trkpt>
      <trkpt lat="44.60892" lon="6.21616">
        <ele>1501</ele>
        <time>2011-05-30T10:28:04Z</time>
      </trkpt>
      <trkpt lat="44.60895" lon="6.2159">
        <ele>1501</ele>
        <time>2011-05-30T10:28:18Z</time>
      </trkpt>
      <trkpt lat="44.60864" lon="6.21614">
        <ele>1503</ele>
        <time>2011-05-30T10:28:38Z</time>
      </trkpt>
      <trkpt lat="44.6083" lon="6.21615">
        <ele>1510</ele>
        <time>2011-05-30T10:28:58Z</time>
      </trkpt>
      <trkpt lat="44.60809" lon="6.21617">
        <ele>1510</ele>
        <time>2011-05-30T10:29:11Z</time>
      </trkpt>
      <trkpt lat="44.60776" lon="6.21643">
        <ele>1511</ele>
        <time>2011-05-30T10:29:32Z</time>
      </trkpt>
      <trkpt lat="44.6075" lon="6.21682">
        <ele>1515</ele>
        <time>2011-05-30T10:29:51Z</time>
      </trkpt>
      <trkpt lat="44.60716" lon="6.21705">
        <ele>1517</ele>
        <time>2011-05-30T10:30:10Z</time>
      </trkpt>
      <trkpt lat="44.60709" lon="6.2171">
        <ele>1517</ele>
        <time>2011-05-30T10:30:13Z</time>
      </trkpt>
      <trkpt lat="44.60709" lon="6.21737">
        <ele>1517</ele>
        <time>2011-05-30T10:30:22Z</time>
      </trkpt>
      <trkpt lat="44.60722" lon="6.21749">
        <ele>1516</ele>
        <time>2011-05-30T10:30:29Z</time>
      </trkpt>
      <trkpt lat="44.6075" lon="6.21778">
        <ele>1513</ele>
        <time>2011-05-30T10:30:49Z</time>
      </trkpt>
      <trkpt lat="44.6075" lon="6.21815">
        <ele>1515</ele>
        <time>2011-05-30T10:31:04Z</time>
      </trkpt>
      <trkpt lat="44.6073" lon="6.21834">
        <ele>1523</ele>
        <time>2011-05-30T10:31:17Z</time>
      </trkpt>
      <trkpt lat="44.60724" lon="6.21881">
        <ele>1525</ele>
        <time>2011-05-30T10:31:38Z</time>
      </trkpt>
      <trkpt lat="44.60728" lon="6.21917">
        <ele>1524</ele>
        <time>2011-05-30T10:31:54Z</time>
      </trkpt>
      <trkpt lat="44.60718" lon="6.21945">
        <ele>1529</ele>
        <time>2011-05-30T10:32:07Z</time>
      </trkpt>
      <trkpt lat="44.607" lon="6.21954">
        <ele>1530</ele>
        <time>2011-05-30T10:32:17Z</time>
      </trkpt>
      <trkpt lat="44.60679" lon="6.2194">
        <ele>1531</ele>
        <time>2011-05-30T10:32:31Z</time>
      </trkpt>
      <trkpt lat="44.60678" lon="6.21938">
        <ele>1531</ele>
        <time>2011-05-30T10:32:32Z</time>
      </trkpt>
      <trkpt lat="44.60677" lon="6.21936">
        <ele>1531</ele>
        <time>2011-05-30T10:32:33Z</time>
      </trkpt>
      <trkpt lat="44.60646" lon="6.21913">
        <ele>1534</ele>
        <time>2011-05-30T10:32:55Z</time>
      </trkpt>
      <trkpt lat="44.60637" lon="6.2191">
        <ele>1534</ele>
        <time>2011-05-30T10:33:01Z</time>
      </trkpt>
      <trkpt lat="44.60604" lon="6.21902">
        <ele>1536</ele>
        <time>2011-05-30T10:33:21Z</time>
      </trkpt>
      <trkpt lat="44.60574" lon="6.21893">
        <ele>1541</ele>
        <time>2011-05-30T10:33:41Z</time>
      </trkpt>
      <trkpt lat="44.60556" lon="6.21888">
        <ele>1541</ele>
        <time>2011-05-30T10:33:54Z</time>
      </trkpt>
      <trkpt lat="44.60551" lon="6.21886">
        <ele>1541</ele>
        <time>2011-05-30T10:33:57Z</time>
      </trkpt>
      <trkpt lat="44.60522" lon="6.21879">
        <ele>1542</ele>
        <time>2011-05-30T10:34:16Z</time>
      </trkpt>
      <trkpt lat="44.60488" lon="6.21885">
        <ele>1548</ele>
        <time>2011-05-30T10:34:39Z</time>
      </trkpt>
      <trkpt lat="44.60469" lon="6.21899">
        <ele>1549</ele>
        <time>2011-05-30T10:34:52Z</time>
      </trkpt>
      <trkpt lat="44.60446" lon="6.21918">
        <ele>1554</ele>
        <time>2011-05-30T10:35:09Z</time>
      </trkpt>
      <trkpt lat="44.60417" lon="6.21928">
        <ele>1554</ele>
        <time>2011-05-30T10:35:27Z</time>
      </trkpt>
      <trkpt lat="44.60387" lon="6.21933">
        <ele>1559</ele>
        <time>2011-05-30T10:35:46Z</time>
      </trkpt>
      <trkpt lat="44.60353" lon="6.21938">
        <ele>1560</ele>
        <time>2011-05-30T10:36:07Z</time>
      </trkpt>
      <trkpt lat="44.60326" lon="6.21942">
        <ele>1563</ele>
        <time>2011-05-30T10:36:24Z</time>
      </trkpt>
      <trkpt lat="44.60285" lon="6.2195">
        <ele>1565</ele>
        <time>2011-05-30T10:36:48Z</time>
      </trkpt>
      <trkpt lat="44.6027" lon="6.21953">
        <ele>1566</ele>
        <time>2011-05-30T10:36:58Z</time>
      </trkpt>
      <trkpt lat="44.6024" lon="6.21961">
        <ele>1570</ele>
        <time>2011-05-30T10:37:16Z</time>
      </trkpt>
      <trkpt lat="44.60202" lon="6.21974">
        <ele>1571</ele>
        <time>2011-05-30T10:37:39Z</time>
      </trkpt>
      <trkpt lat="44.60166" lon="6.21987">
        <ele>1574</ele>
        <time>2011-05-30T10:37:59Z</time>
      </trkpt>
      <trkpt lat="44.60129" lon="6.22003">
        <ele>1574</ele>
        <time>2011-05-30T10:38:20Z</time>
      </trkpt>
      <trkpt lat="44.60118" lon="6.22008">
        <ele>1574</ele>
        <time>2011-05-30T10:38:27Z</time>
      </trkpt>
      <trkpt lat="44.60108" lon="6.22013">
        <ele>1574</ele>
        <time>2011-05-30T10:38:43Z</time>
      </trkpt>
      <trkpt lat="44.60108" lon="6.22013">
        <ele>1574</ele>
        <time>2011-05-30T10:39:16Z</time>
      </trkpt>
      <trkpt lat="44.60108" lon="6.22013">
        <ele>1574</ele>
        <time>2011-05-30T10:39:18Z</time>
      </trkpt>
      <trkpt lat="44.60075" lon="6.22033">
        <ele>1572</ele>
        <time>2011-05-30T10:39:33Z</time>
      </trkpt>
      <trkpt lat="44.6003" lon="6.22061">
        <ele>1571</ele>
        <time>2011-05-30T10:39:48Z</time>
      </trkpt>
      <trkpt lat="44.60021" lon="6.22065">
        <ele>1570</ele>
        <time>2011-05-30T10:40:00Z</time>
      </trkpt>
      <trkpt lat="44.60021" lon="6.22065">
        <ele>1570</ele>
        <time>2011-05-30T10:40:23Z</time>
      </trkpt>
      <trkpt lat="44.60021" lon="6.22065">
        <ele>1570</ele>
        <time>2011-05-30T10:40:41Z</time>
      </trkpt>
      <trkpt lat="44.60021" lon="6.22065">
        <ele>1570</ele>
        <time>2011-05-30T10:41:53Z</time>
      </trkpt>
      <trkpt lat="44.60005" lon="6.22069">
        <ele>1569</ele>
        <time>2011-05-30T10:41:59Z</time>
      </trkpt>
      <trkpt lat="44.59967" lon="6.22034">
        <ele>1560</ele>
        <time>2011-05-30T10:42:14Z</time>
      </trkpt>
      <trkpt lat="44.59966" lon="6.2203">
        <ele>1560</ele>
        <time>2011-05-30T10:42:15Z</time>
      </trkpt>
      <trkpt lat="44.59972" lon="6.21973">
        <ele>1561</ele>
        <time>2011-05-30T10:42:25Z</time>
      </trkpt>
      <trkpt lat="44.59973" lon="6.21967">
        <ele>1561</ele>
        <time>2011-05-30T10:42:26Z</time>
      </trkpt>
      <trkpt lat="44.59958" lon="6.21938">
        <ele>1560</ele>
        <time>2011-05-30T10:42:34Z</time>
      </trkpt>
      <trkpt lat="44.59951" lon="6.21943">
        <ele>1559</ele>
        <time>2011-05-30T10:42:36Z</time>
      </trkpt>
      <trkpt lat="44.59944" lon="6.21965">
        <ele>1558</ele>
        <time>2011-05-30T10:42:39Z</time>
      </trkpt>
      <trkpt lat="44.59936" lon="6.22002">
        <ele>1554</ele>
        <time>2011-05-30T10:42:43Z</time>
      </trkpt>
      <trkpt lat="44.59928" lon="6.22039">
        <ele>1556</ele>
        <time>2011-05-30T10:42:47Z</time>
      </trkpt>
      <trkpt lat="44.59926" lon="6.22048">
        <ele>1555</ele>
        <time>2011-05-30T10:42:48Z</time>
      </trkpt>
      <trkpt lat="44.59916" lon="6.22104">
        <ele>1544</ele>
        <time>2011-05-30T10:42:54Z</time>
      </trkpt>
      <trkpt lat="44.59915" lon="6.22114">
        <ele>1543</ele>
        <time>2011-05-30T10:42:55Z</time>
      </trkpt>
      <trkpt lat="44.59914" lon="6.22124">
        <ele>1543</ele>
        <time>2011-05-30T10:42:56Z</time>
      </trkpt>
      <trkpt lat="44.59917" lon="6.22163">
        <ele>1549</ele>
        <time>2011-05-30T10:43:00Z</time>
      </trkpt>
      <trkpt lat="44.59922" lon="6.2218">
        <ele>1552</ele>
        <time>2011-05-30T10:43:02Z</time>
      </trkpt>
      <trkpt lat="44.59924" lon="6.22189">
        <ele>1554</ele>
        <time>2011-05-30T10:43:03Z</time>
      </trkpt>
      <trkpt lat="44.59919" lon="6.22221">
        <ele>1554</ele>
        <time>2011-05-30T10:43:06Z</time>
      </trkpt>
      <trkpt lat="44.59916" lon="6.22231">
        <ele>1543</ele>
        <time>2011-05-30T10:43:07Z</time>
      </trkpt>
      <trkpt lat="44.59907" lon="6.22252">
        <ele>1546</ele>
        <time>2011-05-30T10:43:09Z</time>
      </trkpt>
      <trkpt lat="44.59889" lon="6.22289">
        <ele>1545</ele>
        <time>2011-05-30T10:43:13Z</time>
      </trkpt>
      <trkpt lat="44.59869" lon="6.22311">
        <ele>1545</ele>
        <time>2011-05-30T10:43:16Z</time>
      </trkpt>
      <trkpt lat="44.59851" lon="6.2232">
        <ele>1543</ele>
        <time>2011-05-30T10:43:18Z</time>
      </trkpt>
      <trkpt lat="44.59832" lon="6.22323">
        <ele>1535</ele>
        <time>2011-05-30T10:43:20Z</time>
      </trkpt>
      <trkpt lat="44.59816" lon="6.22326">
        <ele>1532</ele>
        <time>2011-05-30T10:43:22Z</time>
      </trkpt>
      <trkpt lat="44.59808" lon="6.22329">
        <ele>1530</ele>
        <time>2011-05-30T10:43:23Z</time>
      </trkpt>
      <trkpt lat="44.59794" lon="6.22336">
        <ele>1533</ele>
        <time>2011-05-30T10:43:25Z</time>
      </trkpt>
      <trkpt lat="44.59771" lon="6.22351">
        <ele>1529</ele>
        <time>2011-05-30T10:43:29Z</time>
      </trkpt>
      <trkpt lat="44.59761" lon="6.2236">
        <ele>1528</ele>
        <time>2011-05-30T10:43:31Z</time>
      </trkpt>
      <trkpt lat="44.59754" lon="6.22401">
        <ele>1527</ele>
        <time>2011-05-30T10:43:39Z</time>
      </trkpt>
      <trkpt lat="44.59758" lon="6.22431">
        <ele>1530</ele>
        <time>2011-05-30T10:43:43Z</time>
      </trkpt>
      <trkpt lat="44.59764" lon="6.22449">
        <ele>1534</ele>
        <time>2011-05-30T10:43:45Z</time>
      </trkpt>
      <trkpt lat="44.59765" lon="6.22459">
        <ele>1535</ele>
        <time>2011-05-30T10:43:46Z</time>
      </trkpt>
      <trkpt lat="44.59768" lon="6.22478">
        <ele>1534</ele>
        <time>2011-05-30T10:43:48Z</time>
      </trkpt>
      <trkpt lat="44.59771" lon="6.22499">
        <ele>1533</ele>
        <time>2011-05-30T10:43:50Z</time>
      </trkpt>
      <trkpt lat="44.59771" lon="6.22522">
        <ele>1534</ele>
        <time>2011-05-30T10:43:52Z</time>
      </trkpt>
      <trkpt lat="44.59772" lon="6.22534">
        <ele>1535</ele>
        <time>2011-05-30T10:43:53Z</time>
      </trkpt>
      <trkpt lat="44.59772" lon="6.22559">
        <ele>1533</ele>
        <time>2011-05-30T10:43:55Z</time>
      </trkpt>
      <trkpt lat="44.5977" lon="6.2257">
        <ele>1530</ele>
        <time>2011-05-30T10:43:56Z</time>
      </trkpt>
      <trkpt lat="44.59769" lon="6.22613">
        <ele>1527</ele>
        <time>2011-05-30T10:44:00Z</time>
      </trkpt>
      <trkpt lat="44.59769" lon="6.22658">
        <ele>1520</ele>
        <time>2011-05-30T10:44:04Z</time>
      </trkpt>
      <trkpt lat="44.59769" lon="6.22684">
        <ele>1517</ele>
        <time>2011-05-30T10:44:06Z</time>
      </trkpt>
      <trkpt lat="44.59769" lon="6.2271">
        <ele>1518</ele>
        <time>2011-05-30T10:44:08Z</time>
      </trkpt>
      <trkpt lat="44.59769" lon="6.22722">
        <ele>1517</ele>
        <time>2011-05-30T10:44:09Z</time>
      </trkpt>
      <trkpt lat="44.59767" lon="6.2276">
        <ele>1508</ele>
        <time>2011-05-30T10:44:12Z</time>
      </trkpt>
      <trkpt lat="44.59767" lon="6.22773">
        <ele>1510</ele>
        <time>2011-05-30T10:44:13Z</time>
      </trkpt>
      <trkpt lat="44.59764" lon="6.22804">
        <ele>1509</ele>
        <time>2011-05-30T10:44:16Z</time>
      </trkpt>
      <trkpt lat="44.59762" lon="6.22823">
        <ele>1503</ele>
        <time>2011-05-30T10:44:18Z</time>
      </trkpt>
      <trkpt lat="44.59761" lon="6.22842">
        <ele>1498</ele>
        <time>2011-05-30T10:44:20Z</time>
      </trkpt>
      <trkpt lat="44.59761" lon="6.22861">
        <ele>1501</ele>
        <time>2011-05-30T10:44:22Z</time>
      </trkpt>
      <trkpt lat="44.59766" lon="6.2289">
        <ele>1500</ele>
        <time>2011-05-30T10:44:25Z</time>
      </trkpt>
      <trkpt lat="44.59769" lon="6.22899">
        <ele>1499</ele>
        <time>2011-05-30T10:44:26Z</time>
      </trkpt>
      <trkpt lat="44.5978" lon="6.22925">
        <ele>1495</ele>
        <time>2011-05-30T10:44:29Z</time>
      </trkpt>
      <trkpt lat="44.5978" lon="6.22944">
        <ele>1496</ele>
        <time>2011-05-30T10:44:31Z</time>
      </trkpt>
      <trkpt lat="44.5978" lon="6.22975">
        <ele>1493</ele>
        <time>2011-05-30T10:44:34Z</time>
      </trkpt>
      <trkpt lat="44.59779" lon="6.22986">
        <ele>1492</ele>
        <time>2011-05-30T10:44:35Z</time>
      </trkpt>
      <trkpt lat="44.59777" lon="6.23007">
        <ele>1486</ele>
        <time>2011-05-30T10:44:37Z</time>
      </trkpt>
      <trkpt lat="44.59776" lon="6.23028">
        <ele>1486</ele>
        <time>2011-05-30T10:44:39Z</time>
      </trkpt>
      <trkpt lat="44.5977" lon="6.23088">
        <ele>1480</ele>
        <time>2011-05-30T10:44:48Z</time>
      </trkpt>
      <trkpt lat="44.59768" lon="6.23103">
        <ele>1481</ele>
        <time>2011-05-30T10:44:50Z</time>
      </trkpt>
      <trkpt lat="44.59765" lon="6.23126">
        <ele>1483</ele>
        <time>2011-05-30T10:44:53Z</time>
      </trkpt>
      <trkpt lat="44.59763" lon="6.23135">
        <ele>1482</ele>
        <time>2011-05-30T10:44:54Z</time>
      </trkpt>
      <trkpt lat="44.59751" lon="6.23155">
        <ele>1476</ele>
        <time>2011-05-30T10:44:57Z</time>
      </trkpt>
      <trkpt lat="44.59737" lon="6.23165">
        <ele>1463</ele>
        <time>2011-05-30T10:45:00Z</time>
      </trkpt>
      <trkpt lat="44.59724" lon="6.2315">
        <ele>1458</ele>
        <time>2011-05-30T10:45:03Z</time>
      </trkpt>
      <trkpt lat="44.5972" lon="6.23143">
        <ele>1457</ele>
        <time>2011-05-30T10:45:04Z</time>
      </trkpt>
      <trkpt lat="44.59716" lon="6.23135">
        <ele>1456</ele>
        <time>2011-05-30T10:45:05Z</time>
      </trkpt>
      <trkpt lat="44.59709" lon="6.23119">
        <ele>1455</ele>
        <time>2011-05-30T10:45:07Z</time>
      </trkpt>
      <trkpt lat="44.59705" lon="6.2311">
        <ele>1454</ele>
        <time>2011-05-30T10:45:08Z</time>
      </trkpt>
      <trkpt lat="44.59691" lon="6.23078">
        <ele>1454</ele>
        <time>2011-05-30T10:45:12Z</time>
      </trkpt>
      <trkpt lat="44.59683" lon="6.23061">
        <ele>1454</ele>
        <time>2011-05-30T10:45:14Z</time>
      </trkpt>
      <trkpt lat="44.59663" lon="6.23016">
        <ele>1444</ele>
        <time>2011-05-30T10:45:20Z</time>
      </trkpt>
      <trkpt lat="44.59659" lon="6.23007">
        <ele>1446</ele>
        <time>2011-05-30T10:45:21Z</time>
      </trkpt>
      <trkpt lat="44.5965" lon="6.22988">
        <ele>1447</ele>
        <time>2011-05-30T10:45:23Z</time>
      </trkpt>
      <trkpt lat="44.59638" lon="6.22972">
        <ele>1445</ele>
        <time>2011-05-30T10:45:25Z</time>
      </trkpt>
      <trkpt lat="44.59626" lon="6.22959">
        <ele>1444</ele>
        <time>2011-05-30T10:45:27Z</time>
      </trkpt>
      <trkpt lat="44.59607" lon="6.2294">
        <ele>1442</ele>
        <time>2011-05-30T10:45:30Z</time>
      </trkpt>
      <trkpt lat="44.59601" lon="6.22934">
        <ele>1442</ele>
        <time>2011-05-30T10:45:31Z</time>
      </trkpt>
      <trkpt lat="44.59579" lon="6.22921">
        <ele>1436</ele>
        <time>2011-05-30T10:45:34Z</time>
      </trkpt>
      <trkpt lat="44.59562" lon="6.2291">
        <ele>1435</ele>
        <time>2011-05-30T10:45:36Z</time>
      </trkpt>
      <trkpt lat="44.59545" lon="6.22891">
        <ele>1432</ele>
        <time>2011-05-30T10:45:39Z</time>
      </trkpt>
      <trkpt lat="44.59535" lon="6.22876">
        <ele>1431</ele>
        <time>2011-05-30T10:45:41Z</time>
      </trkpt>
      <trkpt lat="44.59522" lon="6.22851">
        <ele>1430</ele>
        <time>2011-05-30T10:45:44Z</time>
      </trkpt>
      <trkpt lat="44.59507" lon="6.2282">
        <ele>1429</ele>
        <time>2011-05-30T10:45:48Z</time>
      </trkpt>
      <trkpt lat="44.59476" lon="6.22775">
        <ele>1413</ele>
        <time>2011-05-30T10:45:55Z</time>
      </trkpt>
      <trkpt lat="44.59466" lon="6.22762">
        <ele>1412</ele>
        <time>2011-05-30T10:45:57Z</time>
      </trkpt>
      <trkpt lat="44.59461" lon="6.22756">
        <ele>1411</ele>
        <time>2011-05-30T10:45:58Z</time>
      </trkpt>
      <trkpt lat="44.59456" lon="6.22751">
        <ele>1410</ele>
        <time>2011-05-30T10:45:59Z</time>
      </trkpt>
      <trkpt lat="44.59455" lon="6.22717">
        <ele>1405</ele>
        <time>2011-05-30T10:46:04Z</time>
      </trkpt>
      <trkpt lat="44.5946" lon="6.22708">
        <ele>1405</ele>
        <time>2011-05-30T10:46:06Z</time>
      </trkpt>
      <trkpt lat="44.5947" lon="6.22692">
        <ele>1405</ele>
        <time>2011-05-30T10:46:09Z</time>
      </trkpt>
      <trkpt lat="44.59479" lon="6.22677">
        <ele>1406</ele>
        <time>2011-05-30T10:46:11Z</time>
      </trkpt>
      <trkpt lat="44.59491" lon="6.22651">
        <ele>1401</ele>
        <time>2011-05-30T10:46:14Z</time>
      </trkpt>
      <trkpt lat="44.59494" lon="6.22641">
        <ele>1399</ele>
        <time>2011-05-30T10:46:15Z</time>
      </trkpt>
      <trkpt lat="44.59498" lon="6.22631">
        <ele>1397</ele>
        <time>2011-05-30T10:46:16Z</time>
      </trkpt>
      <trkpt lat="44.59503" lon="6.22613">
        <ele>1408</ele>
        <time>2011-05-30T10:46:18Z</time>
      </trkpt>
      <trkpt lat="44.59507" lon="6.22591">
        <ele>1402</ele>
        <time>2011-05-30T10:46:20Z</time>
      </trkpt>
      <trkpt lat="44.59506" lon="6.2258">
        <ele>1399</ele>
        <time>2011-05-30T10:46:21Z</time>
      </trkpt>
      <trkpt lat="44.59505" lon="6.22568">
        <ele>1401</ele>
        <time>2011-05-30T10:46:22Z</time>
      </trkpt>
      <trkpt lat="44.59505" lon="6.22547">
        <ele>1403</ele>
        <time>2011-05-30T10:46:24Z</time>
      </trkpt>
      <trkpt lat="44.595" lon="6.22518">
        <ele>1389</ele>
        <time>2011-05-30T10:46:27Z</time>
      </trkpt>
      <trkpt lat="44.59497" lon="6.22507">
        <ele>1390</ele>
        <time>2011-05-30T10:46:28Z</time>
      </trkpt>
      <trkpt lat="44.59494" lon="6.22496">
        <ele>1389</ele>
        <time>2011-05-30T10:46:29Z</time>
      </trkpt>
      <trkpt lat="44.59486" lon="6.22468">
        <ele>1384</ele>
        <time>2011-05-30T10:46:32Z</time>
      </trkpt>
      <trkpt lat="44.59482" lon="6.22452">
        <ele>1383</ele>
        <time>2011-05-30T10:46:34Z</time>
      </trkpt>
      <trkpt lat="44.59471" lon="6.22426">
        <ele>1382</ele>
        <time>2011-05-30T10:46:37Z</time>
      </trkpt>
      <trkpt lat="44.59462" lon="6.22409">
        <ele>1379</ele>
        <time>2011-05-30T10:46:39Z</time>
      </trkpt>
      <trkpt lat="44.59458" lon="6.224">
        <ele>1378</ele>
        <time>2011-05-30T10:46:40Z</time>
      </trkpt>
      <trkpt lat="44.59454" lon="6.22381">
        <ele>1378</ele>
        <time>2011-05-30T10:46:42Z</time>
      </trkpt>
      <trkpt lat="44.59451" lon="6.22363">
        <ele>1377</ele>
        <time>2011-05-30T10:46:44Z</time>
      </trkpt>
      <trkpt lat="44.5944" lon="6.22339">
        <ele>1374</ele>
        <time>2011-05-30T10:46:51Z</time>
      </trkpt>
      <trkpt lat="44.59436" lon="6.22352">
        <ele>1374</ele>
        <time>2011-05-30T10:46:54Z</time>
      </trkpt>
      <trkpt lat="44.59436" lon="6.22381">
        <ele>1375</ele>
        <time>2011-05-30T10:46:58Z</time>
      </trkpt>
      <trkpt lat="44.59432" lon="6.22399">
        <ele>1373</ele>
        <time>2011-05-30T10:47:00Z</time>
      </trkpt>
      <trkpt lat="44.59416" lon="6.22429">
        <ele>1364</ele>
        <time>2011-05-30T10:47:04Z</time>
      </trkpt>
      <trkpt lat="44.59398" lon="6.22446">
        <ele>1363</ele>
        <time>2011-05-30T10:47:07Z</time>
      </trkpt>
      <trkpt lat="44.59355" lon="6.2248">
        <ele>1362</ele>
        <time>2011-05-30T10:47:14Z</time>
      </trkpt>
      <trkpt lat="44.59328" lon="6.22496">
        <ele>1358</ele>
        <time>2011-05-30T10:47:18Z</time>
      </trkpt>
      <trkpt lat="44.59304" lon="6.22502">
        <ele>1358</ele>
        <time>2011-05-30T10:47:21Z</time>
      </trkpt>
      <trkpt lat="44.59272" lon="6.22507">
        <ele>1354</ele>
        <time>2011-05-30T10:47:25Z</time>
      </trkpt>
      <trkpt lat="44.59265" lon="6.22509">
        <ele>1353</ele>
        <time>2011-05-30T10:47:26Z</time>
      </trkpt>
      <trkpt lat="44.59258" lon="6.2251">
        <ele>1351</ele>
        <time>2011-05-30T10:47:27Z</time>
      </trkpt>
      <trkpt lat="44.59229" lon="6.22485">
        <ele>1340</ele>
        <time>2011-05-30T10:47:35Z</time>
      </trkpt>
      <trkpt lat="44.59229" lon="6.22474">
        <ele>1340</ele>
        <time>2011-05-30T10:47:36Z</time>
      </trkpt>
      <trkpt lat="44.5923" lon="6.22451">
        <ele>1338</ele>
        <time>2011-05-30T10:47:38Z</time>
      </trkpt>
      <trkpt lat="44.59232" lon="6.22417">
        <ele>1338</ele>
        <time>2011-05-30T10:47:41Z</time>
      </trkpt>
      <trkpt lat="44.5924" lon="6.22377">
        <ele>1332</ele>
        <time>2011-05-30T10:47:45Z</time>
      </trkpt>
      <trkpt lat="44.59225" lon="6.22353">
        <ele>1330</ele>
        <time>2011-05-30T10:47:51Z</time>
      </trkpt>
      <trkpt lat="44.59215" lon="6.22363">
        <ele>1329</ele>
        <time>2011-05-30T10:47:53Z</time>
      </trkpt>
      <trkpt lat="44.59207" lon="6.22377">
        <ele>1328</ele>
        <time>2011-05-30T10:47:55Z</time>
      </trkpt>
      <trkpt lat="44.59202" lon="6.22384">
        <ele>1328</ele>
        <time>2011-05-30T10:47:56Z</time>
      </trkpt>
      <trkpt lat="44.59188" lon="6.22404">
        <ele>1327</ele>
        <time>2011-05-30T10:47:59Z</time>
      </trkpt>
      <trkpt lat="44.5916" lon="6.22403">
        <ele>1318</ele>
        <time>2011-05-30T10:48:06Z</time>
      </trkpt>
      <trkpt lat="44.59164" lon="6.22392">
        <ele>1317</ele>
        <time>2011-05-30T10:48:08Z</time>
      </trkpt>
      <trkpt lat="44.59172" lon="6.2238">
        <ele>1325</ele>
        <time>2011-05-30T10:48:10Z</time>
      </trkpt>
      <trkpt lat="44.59175" lon="6.22372">
        <ele>1325</ele>
        <time>2011-05-30T10:48:11Z</time>
      </trkpt>
      <trkpt lat="44.59177" lon="6.22306">
        <ele>1321</ele>
        <time>2011-05-30T10:48:19Z</time>
      </trkpt>
      <trkpt lat="44.59176" lon="6.22288">
        <ele>1322</ele>
        <time>2011-05-30T10:48:21Z</time>
      </trkpt>
      <trkpt lat="44.5917" lon="6.2227">
        <ele>1320</ele>
        <time>2011-05-30T10:48:23Z</time>
      </trkpt>
      <trkpt lat="44.59159" lon="6.22243">
        <ele>1313</ele>
        <time>2011-05-30T10:48:26Z</time>
      </trkpt>
      <trkpt lat="44.59151" lon="6.22225">
        <ele>1313</ele>
        <time>2011-05-30T10:48:28Z</time>
      </trkpt>
      <trkpt lat="44.59141" lon="6.2221">
        <ele>1314</ele>
        <time>2011-05-30T10:48:30Z</time>
      </trkpt>
      <trkpt lat="44.59136" lon="6.22203">
        <ele>1314</ele>
        <time>2011-05-30T10:48:31Z</time>
      </trkpt>
      <trkpt lat="44.59125" lon="6.22189">
        <ele>1313</ele>
        <time>2011-05-30T10:48:33Z</time>
      </trkpt>
      <trkpt lat="44.59097" lon="6.22167">
        <ele>1307</ele>
        <time>2011-05-30T10:48:37Z</time>
      </trkpt>
      <trkpt lat="44.59076" lon="6.22152">
        <ele>1300</ele>
        <time>2011-05-30T10:48:40Z</time>
      </trkpt>
      <trkpt lat="44.59062" lon="6.22143">
        <ele>1298</ele>
        <time>2011-05-30T10:48:42Z</time>
      </trkpt>
      <trkpt lat="44.59048" lon="6.22134">
        <ele>1297</ele>
        <time>2011-05-30T10:48:44Z</time>
      </trkpt>
      <trkpt lat="44.59031" lon="6.22128">
        <ele>1295</ele>
        <time>2011-05-30T10:48:46Z</time>
      </trkpt>
      <trkpt lat="44.59024" lon="6.22126">
        <ele>1294</ele>
        <time>2011-05-30T10:48:47Z</time>
      </trkpt>
      <trkpt lat="44.58966" lon="6.22103">
        <ele>1282</ele>
        <time>2011-05-30T10:48:56Z</time>
      </trkpt>
      <trkpt lat="44.58952" lon="6.22099">
        <ele>1281</ele>
        <time>2011-05-30T10:48:58Z</time>
      </trkpt>
      <trkpt lat="44.5893" lon="6.22091">
        <ele>1282</ele>
        <time>2011-05-30T10:49:01Z</time>
      </trkpt>
      <trkpt lat="44.58913" lon="6.22084">
        <ele>1283</ele>
        <time>2011-05-30T10:49:03Z</time>
      </trkpt>
      <trkpt lat="44.5887" lon="6.22068">
        <ele>1283</ele>
        <time>2011-05-30T10:49:09Z</time>
      </trkpt>
      <trkpt lat="44.58863" lon="6.22066">
        <ele>1282</ele>
        <time>2011-05-30T10:49:10Z</time>
      </trkpt>
      <trkpt lat="44.58856" lon="6.22063">
        <ele>1281</ele>
        <time>2011-05-30T10:49:11Z</time>
      </trkpt>
      <trkpt lat="44.5883" lon="6.22053">
        <ele>1280</ele>
        <time>2011-05-30T10:49:15Z</time>
      </trkpt>
      <trkpt lat="44.58817" lon="6.22051">
        <ele>1281</ele>
        <time>2011-05-30T10:49:17Z</time>
      </trkpt>
      <trkpt lat="44.58801" lon="6.22065">
        <ele>1279</ele>
        <time>2011-05-30T10:49:20Z</time>
      </trkpt>
      <trkpt lat="44.58793" lon="6.22071">
        <ele>1279</ele>
        <time>2011-05-30T10:49:22Z</time>
      </trkpt>
      <trkpt lat="44.58764" lon="6.22077">
        <ele>1275</ele>
        <time>2011-05-30T10:49:28Z</time>
      </trkpt>
      <trkpt lat="44.58735" lon="6.22086">
        <ele>1261</ele>
        <time>2011-05-30T10:49:33Z</time>
      </trkpt>
      <trkpt lat="44.58688" lon="6.22092">
        <ele>1256</ele>
        <time>2011-05-30T10:49:41Z</time>
      </trkpt>
      <trkpt lat="44.58676" lon="6.22089">
        <ele>1259</ele>
        <time>2011-05-30T10:49:43Z</time>
      </trkpt>
      <trkpt lat="44.58652" lon="6.22081">
        <ele>1267</ele>
        <time>2011-05-30T10:49:47Z</time>
      </trkpt>
      <trkpt lat="44.58635" lon="6.22076">
        <ele>1267</ele>
        <time>2011-05-30T10:49:50Z</time>
      </trkpt>
      <trkpt lat="44.58612" lon="6.22059">
        <ele>1266</ele>
        <time>2011-05-30T10:49:54Z</time>
      </trkpt>
      <trkpt lat="44.58599" lon="6.22056">
        <ele>1264</ele>
        <time>2011-05-30T10:49:56Z</time>
      </trkpt>
      <trkpt lat="44.58572" lon="6.22054">
        <ele>1255</ele>
        <time>2011-05-30T10:50:00Z</time>
      </trkpt>
      <trkpt lat="44.58539" lon="6.22043">
        <ele>1256</ele>
        <time>2011-05-30T10:50:05Z</time>
      </trkpt>
      <trkpt lat="44.58521" lon="6.22036">
        <ele>1256</ele>
        <time>2011-05-30T10:50:08Z</time>
      </trkpt>
      <trkpt lat="44.58489" lon="6.2203">
        <ele>1250</ele>
        <time>2011-05-30T10:50:13Z</time>
      </trkpt>
      <trkpt lat="44.58446" lon="6.22035">
        <ele>1245</ele>
        <time>2011-05-30T10:50:20Z</time>
      </trkpt>
      <trkpt lat="44.58433" lon="6.22037">
        <ele>1244</ele>
        <time>2011-05-30T10:50:22Z</time>
      </trkpt>
      <trkpt lat="44.5842" lon="6.22038">
        <ele>1243</ele>
        <time>2011-05-30T10:50:24Z</time>
      </trkpt>
      <trkpt lat="44.58409" lon="6.22036">
        <ele>1229</ele>
        <time>2011-05-30T10:50:26Z</time>
      </trkpt>
      <trkpt lat="44.58399" lon="6.22035">
        <ele>1228</ele>
        <time>2011-05-30T10:50:28Z</time>
      </trkpt>
      <trkpt lat="44.58384" lon="6.22016">
        <ele>1229</ele>
        <time>2011-05-30T10:50:32Z</time>
      </trkpt>
      <trkpt lat="44.58377" lon="6.22002">
        <ele>1228</ele>
        <time>2011-05-30T10:50:34Z</time>
      </trkpt>
      <trkpt lat="44.58351" lon="6.21966">
        <ele>1232</ele>
        <time>2011-05-30T10:50:40Z</time>
      </trkpt>
      <trkpt lat="44.58344" lon="6.21945">
        <ele>1232</ele>
        <time>2011-05-30T10:50:44Z</time>
      </trkpt>
      <trkpt lat="44.58342" lon="6.21914">
        <ele>1229</ele>
        <time>2011-05-30T10:50:48Z</time>
      </trkpt>
      <trkpt lat="44.58344" lon="6.21873">
        <ele>1234</ele>
        <time>2011-05-30T10:50:52Z</time>
      </trkpt>
      <trkpt lat="44.58345" lon="6.2185">
        <ele>1230</ele>
        <time>2011-05-30T10:50:54Z</time>
      </trkpt>
      <trkpt lat="44.58345" lon="6.21788">
        <ele>1227</ele>
        <time>2011-05-30T10:51:00Z</time>
      </trkpt>
      <trkpt lat="44.58334" lon="6.21724">
        <ele>1222</ele>
        <time>2011-05-30T10:51:06Z</time>
      </trkpt>
      <trkpt lat="44.58325" lon="6.21687">
        <ele>1207</ele>
        <time>2011-05-30T10:51:10Z</time>
      </trkpt>
      <trkpt lat="44.58305" lon="6.21681">
        <ele>1204</ele>
        <time>2011-05-30T10:51:16Z</time>
      </trkpt>
      <trkpt lat="44.58299" lon="6.217">
        <ele>1203</ele>
        <time>2011-05-30T10:51:19Z</time>
      </trkpt>
      <trkpt lat="44.58296" lon="6.21727">
        <ele>1203</ele>
        <time>2011-05-30T10:51:22Z</time>
      </trkpt>
      <trkpt lat="44.58293" lon="6.21748">
        <ele>1202</ele>
        <time>2011-05-30T10:51:24Z</time>
      </trkpt>
      <trkpt lat="44.58289" lon="6.21772">
        <ele>1204</ele>
        <time>2011-05-30T10:51:26Z</time>
      </trkpt>
      <trkpt lat="44.58287" lon="6.21784">
        <ele>1204</ele>
        <time>2011-05-30T10:51:27Z</time>
      </trkpt>
      <trkpt lat="44.58281" lon="6.21807">
        <ele>1203</ele>
        <time>2011-05-30T10:51:29Z</time>
      </trkpt>
      <trkpt lat="44.58272" lon="6.21827">
        <ele>1201</ele>
        <time>2011-05-30T10:51:31Z</time>
      </trkpt>
      <trkpt lat="44.58245" lon="6.21867">
        <ele>1192</ele>
        <time>2011-05-30T10:51:36Z</time>
      </trkpt>
      <trkpt lat="44.58229" lon="6.21896">
        <ele>1193</ele>
        <time>2011-05-30T10:51:40Z</time>
      </trkpt>
      <trkpt lat="44.58222" lon="6.21909">
        <ele>1193</ele>
        <time>2011-05-30T10:51:42Z</time>
      </trkpt>
      <trkpt lat="44.58217" lon="6.21921">
        <ele>1193</ele>
        <time>2011-05-30T10:51:44Z</time>
      </trkpt>
      <trkpt lat="44.58196" lon="6.21919">
        <ele>1189</ele>
        <time>2011-05-30T10:51:50Z</time>
      </trkpt>
      <trkpt lat="44.58206" lon="6.21897">
        <ele>1190</ele>
        <time>2011-05-30T10:51:54Z</time>
      </trkpt>
      <trkpt lat="44.58212" lon="6.21885">
        <ele>1190</ele>
        <time>2011-05-30T10:51:56Z</time>
      </trkpt>
      <trkpt lat="44.58218" lon="6.21871">
        <ele>1190</ele>
        <time>2011-05-30T10:51:58Z</time>
      </trkpt>
      <trkpt lat="44.58224" lon="6.21854">
        <ele>1190</ele>
        <time>2011-05-30T10:52:00Z</time>
      </trkpt>
      <trkpt lat="44.58226" lon="6.21845">
        <ele>1190</ele>
        <time>2011-05-30T10:52:01Z</time>
      </trkpt>
      <trkpt lat="44.58228" lon="6.21823">
        <ele>1186</ele>
        <time>2011-05-30T10:52:03Z</time>
      </trkpt>
      <trkpt lat="44.5823" lon="6.21792">
        <ele>1184</ele>
        <time>2011-05-30T10:52:06Z</time>
      </trkpt>
      <trkpt lat="44.5823" lon="6.21769">
        <ele>1185</ele>
        <time>2011-05-30T10:52:08Z</time>
      </trkpt>
      <trkpt lat="44.5823" lon="6.21747">
        <ele>1183</ele>
        <time>2011-05-30T10:52:10Z</time>
      </trkpt>
      <trkpt lat="44.58229" lon="6.21725">
        <ele>1181</ele>
        <time>2011-05-30T10:52:12Z</time>
      </trkpt>
      <trkpt lat="44.58228" lon="6.21713">
        <ele>1181</ele>
        <time>2011-05-30T10:52:13Z</time>
      </trkpt>
      <trkpt lat="44.58226" lon="6.21691">
        <ele>1181</ele>
        <time>2011-05-30T10:52:15Z</time>
      </trkpt>
      <trkpt lat="44.58218" lon="6.21636">
        <ele>1176</ele>
        <time>2011-05-30T10:52:20Z</time>
      </trkpt>
      <trkpt lat="44.58214" lon="6.21614">
        <ele>1174</ele>
        <time>2011-05-30T10:52:22Z</time>
      </trkpt>
      <trkpt lat="44.5821" lon="6.21594">
        <ele>1173</ele>
        <time>2011-05-30T10:52:24Z</time>
      </trkpt>
      <trkpt lat="44.58199" lon="6.21542">
        <ele>1170</ele>
        <time>2011-05-30T10:52:29Z</time>
      </trkpt>
      <trkpt lat="44.58196" lon="6.2153">
        <ele>1169</ele>
        <time>2011-05-30T10:52:30Z</time>
      </trkpt>
      <trkpt lat="44.58189" lon="6.21507">
        <ele>1168</ele>
        <time>2011-05-30T10:52:32Z</time>
      </trkpt>
      <trkpt lat="44.58179" lon="6.21488">
        <ele>1167</ele>
        <time>2011-05-30T10:52:34Z</time>
      </trkpt>
      <trkpt lat="44.58161" lon="6.21467">
        <ele>1161</ele>
        <time>2011-05-30T10:52:37Z</time>
      </trkpt>
      <trkpt lat="44.58122" lon="6.21436">
        <ele>1159</ele>
        <time>2011-05-30T10:52:42Z</time>
      </trkpt>
      <trkpt lat="44.58114" lon="6.2143">
        <ele>1158</ele>
        <time>2011-05-30T10:52:43Z</time>
      </trkpt>
      <trkpt lat="44.58098" lon="6.21419">
        <ele>1156</ele>
        <time>2011-05-30T10:52:45Z</time>
      </trkpt>
      <trkpt lat="44.5806" lon="6.21393">
        <ele>1150</ele>
        <time>2011-05-30T10:52:50Z</time>
      </trkpt>
      <trkpt lat="44.58036" lon="6.21373">
        <ele>1148</ele>
        <time>2011-05-30T10:52:53Z</time>
      </trkpt>
      <trkpt lat="44.58028" lon="6.21366">
        <ele>1148</ele>
        <time>2011-05-30T10:52:54Z</time>
      </trkpt>
      <trkpt lat="44.58021" lon="6.21359">
        <ele>1147</ele>
        <time>2011-05-30T10:52:55Z</time>
      </trkpt>
      <trkpt lat="44.58014" lon="6.21351">
        <ele>1146</ele>
        <time>2011-05-30T10:52:56Z</time>
      </trkpt>
      <trkpt lat="44.57989" lon="6.21286">
        <ele>1137</ele>
        <time>2011-05-30T10:53:03Z</time>
      </trkpt>
      <trkpt lat="44.57981" lon="6.2123">
        <ele>1136</ele>
        <time>2011-05-30T10:53:08Z</time>
      </trkpt>
      <trkpt lat="44.57979" lon="6.21207">
        <ele>1134</ele>
        <time>2011-05-30T10:53:10Z</time>
      </trkpt>
      <trkpt lat="44.57978" lon="6.21196">
        <ele>1134</ele>
        <time>2011-05-30T10:53:11Z</time>
      </trkpt>
      <trkpt lat="44.57976" lon="6.21177">
        <ele>1134</ele>
        <time>2011-05-30T10:53:13Z</time>
      </trkpt>
      <trkpt lat="44.57947" lon="6.21135">
        <ele>1129</ele>
        <time>2011-05-30T10:53:21Z</time>
      </trkpt>
      <trkpt lat="44.57919" lon="6.21161">
        <ele>1124</ele>
        <time>2011-05-30T10:53:29Z</time>
      </trkpt>
      <trkpt lat="44.57917" lon="6.21168">
        <ele>1122</ele>
        <time>2011-05-30T10:53:30Z</time>
      </trkpt>
      <trkpt lat="44.57917" lon="6.21206">
        <ele>1129</ele>
        <time>2011-05-30T10:53:36Z</time>
      </trkpt>
      <trkpt lat="44.57907" lon="6.21246">
        <ele>1121</ele>
        <time>2011-05-30T10:53:41Z</time>
      </trkpt>
      <trkpt lat="44.57889" lon="6.21289">
        <ele>1117</ele>
        <time>2011-05-30T10:53:46Z</time>
      </trkpt>
      <trkpt lat="44.57882" lon="6.2131">
        <ele>1117</ele>
        <time>2011-05-30T10:53:48Z</time>
      </trkpt>
      <trkpt lat="44.57865" lon="6.21354">
        <ele>1115</ele>
        <time>2011-05-30T10:53:52Z</time>
      </trkpt>
      <trkpt lat="44.57848" lon="6.21403">
        <ele>1112</ele>
        <time>2011-05-30T10:53:57Z</time>
      </trkpt>
      <trkpt lat="44.57842" lon="6.21426">
        <ele>1111</ele>
        <time>2011-05-30T10:53:59Z</time>
      </trkpt>
      <trkpt lat="44.57833" lon="6.2146">
        <ele>1103</ele>
        <time>2011-05-30T10:54:02Z</time>
      </trkpt>
      <trkpt lat="44.57824" lon="6.21505">
        <ele>1107</ele>
        <time>2011-05-30T10:54:06Z</time>
      </trkpt>
      <trkpt lat="44.57819" lon="6.21566">
        <ele>1104</ele>
        <time>2011-05-30T10:54:11Z</time>
      </trkpt>
      <trkpt lat="44.57819" lon="6.21591">
        <ele>1104</ele>
        <time>2011-05-30T10:54:13Z</time>
      </trkpt>
      <trkpt lat="44.57825" lon="6.21681">
        <ele>1102</ele>
        <time>2011-05-30T10:54:20Z</time>
      </trkpt>
      <trkpt lat="44.57821" lon="6.21763">
        <ele>1098</ele>
        <time>2011-05-30T10:54:27Z</time>
      </trkpt>
      <trkpt lat="44.57817" lon="6.21808">
        <ele>1096</ele>
        <time>2011-05-30T10:54:31Z</time>
      </trkpt>
      <trkpt lat="44.5781" lon="6.21845">
        <ele>1095</ele>
        <time>2011-05-30T10:54:34Z</time>
      </trkpt>
      <trkpt lat="44.57802" lon="6.2187">
        <ele>1094</ele>
        <time>2011-05-30T10:54:36Z</time>
      </trkpt>
      <trkpt lat="44.57769" lon="6.21943">
        <ele>1090</ele>
        <time>2011-05-30T10:54:43Z</time>
      </trkpt>
      <trkpt lat="44.57765" lon="6.21955">
        <ele>1090</ele>
        <time>2011-05-30T10:54:44Z</time>
      </trkpt>
      <trkpt lat="44.57757" lon="6.21977">
        <ele>1088</ele>
        <time>2011-05-30T10:54:46Z</time>
      </trkpt>
      <trkpt lat="44.57753" lon="6.22049">
        <ele>1086</ele>
        <time>2011-05-30T10:54:52Z</time>
      </trkpt>
      <trkpt lat="44.57752" lon="6.22085">
        <ele>1078</ele>
        <time>2011-05-30T10:54:55Z</time>
      </trkpt>
      <trkpt lat="44.57748" lon="6.22131">
        <ele>1071</ele>
        <time>2011-05-30T10:54:59Z</time>
      </trkpt>
      <trkpt lat="44.5774" lon="6.22165">
        <ele>1073</ele>
        <time>2011-05-30T10:55:02Z</time>
      </trkpt>
      <trkpt lat="44.57732" lon="6.22188">
        <ele>1069</ele>
        <time>2011-05-30T10:55:04Z</time>
      </trkpt>
      <trkpt lat="44.57725" lon="6.22211">
        <ele>1067</ele>
        <time>2011-05-30T10:55:06Z</time>
      </trkpt>
      <trkpt lat="44.57716" lon="6.22245">
        <ele>1066</ele>
        <time>2011-05-30T10:55:09Z</time>
      </trkpt>
      <trkpt lat="44.57708" lon="6.22311">
        <ele>1058</ele>
        <time>2011-05-30T10:55:16Z</time>
      </trkpt>
      <trkpt lat="44.57707" lon="6.22318">
        <ele>1058</ele>
        <time>2011-05-30T10:55:17Z</time>
      </trkpt>
      <trkpt lat="44.57686" lon="6.22334">
        <ele>1049</ele>
        <time>2011-05-30T10:55:23Z</time>
      </trkpt>
      <trkpt lat="44.57681" lon="6.2232">
        <ele>1054</ele>
        <time>2011-05-30T10:55:25Z</time>
      </trkpt>
      <trkpt lat="44.57679" lon="6.22305">
        <ele>1055</ele>
        <time>2011-05-30T10:55:27Z</time>
      </trkpt>
      <trkpt lat="44.57679" lon="6.22288">
        <ele>1057</ele>
        <time>2011-05-30T10:55:29Z</time>
      </trkpt>
      <trkpt lat="44.57679" lon="6.22258">
        <ele>1056</ele>
        <time>2011-05-30T10:55:32Z</time>
      </trkpt>
      <trkpt lat="44.57678" lon="6.22248">
        <ele>1057</ele>
        <time>2011-05-30T10:55:33Z</time>
      </trkpt>
      <trkpt lat="44.57658" lon="6.22195">
        <ele>1048</ele>
        <time>2011-05-30T10:55:38Z</time>
      </trkpt>
      <trkpt lat="44.57651" lon="6.22188">
        <ele>1048</ele>
        <time>2011-05-30T10:55:39Z</time>
      </trkpt>
      <trkpt lat="44.57623" lon="6.22159">
        <ele>1047</ele>
        <time>2011-05-30T10:55:43Z</time>
      </trkpt>
      <trkpt lat="44.57604" lon="6.22139">
        <ele>1045</ele>
        <time>2011-05-30T10:55:46Z</time>
      </trkpt>
      <trkpt lat="44.57598" lon="6.22134">
        <ele>1045</ele>
        <time>2011-05-30T10:55:47Z</time>
      </trkpt>
      <trkpt lat="44.57586" lon="6.2211">
        <ele>1044</ele>
        <time>2011-05-30T10:55:51Z</time>
      </trkpt>
      <trkpt lat="44.57569" lon="6.22063">
        <ele>1033</ele>
        <time>2011-05-30T10:55:59Z</time>
      </trkpt>
      <trkpt lat="44.57568" lon="6.22056">
        <ele>1033</ele>
        <time>2011-05-30T10:56:00Z</time>
      </trkpt>
      <trkpt lat="44.57564" lon="6.22041">
        <ele>1032</ele>
        <time>2011-05-30T10:56:02Z</time>
      </trkpt>
      <trkpt lat="44.5756" lon="6.22027">
        <ele>1032</ele>
        <time>2011-05-30T10:56:04Z</time>
      </trkpt>
      <trkpt lat="44.57558" lon="6.2202">
        <ele>1033</ele>
        <time>2011-05-30T10:56:05Z</time>
      </trkpt>
      <trkpt lat="44.57537" lon="6.22014">
        <ele>1029</ele>
        <time>2011-05-30T10:56:12Z</time>
      </trkpt>
      <trkpt lat="44.57537" lon="6.22022">
        <ele>1029</ele>
        <time>2011-05-30T10:56:13Z</time>
      </trkpt>
      <trkpt lat="44.57539" lon="6.22031">
        <ele>1029</ele>
        <time>2011-05-30T10:56:14Z</time>
      </trkpt>
      <trkpt lat="44.57544" lon="6.22049">
        <ele>1029</ele>
        <time>2011-05-30T10:56:16Z</time>
      </trkpt>
      <trkpt lat="44.5755" lon="6.22082">
        <ele>1030</ele>
        <time>2011-05-30T10:56:19Z</time>
      </trkpt>
      <trkpt lat="44.57551" lon="6.2212">
        <ele>1027</ele>
        <time>2011-05-30T10:56:22Z</time>
      </trkpt>
      <trkpt lat="44.57549" lon="6.22132">
        <ele>1026</ele>
        <time>2011-05-30T10:56:23Z</time>
      </trkpt>
      <trkpt lat="44.57535" lon="6.22212">
        <ele>1022</ele>
        <time>2011-05-30T10:56:30Z</time>
      </trkpt>
      <trkpt lat="44.57531" lon="6.22236">
        <ele>1020</ele>
        <time>2011-05-30T10:56:32Z</time>
      </trkpt>
      <trkpt lat="44.57531" lon="6.22283">
        <ele>1018</ele>
        <time>2011-05-30T10:56:36Z</time>
      </trkpt>
      <trkpt lat="44.57532" lon="6.22295">
        <ele>1017</ele>
        <time>2011-05-30T10:56:37Z</time>
      </trkpt>
      <trkpt lat="44.57536" lon="6.2232">
        <ele>1017</ele>
        <time>2011-05-30T10:56:39Z</time>
      </trkpt>
      <trkpt lat="44.57544" lon="6.22342">
        <ele>1011</ele>
        <time>2011-05-30T10:56:41Z</time>
      </trkpt>
      <trkpt lat="44.57553" lon="6.22361">
        <ele>1011</ele>
        <time>2011-05-30T10:56:43Z</time>
      </trkpt>
      <trkpt lat="44.57567" lon="6.22388">
        <ele>1010</ele>
        <time>2011-05-30T10:56:46Z</time>
      </trkpt>
      <trkpt lat="44.57578" lon="6.22405">
        <ele>1010</ele>
        <time>2011-05-30T10:56:48Z</time>
      </trkpt>
      <trkpt lat="44.57598" lon="6.22438">
        <ele>1014</ele>
        <time>2011-05-30T10:56:52Z</time>
      </trkpt>
      <trkpt lat="44.57603" lon="6.22446">
        <ele>1014</ele>
        <time>2011-05-30T10:56:53Z</time>
      </trkpt>
      <trkpt lat="44.57608" lon="6.22464">
        <ele>1014</ele>
        <time>2011-05-30T10:56:55Z</time>
      </trkpt>
      <trkpt lat="44.57606" lon="6.22499">
        <ele>1010</ele>
        <time>2011-05-30T10:57:00Z</time>
      </trkpt>
      <trkpt lat="44.57599" lon="6.22508">
        <ele>1007</ele>
        <time>2011-05-30T10:57:02Z</time>
      </trkpt>
      <trkpt lat="44.57572" lon="6.22495">
        <ele>999</ele>
        <time>2011-05-30T10:57:07Z</time>
      </trkpt>
      <trkpt lat="44.57561" lon="6.22482">
        <ele>999</ele>
        <time>2011-05-30T10:57:09Z</time>
      </trkpt>
      <trkpt lat="44.57536" lon="6.2246">
        <ele>998</ele>
        <time>2011-05-30T10:57:13Z</time>
      </trkpt>
      <trkpt lat="44.57515" lon="6.22449">
        <ele>996</ele>
        <time>2011-05-30T10:57:16Z</time>
      </trkpt>
      <trkpt lat="44.575" lon="6.22445">
        <ele>996</ele>
        <time>2011-05-30T10:57:18Z</time>
      </trkpt>
      <trkpt lat="44.57486" lon="6.22441">
        <ele>988</ele>
        <time>2011-05-30T10:57:20Z</time>
      </trkpt>
      <trkpt lat="44.57466" lon="6.22432">
        <ele>986</ele>
        <time>2011-05-30T10:57:23Z</time>
      </trkpt>
      <trkpt lat="44.5746" lon="6.22427">
        <ele>986</ele>
        <time>2011-05-30T10:57:24Z</time>
      </trkpt>
      <trkpt lat="44.57431" lon="6.22396">
        <ele>985</ele>
        <time>2011-05-30T10:57:29Z</time>
      </trkpt>
      <trkpt lat="44.57417" lon="6.22362">
        <ele>986</ele>
        <time>2011-05-30T10:57:33Z</time>
      </trkpt>
      <trkpt lat="44.5741" lon="6.22338">
        <ele>979</ele>
        <time>2011-05-30T10:57:36Z</time>
      </trkpt>
      <trkpt lat="44.57388" lon="6.22318">
        <ele>976</ele>
        <time>2011-05-30T10:57:43Z</time>
      </trkpt>
      <trkpt lat="44.5738" lon="6.22339">
        <ele>974</ele>
        <time>2011-05-30T10:57:46Z</time>
      </trkpt>
      <trkpt lat="44.57376" lon="6.22353">
        <ele>974</ele>
        <time>2011-05-30T10:57:48Z</time>
      </trkpt>
      <trkpt lat="44.57339" lon="6.22359">
        <ele>971</ele>
        <time>2011-05-30T10:57:55Z</time>
      </trkpt>
      <trkpt lat="44.57325" lon="6.22351">
        <ele>965</ele>
        <time>2011-05-30T10:57:57Z</time>
      </trkpt>
      <trkpt lat="44.57318" lon="6.22347">
        <ele>964</ele>
        <time>2011-05-30T10:57:58Z</time>
      </trkpt>
      <trkpt lat="44.5731" lon="6.22343">
        <ele>964</ele>
        <time>2011-05-30T10:57:59Z</time>
      </trkpt>
      <trkpt lat="44.57291" lon="6.22333">
        <ele>960</ele>
        <time>2011-05-30T10:58:02Z</time>
      </trkpt>
      <trkpt lat="44.57277" lon="6.2233">
        <ele>959</ele>
        <time>2011-05-30T10:58:04Z</time>
      </trkpt>
      <trkpt lat="44.57262" lon="6.22328">
        <ele>958</ele>
        <time>2011-05-30T10:58:06Z</time>
      </trkpt>
      <trkpt lat="44.57233" lon="6.223">
        <ele>952</ele>
        <time>2011-05-30T10:58:11Z</time>
      </trkpt>
      <trkpt lat="44.57228" lon="6.2229">
        <ele>952</ele>
        <time>2011-05-30T10:58:12Z</time>
      </trkpt>
      <trkpt lat="44.57224" lon="6.22265">
        <ele>951</ele>
        <time>2011-05-30T10:58:14Z</time>
      </trkpt>
      <trkpt lat="44.57222" lon="6.22252">
        <ele>951</ele>
        <time>2011-05-30T10:58:15Z</time>
      </trkpt>
      <trkpt lat="44.57214" lon="6.2221">
        <ele>948</ele>
        <time>2011-05-30T10:58:18Z</time>
      </trkpt>
      <trkpt lat="44.57212" lon="6.22196">
        <ele>947</ele>
        <time>2011-05-30T10:58:19Z</time>
      </trkpt>
      <trkpt lat="44.57206" lon="6.22165">
        <ele>945</ele>
        <time>2011-05-30T10:58:21Z</time>
      </trkpt>
      <trkpt lat="44.5719" lon="6.22092">
        <ele>943</ele>
        <time>2011-05-30T10:58:27Z</time>
      </trkpt>
      <trkpt lat="44.57178" lon="6.22062">
        <ele>942</ele>
        <time>2011-05-30T10:58:30Z</time>
      </trkpt>
      <trkpt lat="44.57157" lon="6.22023">
        <ele>935</ele>
        <time>2011-05-30T10:58:34Z</time>
      </trkpt>
      <trkpt lat="44.57151" lon="6.22014">
        <ele>935</ele>
        <time>2011-05-30T10:58:35Z</time>
      </trkpt>
      <trkpt lat="44.57138" lon="6.21996">
        <ele>933</ele>
        <time>2011-05-30T10:58:37Z</time>
      </trkpt>
      <trkpt lat="44.57125" lon="6.21979">
        <ele>932</ele>
        <time>2011-05-30T10:58:39Z</time>
      </trkpt>
      <trkpt lat="44.57106" lon="6.21951">
        <ele>930</ele>
        <time>2011-05-30T10:58:42Z</time>
      </trkpt>
      <trkpt lat="44.57094" lon="6.21933">
        <ele>929</ele>
        <time>2011-05-30T10:58:44Z</time>
      </trkpt>
      <trkpt lat="44.5707" lon="6.21898">
        <ele>922</ele>
        <time>2011-05-30T10:58:48Z</time>
      </trkpt>
      <trkpt lat="44.57065" lon="6.21887">
        <ele>921</ele>
        <time>2011-05-30T10:58:49Z</time>
      </trkpt>
      <trkpt lat="44.57055" lon="6.21867">
        <ele>920</ele>
        <time>2011-05-30T10:58:51Z</time>
      </trkpt>
      <trkpt lat="44.57037" lon="6.21823">
        <ele>915</ele>
        <time>2011-05-30T10:58:56Z</time>
      </trkpt>
      <trkpt lat="44.57028" lon="6.21793">
        <ele>914</ele>
        <time>2011-05-30T10:58:59Z</time>
      </trkpt>
      <trkpt lat="44.57025" lon="6.21782">
        <ele>913</ele>
        <time>2011-05-30T10:59:00Z</time>
      </trkpt>
      <trkpt lat="44.57023" lon="6.2177">
        <ele>913</ele>
        <time>2011-05-30T10:59:01Z</time>
      </trkpt>
      <trkpt lat="44.57018" lon="6.21743">
        <ele>909</ele>
        <time>2011-05-30T10:59:03Z</time>
      </trkpt>
      <trkpt lat="44.57016" lon="6.21714">
        <ele>909</ele>
        <time>2011-05-30T10:59:05Z</time>
      </trkpt>
      <trkpt lat="44.57016" lon="6.21683">
        <ele>908</ele>
        <time>2011-05-30T10:59:07Z</time>
      </trkpt>
      <trkpt lat="44.57017" lon="6.21667">
        <ele>906</ele>
        <time>2011-05-30T10:59:08Z</time>
      </trkpt>
      <trkpt lat="44.57018" lon="6.21651">
        <ele>906</ele>
        <time>2011-05-30T10:59:09Z</time>
      </trkpt>
      <trkpt lat="44.57018" lon="6.21617">
        <ele>906</ele>
        <time>2011-05-30T10:59:11Z</time>
      </trkpt>
      <trkpt lat="44.57018" lon="6.216">
        <ele>905</ele>
        <time>2011-05-30T10:59:12Z</time>
      </trkpt>
      <trkpt lat="44.57018" lon="6.21501">
        <ele>903</ele>
        <time>2011-05-30T10:59:18Z</time>
      </trkpt>
      <trkpt lat="44.57017" lon="6.21485">
        <ele>902</ele>
        <time>2011-05-30T10:59:19Z</time>
      </trkpt>
      <trkpt lat="44.5701" lon="6.21437">
        <ele>900</ele>
        <time>2011-05-30T10:59:22Z</time>
      </trkpt>
      <trkpt lat="44.57006" lon="6.21422">
        <ele>899</ele>
        <time>2011-05-30T10:59:23Z</time>
      </trkpt>
      <trkpt lat="44.56994" lon="6.21379">
        <ele>893</ele>
        <time>2011-05-30T10:59:26Z</time>
      </trkpt>
      <trkpt lat="44.56985" lon="6.2135">
        <ele>891</ele>
        <time>2011-05-30T10:59:28Z</time>
      </trkpt>
      <trkpt lat="44.5697" lon="6.21306">
        <ele>886</ele>
        <time>2011-05-30T10:59:31Z</time>
      </trkpt>
      <trkpt lat="44.56939" lon="6.2122">
        <ele>881</ele>
        <time>2011-05-30T10:59:37Z</time>
      </trkpt>
      <trkpt lat="44.56912" lon="6.21151">
        <ele>876</ele>
        <time>2011-05-30T10:59:42Z</time>
      </trkpt>
      <trkpt lat="44.56825" lon="6.20947">
        <ele>870</ele>
        <time>2011-05-30T10:59:59Z</time>
      </trkpt>
      <trkpt lat="44.56766" lon="6.20766">
        <ele>867</ele>
        <time>2011-05-30T11:00:15Z</time>
      </trkpt>
      <trkpt lat="44.5676" lon="6.20743">
        <ele>866</ele>
        <time>2011-05-30T11:00:17Z</time>
      </trkpt>
      <trkpt lat="44.56739" lon="6.20662">
        <ele>864</ele>
        <time>2011-05-30T11:00:24Z</time>
      </trkpt>
      <trkpt lat="44.56713" lon="6.20552">
        <ele>865</ele>
        <time>2011-05-30T11:00:35Z</time>
      </trkpt>
      <trkpt lat="44.56703" lon="6.20514">
        <ele>865</ele>
        <time>2011-05-30T11:00:40Z</time>
      </trkpt>
      <trkpt lat="44.56677" lon="6.20425">
        <ele>864</ele>
        <time>2011-05-30T11:00:54Z</time>
      </trkpt>
      <trkpt lat="44.56656" lon="6.20377">
        <ele>861</ele>
        <time>2011-05-30T11:01:01Z</time>
      </trkpt>
      <trkpt lat="44.56583" lon="6.20237">
        <ele>860</ele>
        <time>2011-05-30T11:01:22Z</time>
      </trkpt>
      <trkpt lat="44.56579" lon="6.20231">
        <ele>860</ele>
        <time>2011-05-30T11:01:23Z</time>
      </trkpt>
      <trkpt lat="44.56536" lon="6.20143">
        <ele>860</ele>
        <time>2011-05-30T11:01:38Z</time>
      </trkpt>
      <trkpt lat="44.56486" lon="6.20022">
        <ele>861</ele>
        <time>2011-05-30T11:02:02Z</time>
      </trkpt>
      <trkpt lat="44.56469" lon="6.19977">
        <ele>860</ele>
        <time>2011-05-30T11:02:15Z</time>
      </trkpt>
      <trkpt lat="44.56465" lon="6.19944">
        <ele>859</ele>
        <time>2011-05-30T11:02:20Z</time>
      </trkpt>
      <trkpt lat="44.56469" lon="6.19911">
        <ele>858</ele>
        <time>2011-05-30T11:02:24Z</time>
      </trkpt>
      <trkpt lat="44.56487" lon="6.19787">
        <ele>857</ele>
        <time>2011-05-30T11:02:38Z</time>
      </trkpt>
      <trkpt lat="44.56498" lon="6.19761">
        <ele>857</ele>
        <time>2011-05-30T11:02:42Z</time>
      </trkpt>
      <trkpt lat="44.56583" lon="6.19629">
        <ele>858</ele>
        <time>2011-05-30T11:03:08Z</time>
      </trkpt>
      <trkpt lat="44.56594" lon="6.1961">
        <ele>856</ele>
        <time>2011-05-30T11:03:12Z</time>
      </trkpt>
      <trkpt lat="44.56599" lon="6.19599">
        <ele>857</ele>
        <time>2011-05-30T11:03:14Z</time>
      </trkpt>
      <trkpt lat="44.56606" lon="6.19565">
        <ele>856</ele>
        <time>2011-05-30T11:03:20Z</time>
      </trkpt>
      <trkpt lat="44.56583" lon="6.19458">
        <ele>857</ele>
        <time>2011-05-30T11:03:37Z</time>
      </trkpt>
      <trkpt lat="44.56563" lon="6.19365">
        <ele>856</ele>
        <time>2011-05-30T11:03:49Z</time>
      </trkpt>
      <trkpt lat="44.56569" lon="6.19331">
        <ele>856</ele>
        <time>2011-05-30T11:03:53Z</time>
      </trkpt>
      <trkpt lat="44.56615" lon="6.19217">
        <ele>856</ele>
        <time>2011-05-30T11:04:12Z</time>
      </trkpt>
      <trkpt lat="44.56647" lon="6.19121">
        <ele>856</ele>
        <time>2011-05-30T11:04:31Z</time>
      </trkpt>
      <trkpt lat="44.56687" lon="6.19036">
        <ele>856</ele>
        <time>2011-05-30T11:04:52Z</time>
      </trkpt>
      <trkpt lat="44.56744" lon="6.18946">
        <ele>856</ele>
        <time>2011-05-30T11:05:17Z</time>
      </trkpt>
      <trkpt lat="44.56771" lon="6.18904">
        <ele>854</ele>
        <time>2011-05-30T11:05:32Z</time>
      </trkpt>
      <trkpt lat="44.56811" lon="6.18837">
        <ele>853</ele>
        <time>2011-05-30T11:05:51Z</time>
      </trkpt>
      <trkpt lat="44.56844" lon="6.18775">
        <ele>850</ele>
        <time>2011-05-30T11:06:02Z</time>
      </trkpt>
      <trkpt lat="44.56878" lon="6.18694">
        <ele>849</ele>
        <time>2011-05-30T11:06:13Z</time>
      </trkpt>
      <trkpt lat="44.56905" lon="6.18605">
        <ele>850</ele>
        <time>2011-05-30T11:06:23Z</time>
      </trkpt>
      <trkpt lat="44.56907" lon="6.18597">
        <ele>850</ele>
        <time>2011-05-30T11:06:24Z</time>
      </trkpt>
      <trkpt lat="44.56915" lon="6.18555">
        <ele>850</ele>
        <time>2011-05-30T11:06:28Z</time>
      </trkpt>
      <trkpt lat="44.56927" lon="6.18494">
        <ele>847</ele>
        <time>2011-05-30T11:06:34Z</time>
      </trkpt>
      <trkpt lat="44.56929" lon="6.18484">
        <ele>847</ele>
        <time>2011-05-30T11:06:35Z</time>
      </trkpt>
      <trkpt lat="44.56959" lon="6.18313">
        <ele>847</ele>
        <time>2011-05-30T11:06:54Z</time>
      </trkpt>
      <trkpt lat="44.56998" lon="6.1818">
        <ele>846</ele>
        <time>2011-05-30T11:07:13Z</time>
      </trkpt>
      <trkpt lat="44.57054" lon="6.1803">
        <ele>848</ele>
        <time>2011-05-30T11:07:37Z</time>
      </trkpt>
      <trkpt lat="44.57068" lon="6.17992">
        <ele>848</ele>
        <time>2011-05-30T11:07:44Z</time>
      </trkpt>
      <trkpt lat="44.57123" lon="6.17847">
        <ele>847</ele>
        <time>2011-05-30T11:08:10Z</time>
      </trkpt>
      <trkpt lat="44.57185" lon="6.17685">
        <ele>846</ele>
        <time>2011-05-30T11:08:37Z</time>
      </trkpt>
      <trkpt lat="44.5721" lon="6.17615">
        <ele>846</ele>
        <time>2011-05-30T11:08:49Z</time>
      </trkpt>
      <trkpt lat="44.57259" lon="6.17482">
        <ele>846</ele>
        <time>2011-05-30T11:09:12Z</time>
      </trkpt>
      <trkpt lat="44.57314" lon="6.17335">
        <ele>846</ele>
        <time>2011-05-30T11:09:36Z</time>
      </trkpt>
      <trkpt lat="44.57371" lon="6.17183">
        <ele>842</ele>
        <time>2011-05-30T11:09:58Z</time>
      </trkpt>
      <trkpt lat="44.57436" lon="6.17012">
        <ele>841</ele>
        <time>2011-05-30T11:10:21Z</time>
      </trkpt>
      <trkpt lat="44.57449" lon="6.16975">
        <ele>840</ele>
        <time>2011-05-30T11:10:26Z</time>
      </trkpt>
      <trkpt lat="44.57508" lon="6.16814">
        <ele>839</ele>
        <time>2011-05-30T11:10:48Z</time>
      </trkpt>
      <trkpt lat="44.5755" lon="6.16705">
        <ele>838</ele>
        <time>2011-05-30T11:11:03Z</time>
      </trkpt>
      <trkpt lat="44.57552" lon="6.16698">
        <ele>838</ele>
        <time>2011-05-30T11:11:04Z</time>
      </trkpt>
      <trkpt lat="44.57617" lon="6.16527">
        <ele>835</ele>
        <time>2011-05-30T11:11:28Z</time>
      </trkpt>
      <trkpt lat="44.57658" lon="6.1641">
        <ele>833</ele>
        <time>2011-05-30T11:11:46Z</time>
      </trkpt>
      <trkpt lat="44.57692" lon="6.16278">
        <ele>834</ele>
        <time>2011-05-30T11:12:09Z</time>
      </trkpt>
      <trkpt lat="44.57701" lon="6.16213">
        <ele>835</ele>
        <time>2011-05-30T11:12:20Z</time>
      </trkpt>
      <trkpt lat="44.57706" lon="6.1608">
        <ele>834</ele>
        <time>2011-05-30T11:12:41Z</time>
      </trkpt>
      <trkpt lat="44.57708" lon="6.16023">
        <ele>833</ele>
        <time>2011-05-30T11:12:48Z</time>
      </trkpt>
      <trkpt lat="44.57709" lon="6.1592">
        <ele>831</ele>
        <time>2011-05-30T11:12:59Z</time>
      </trkpt>
      <trkpt lat="44.57714" lon="6.15771">
        <ele>830</ele>
        <time>2011-05-30T11:13:17Z</time>
      </trkpt>
      <trkpt lat="44.57716" lon="6.15578">
        <ele>827</ele>
        <time>2011-05-30T11:13:43Z</time>
      </trkpt>
      <trkpt lat="44.57719" lon="6.15446">
        <ele>830</ele>
        <time>2011-05-30T11:14:02Z</time>
      </trkpt>
      <trkpt lat="44.57722" lon="6.15358">
        <ele>829</ele>
        <time>2011-05-30T11:14:13Z</time>
      </trkpt>
      <trkpt lat="44.57725" lon="6.15223">
        <ele>823</ele>
        <time>2011-05-30T11:14:27Z</time>
      </trkpt>
      <trkpt lat="44.57729" lon="6.15065">
        <ele>820</ele>
        <time>2011-05-30T11:14:43Z</time>
      </trkpt>
      <trkpt lat="44.57729" lon="6.15055">
        <ele>820</ele>
        <time>2011-05-30T11:14:44Z</time>
      </trkpt>
      <trkpt lat="44.5773" lon="6.15035">
        <ele>820</ele>
        <time>2011-05-30T11:14:46Z</time>
      </trkpt>
      <trkpt lat="44.57733" lon="6.14931">
        <ele>821</ele>
        <time>2011-05-30T11:14:57Z</time>
      </trkpt>
      <trkpt lat="44.57735" lon="6.14922">
        <ele>822</ele>
        <time>2011-05-30T11:14:58Z</time>
      </trkpt>
      <trkpt lat="44.57737" lon="6.14836">
        <ele>820</ele>
        <time>2011-05-30T11:15:09Z</time>
      </trkpt>
      <trkpt lat="44.57737" lon="6.1479">
        <ele>818</ele>
        <time>2011-05-30T11:15:21Z</time>
      </trkpt>
      <trkpt lat="44.57737" lon="6.1479">
        <ele>818</ele>
        <time>2011-05-30T11:15:48Z</time>
      </trkpt>
      <trkpt lat="44.57734" lon="6.1479">
        <ele>818</ele>
        <time>2011-05-30T11:16:09Z</time>
      </trkpt>
      <trkpt lat="44.57734" lon="6.1479">
        <ele>818</ele>
        <time>2011-05-30T11:16:41Z</time>
      </trkpt>
      <trkpt lat="44.57734" lon="6.1479">
        <ele>818</ele>
        <time>2011-05-30T11:16:48Z</time>
      </trkpt>
      <trkpt lat="44.57713" lon="6.14784">
        <ele>817</ele>
        <time>2011-05-30T11:16:52Z</time>
      </trkpt>
      <trkpt lat="44.57701" lon="6.14781">
        <ele>816</ele>
        <time>2011-05-30T11:16:55Z</time>
      </trkpt>
      <trkpt lat="44.57646" lon="6.1476">
        <ele>813</ele>
        <time>2011-05-30T11:17:07Z</time>
      </trkpt>
      <trkpt lat="44.57634" lon="6.14755">
        <ele>813</ele>
        <time>2011-05-30T11:17:11Z</time>
      </trkpt>
      <trkpt lat="44.5757" lon="6.14718">
        <ele>813</ele>
        <time>2011-05-30T11:17:23Z</time>
      </trkpt>
      <trkpt lat="44.57565" lon="6.14715">
        <ele>813</ele>
        <time>2011-05-30T11:17:24Z</time>
      </trkpt>
      <trkpt lat="44.57533" lon="6.14698">
        <ele>814</ele>
        <time>2011-05-30T11:17:30Z</time>
      </trkpt>
      <trkpt lat="44.57514" lon="6.147">
        <ele>814</ele>
        <time>2011-05-30T11:17:34Z</time>
      </trkpt>
      <trkpt lat="44.57507" lon="6.14725">
        <ele>815</ele>
        <time>2011-05-30T11:17:42Z</time>
      </trkpt>
      <trkpt lat="44.57507" lon="6.14742">
        <ele>816</ele>
        <time>2011-05-30T11:17:47Z</time>
      </trkpt>
      <trkpt lat="44.57491" lon="6.14736">
        <ele>821</ele>
        <time>2011-05-30T11:17:56Z</time>
      </trkpt>
      <trkpt lat="44.57479" lon="6.14715">
        <ele>823</ele>
        <time>2011-05-30T11:18:06Z</time>
      </trkpt>
      <trkpt lat="44.57475" lon="6.14728">
        <ele>823</ele>
        <time>2011-05-30T11:18:11Z</time>
      </trkpt>
      <trkpt lat="44.57484" lon="6.14765">
        <ele>822</ele>
        <time>2011-05-30T11:18:25Z</time>
      </trkpt>
      <trkpt lat="44.57481" lon="6.14775">
        <ele>823</ele>
        <time>2011-05-30T11:18:29Z</time>
      </trkpt>
      <trkpt lat="44.57477" lon="6.14777">
        <ele>823</ele>
        <time>2011-05-30T11:18:31Z</time>
      </trkpt>
      <trkpt lat="44.57443" lon="6.14758">
        <ele>827</ele>
        <time>2011-05-30T11:18:49Z</time>
      </trkpt>
      <trkpt lat="44.57427" lon="6.14725">
        <ele>828</ele>
        <time>2011-05-30T11:19:03Z</time>
      </trkpt>
      <trkpt lat="44.57422" lon="6.14675">
        <ele>831</ele>
        <time>2011-05-30T11:19:21Z</time>
      </trkpt>
      <trkpt lat="44.57422" lon="6.14672">
        <ele>832</ele>
        <time>2011-05-30T11:19:22Z</time>
      </trkpt>
      <trkpt lat="44.57421" lon="6.14628">
        <ele>828</ele>
        <time>2011-05-30T11:19:37Z</time>
      </trkpt>
      <trkpt lat="44.57399" lon="6.14583">
        <ele>833</ele>
        <time>2011-05-30T11:19:56Z</time>
      </trkpt>
      <trkpt lat="44.57355" lon="6.14558">
        <ele>834</ele>
        <time>2011-05-30T11:20:15Z</time>
      </trkpt>
      <trkpt lat="44.57297" lon="6.14546">
        <ele>838</ele>
        <time>2011-05-30T11:20:35Z</time>
      </trkpt>
      <trkpt lat="44.57254" lon="6.14537">
        <ele>840</ele>
        <time>2011-05-30T11:20:52Z</time>
      </trkpt>
      <trkpt lat="44.57251" lon="6.14537">
        <ele>840</ele>
        <time>2011-05-30T11:20:53Z</time>
      </trkpt>
      <trkpt lat="44.57228" lon="6.14517">
        <ele>845</ele>
        <time>2011-05-30T11:21:05Z</time>
      </trkpt>
      <trkpt lat="44.57206" lon="6.14488">
        <ele>848</ele>
        <time>2011-05-30T11:21:20Z</time>
      </trkpt>
      <trkpt lat="44.57181" lon="6.14458">
        <ele>850</ele>
        <time>2011-05-30T11:21:37Z</time>
      </trkpt>
      <trkpt lat="44.57164" lon="6.14425">
        <ele>855</ele>
        <time>2011-05-30T11:21:54Z</time>
      </trkpt>
      <trkpt lat="44.57167" lon="6.14409">
        <ele>855</ele>
        <time>2011-05-30T11:22:00Z</time>
      </trkpt>
      <trkpt lat="44.57168" lon="6.14405">
        <ele>853</ele>
        <time>2011-05-30T11:22:02Z</time>
      </trkpt>
      <trkpt lat="44.5717" lon="6.14394">
        <ele>852</ele>
        <time>2011-05-30T11:22:07Z</time>
      </trkpt>
      <trkpt lat="44.57173" lon="6.14376">
        <ele>852</ele>
        <time>2011-05-30T11:22:15Z</time>
      </trkpt>
      <trkpt lat="44.57175" lon="6.14367">
        <ele>852</ele>
        <time>2011-05-30T11:22:19Z</time>
      </trkpt>
      <trkpt lat="44.57161" lon="6.14362">
        <ele>858</ele>
        <time>2011-05-30T11:22:32Z</time>
      </trkpt>
      <trkpt lat="44.5716" lon="6.14364">
        <ele>858</ele>
        <time>2011-05-30T11:22:33Z</time>
      </trkpt>
      <trkpt lat="44.57119" lon="6.14413">
        <ele>858</ele>
        <time>2011-05-30T11:22:54Z</time>
      </trkpt>
      <trkpt lat="44.57091" lon="6.14444">
        <ele>859</ele>
        <time>2011-05-30T11:23:06Z</time>
      </trkpt>
      <trkpt lat="44.57073" lon="6.14459">
        <ele>862</ele>
        <time>2011-05-30T11:23:16Z</time>
      </trkpt>
      <trkpt lat="44.57072" lon="6.14461">
        <ele>862</ele>
        <time>2011-05-30T11:23:17Z</time>
      </trkpt>
      <trkpt lat="44.57058" lon="6.14495">
        <ele>863</ele>
        <time>2011-05-30T11:23:30Z</time>
      </trkpt>
      <trkpt lat="44.57041" lon="6.14545">
        <ele>866</ele>
        <time>2011-05-30T11:23:49Z</time>
      </trkpt>
      <trkpt lat="44.57017" lon="6.14596">
        <ele>870</ele>
        <time>2011-05-30T11:24:09Z</time>
      </trkpt>
      <trkpt lat="44.57014" lon="6.14653">
        <ele>871</ele>
        <time>2011-05-30T11:24:27Z</time>
      </trkpt>
      <trkpt lat="44.57009" lon="6.14705">
        <ele>870</ele>
        <time>2011-05-30T11:24:44Z</time>
      </trkpt>
      <trkpt lat="44.56991" lon="6.14761">
        <ele>879</ele>
        <time>2011-05-30T11:25:02Z</time>
      </trkpt>
      <trkpt lat="44.56966" lon="6.14772">
        <ele>881</ele>
        <time>2011-05-30T11:25:15Z</time>
      </trkpt>
      <trkpt lat="44.5694" lon="6.1477">
        <ele>882</ele>
        <time>2011-05-30T11:25:29Z</time>
      </trkpt>
      <trkpt lat="44.56922" lon="6.14769">
        <ele>883</ele>
        <time>2011-05-30T11:25:36Z</time>
      </trkpt>
      <trkpt lat="44.56904" lon="6.1478">
        <ele>884</ele>
        <time>2011-05-30T11:25:43Z</time>
      </trkpt>
      <trkpt lat="44.56859" lon="6.14762">
        <ele>883</ele>
        <time>2011-05-30T11:25:53Z</time>
      </trkpt>
      <trkpt lat="44.56826" lon="6.1474">
        <ele>881</ele>
        <time>2011-05-30T11:25:59Z</time>
      </trkpt>
      <trkpt lat="44.56809" lon="6.14715">
        <ele>881</ele>
        <time>2011-05-30T11:26:05Z</time>
      </trkpt>
      <trkpt lat="44.56815" lon="6.14637">
        <ele>879</ele>
        <time>2011-05-30T11:26:20Z</time>
      </trkpt>
      <trkpt lat="44.56816" lon="6.14563">
        <ele>878</ele>
        <time>2011-05-30T11:26:37Z</time>
      </trkpt>
      <trkpt lat="44.56815" lon="6.14546">
        <ele>878</ele>
        <time>2011-05-30T11:26:40Z</time>
      </trkpt>
      <trkpt lat="44.56813" lon="6.14534">
        <ele>878</ele>
        <time>2011-05-30T11:26:42Z</time>
      </trkpt>
      <trkpt lat="44.5681" lon="6.14466">
        <ele>878</ele>
        <time>2011-05-30T11:26:51Z</time>
      </trkpt>
      <trkpt lat="44.56821" lon="6.14433">
        <ele>878</ele>
        <time>2011-05-30T11:26:55Z</time>
      </trkpt>
      <trkpt lat="44.56848" lon="6.14379">
        <ele>875</ele>
        <time>2011-05-30T11:27:03Z</time>
      </trkpt>
      <trkpt lat="44.56879" lon="6.14313">
        <ele>877</ele>
        <time>2011-05-30T11:27:13Z</time>
      </trkpt>
      <trkpt lat="44.569" lon="6.14291">
        <ele>876</ele>
        <time>2011-05-30T11:27:17Z</time>
      </trkpt>
      <trkpt lat="44.56944" lon="6.14257">
        <ele>867</ele>
        <time>2011-05-30T11:27:25Z</time>
      </trkpt>
      <trkpt lat="44.56962" lon="6.14208">
        <ele>867</ele>
        <time>2011-05-30T11:27:31Z</time>
      </trkpt>
      <trkpt lat="44.56962" lon="6.14175">
        <ele>867</ele>
        <time>2011-05-30T11:27:34Z</time>
      </trkpt>
      <trkpt lat="44.56962" lon="6.14137">
        <ele>867</ele>
        <time>2011-05-30T11:27:37Z</time>
      </trkpt>
      <trkpt lat="44.56964" lon="6.1411">
        <ele>867</ele>
        <time>2011-05-30T11:27:39Z</time>
      </trkpt>
      <trkpt lat="44.56971" lon="6.1407">
        <ele>864</ele>
        <time>2011-05-30T11:27:42Z</time>
      </trkpt>
      <trkpt lat="44.56972" lon="6.14021">
        <ele>862</ele>
        <time>2011-05-30T11:27:46Z</time>
      </trkpt>
      <trkpt lat="44.5697" lon="6.14008">
        <ele>862</ele>
        <time>2011-05-30T11:27:47Z</time>
      </trkpt>
      <trkpt lat="44.56963" lon="6.13984">
        <ele>860</ele>
        <time>2011-05-30T11:27:49Z</time>
      </trkpt>
      <trkpt lat="44.56947" lon="6.13908">
        <ele>856</ele>
        <time>2011-05-30T11:27:55Z</time>
      </trkpt>
      <trkpt lat="44.56947" lon="6.13857">
        <ele>855</ele>
        <time>2011-05-30T11:27:59Z</time>
      </trkpt>
      <trkpt lat="44.5693" lon="6.13707">
        <ele>849</ele>
        <time>2011-05-30T11:28:13Z</time>
      </trkpt>
      <trkpt lat="44.56925" lon="6.13656">
        <ele>850</ele>
        <time>2011-05-30T11:28:18Z</time>
      </trkpt>
      <trkpt lat="44.56926" lon="6.13612">
        <ele>847</ele>
        <time>2011-05-30T11:28:22Z</time>
      </trkpt>
      <trkpt lat="44.56921" lon="6.13576">
        <ele>849</ele>
        <time>2011-05-30T11:28:25Z</time>
      </trkpt>
      <trkpt lat="44.56917" lon="6.13564">
        <ele>847</ele>
        <time>2011-05-30T11:28:26Z</time>
      </trkpt>
      <trkpt lat="44.56901" lon="6.13458">
        <ele>852</ele>
        <time>2011-05-30T11:28:35Z</time>
      </trkpt>
      <trkpt lat="44.56887" lon="6.13353">
        <ele>847</ele>
        <time>2011-05-30T11:28:47Z</time>
      </trkpt>
      <trkpt lat="44.5687" lon="6.13221">
        <ele>844</ele>
        <time>2011-05-30T11:29:01Z</time>
      </trkpt>
      <trkpt lat="44.56869" lon="6.13203">
        <ele>844</ele>
        <time>2011-05-30T11:29:03Z</time>
      </trkpt>
      <trkpt lat="44.5687" lon="6.13068">
        <ele>841</ele>
        <time>2011-05-30T11:29:18Z</time>
      </trkpt>
      <trkpt lat="44.56848" lon="6.12935">
        <ele>841</ele>
        <time>2011-05-30T11:29:36Z</time>
      </trkpt>
      <trkpt lat="44.56824" lon="6.12822">
        <ele>842</ele>
        <time>2011-05-30T11:29:53Z</time>
      </trkpt>
      <trkpt lat="44.56809" lon="6.12693">
        <ele>842</ele>
        <time>2011-05-30T11:30:15Z</time>
      </trkpt>
      <trkpt lat="44.56808" lon="6.12688">
        <ele>842</ele>
        <time>2011-05-30T11:30:16Z</time>
      </trkpt>
      <trkpt lat="44.56756" lon="6.12658">
        <ele>842</ele>
        <time>2011-05-30T11:30:29Z</time>
      </trkpt>
      <trkpt lat="44.56708" lon="6.12636">
        <ele>844</ele>
        <time>2011-05-30T11:30:43Z</time>
      </trkpt>
      <trkpt lat="44.56664" lon="6.12595">
        <ele>843</ele>
        <time>2011-05-30T11:31:00Z</time>
      </trkpt>
      <trkpt lat="44.56645" lon="6.12565">
        <ele>841</ele>
        <time>2011-05-30T11:31:05Z</time>
      </trkpt>
      <trkpt lat="44.56626" lon="6.12537">
        <ele>840</ele>
        <time>2011-05-30T11:31:09Z</time>
      </trkpt>
      <trkpt lat="44.56621" lon="6.1253">
        <ele>840</ele>
        <time>2011-05-30T11:31:10Z</time>
      </trkpt>
      <trkpt lat="44.56602" lon="6.12504">
        <ele>838</ele>
        <time>2011-05-30T11:31:14Z</time>
      </trkpt>
      <trkpt lat="44.56596" lon="6.12497">
        <ele>838</ele>
        <time>2011-05-30T11:31:15Z</time>
      </trkpt>
      <trkpt lat="44.56572" lon="6.12463">
        <ele>833</ele>
        <time>2011-05-30T11:31:20Z</time>
      </trkpt>
      <trkpt lat="44.56562" lon="6.12451">
        <ele>833</ele>
        <time>2011-05-30T11:31:22Z</time>
      </trkpt>
      <trkpt lat="44.56553" lon="6.12439">
        <ele>833</ele>
        <time>2011-05-30T11:31:24Z</time>
      </trkpt>
      <trkpt lat="44.56538" lon="6.12426">
        <ele>832</ele>
        <time>2011-05-30T11:31:27Z</time>
      </trkpt>
      <trkpt lat="44.56528" lon="6.12418">
        <ele>831</ele>
        <time>2011-05-30T11:31:29Z</time>
      </trkpt>
      <trkpt lat="44.56488" lon="6.12429">
        <ele>827</ele>
        <time>2011-05-30T11:31:35Z</time>
      </trkpt>
      <trkpt lat="44.56476" lon="6.12443">
        <ele>827</ele>
        <time>2011-05-30T11:31:37Z</time>
      </trkpt>
      <trkpt lat="44.56431" lon="6.12442">
        <ele>827</ele>
        <time>2011-05-30T11:31:44Z</time>
      </trkpt>
      <trkpt lat="44.56429" lon="6.12435">
        <ele>827</ele>
        <time>2011-05-30T11:31:45Z</time>
      </trkpt>
      <trkpt lat="44.56427" lon="6.12429">
        <ele>827</ele>
        <time>2011-05-30T11:31:46Z</time>
      </trkpt>
      <trkpt lat="44.5641" lon="6.12384">
        <ele>826</ele>
        <time>2011-05-30T11:31:52Z</time>
      </trkpt>
      <trkpt lat="44.56403" lon="6.12366">
        <ele>825</ele>
        <time>2011-05-30T11:31:54Z</time>
      </trkpt>
      <trkpt lat="44.56394" lon="6.12345">
        <ele>825</ele>
        <time>2011-05-30T11:31:56Z</time>
      </trkpt>
      <trkpt lat="44.5638" lon="6.12314">
        <ele>822</ele>
        <time>2011-05-30T11:31:59Z</time>
      </trkpt>
      <trkpt lat="44.56369" lon="6.12293">
        <ele>821</ele>
        <time>2011-05-30T11:32:01Z</time>
      </trkpt>
      <trkpt lat="44.56357" lon="6.12273">
        <ele>821</ele>
        <time>2011-05-30T11:32:03Z</time>
      </trkpt>
      <trkpt lat="44.56344" lon="6.12254">
        <ele>819</ele>
        <time>2011-05-30T11:32:05Z</time>
      </trkpt>
      <trkpt lat="44.56325" lon="6.12222">
        <ele>818</ele>
        <time>2011-05-30T11:32:08Z</time>
      </trkpt>
      <trkpt lat="44.56319" lon="6.12211">
        <ele>818</ele>
        <time>2011-05-30T11:32:09Z</time>
      </trkpt>
      <trkpt lat="44.56303" lon="6.12162">
        <ele>812</ele>
        <time>2011-05-30T11:32:13Z</time>
      </trkpt>
      <trkpt lat="44.56277" lon="6.12078">
        <ele>806</ele>
        <time>2011-05-30T11:32:22Z</time>
      </trkpt>
      <trkpt lat="44.56273" lon="6.12055">
        <ele>806</ele>
        <time>2011-05-30T11:32:24Z</time>
      </trkpt>
      <trkpt lat="44.5627" lon="6.12033">
        <ele>805</ele>
        <time>2011-05-30T11:32:26Z</time>
      </trkpt>
      <trkpt lat="44.56274" lon="6.11978">
        <ele>801</ele>
        <time>2011-05-30T11:32:31Z</time>
      </trkpt>
      <trkpt lat="44.56279" lon="6.11967">
        <ele>800</ele>
        <time>2011-05-30T11:32:32Z</time>
      </trkpt>
      <trkpt lat="44.56288" lon="6.11943">
        <ele>800</ele>
        <time>2011-05-30T11:32:34Z</time>
      </trkpt>
      <trkpt lat="44.56293" lon="6.11932">
        <ele>800</ele>
        <time>2011-05-30T11:32:35Z</time>
      </trkpt>
      <trkpt lat="44.56295" lon="6.11868">
        <ele>797</ele>
        <time>2011-05-30T11:32:41Z</time>
      </trkpt>
      <trkpt lat="44.56293" lon="6.11846">
        <ele>797</ele>
        <time>2011-05-30T11:32:43Z</time>
      </trkpt>
      <trkpt lat="44.56293" lon="6.11836">
        <ele>796</ele>
        <time>2011-05-30T11:32:44Z</time>
      </trkpt>
      <trkpt lat="44.5627" lon="6.11788">
        <ele>794</ele>
        <time>2011-05-30T11:32:50Z</time>
      </trkpt>
      <trkpt lat="44.56217" lon="6.11713">
        <ele>790</ele>
        <time>2011-05-30T11:33:01Z</time>
      </trkpt>
      <trkpt lat="44.56224" lon="6.11677">
        <ele>789</ele>
        <time>2011-05-30T11:33:08Z</time>
      </trkpt>
      <trkpt lat="44.56228" lon="6.11674">
        <ele>789</ele>
        <time>2011-05-30T11:33:09Z</time>
      </trkpt>
      <trkpt lat="44.56236" lon="6.11666">
        <ele>787</ele>
        <time>2011-05-30T11:33:11Z</time>
      </trkpt>
      <trkpt lat="44.5625" lon="6.11636">
        <ele>787</ele>
        <time>2011-05-30T11:33:16Z</time>
      </trkpt>
      <trkpt lat="44.56268" lon="6.11538">
        <ele>787</ele>
        <time>2011-05-30T11:33:31Z</time>
      </trkpt>
      <trkpt lat="44.5629" lon="6.11479">
        <ele>783</ele>
        <time>2011-05-30T11:33:40Z</time>
      </trkpt>
      <trkpt lat="44.56293" lon="6.1147">
        <ele>783</ele>
        <time>2011-05-30T11:33:41Z</time>
      </trkpt>
      <trkpt lat="44.56297" lon="6.11461">
        <ele>783</ele>
        <time>2011-05-30T11:33:42Z</time>
      </trkpt>
      <trkpt lat="44.56301" lon="6.11451">
        <ele>783</ele>
        <time>2011-05-30T11:33:43Z</time>
      </trkpt>
      <trkpt lat="44.56307" lon="6.11428">
        <ele>782</ele>
        <time>2011-05-30T11:33:45Z</time>
      </trkpt>
      <trkpt lat="44.56313" lon="6.11404">
        <ele>778</ele>
        <time>2011-05-30T11:33:47Z</time>
      </trkpt>
      <trkpt lat="44.56321" lon="6.11369">
        <ele>777</ele>
        <time>2011-05-30T11:33:50Z</time>
      </trkpt>
      <trkpt lat="44.56325" lon="6.11352">
        <ele>776</ele>
        <time>2011-05-30T11:33:52Z</time>
      </trkpt>
      <trkpt lat="44.56328" lon="6.1134">
        <ele>776</ele>
        <time>2011-05-30T11:33:54Z</time>
      </trkpt>
      <trkpt lat="44.56323" lon="6.11318">
        <ele>774</ele>
        <time>2011-05-30T11:33:58Z</time>
      </trkpt>
      <trkpt lat="44.56316" lon="6.11296">
        <ele>773</ele>
        <time>2011-05-30T11:34:01Z</time>
      </trkpt>
      <trkpt lat="44.56307" lon="6.1127">
        <ele>772</ele>
        <time>2011-05-30T11:34:04Z</time>
      </trkpt>
      <trkpt lat="44.56301" lon="6.11251">
        <ele>772</ele>
        <time>2011-05-30T11:34:06Z</time>
      </trkpt>
      <trkpt lat="44.56288" lon="6.1121">
        <ele>771</ele>
        <time>2011-05-30T11:34:10Z</time>
      </trkpt>
      <trkpt lat="44.56256" lon="6.1111">
        <ele>771</ele>
        <time>2011-05-30T11:34:20Z</time>
      </trkpt>
      <trkpt lat="44.56249" lon="6.11089">
        <ele>775</ele>
        <time>2011-05-30T11:34:23Z</time>
      </trkpt>
      <trkpt lat="44.56246" lon="6.11068">
        <ele>776</ele>
        <time>2011-05-30T11:34:25Z</time>
      </trkpt>
      <trkpt lat="44.56248" lon="6.11032">
        <ele>775</ele>
        <time>2011-05-30T11:34:29Z</time>
      </trkpt>
      <trkpt lat="44.56262" lon="6.10916">
        <ele>764</ele>
        <time>2011-05-30T11:34:40Z</time>
      </trkpt>
      <trkpt lat="44.56272" lon="6.10868">
        <ele>763</ele>
        <time>2011-05-30T11:34:45Z</time>
      </trkpt>
      <trkpt lat="44.56282" lon="6.10829">
        <ele>764</ele>
        <time>2011-05-30T11:34:49Z</time>
      </trkpt>
      <trkpt lat="44.56303" lon="6.10798">
        <ele>762</ele>
        <time>2011-05-30T11:34:53Z</time>
      </trkpt>
      <trkpt lat="44.56316" lon="6.10789">
        <ele>762</ele>
        <time>2011-05-30T11:34:55Z</time>
      </trkpt>
      <trkpt lat="44.56335" lon="6.10748">
        <ele>758</ele>
        <time>2011-05-30T11:35:00Z</time>
      </trkpt>
      <trkpt lat="44.56337" lon="6.10728">
        <ele>757</ele>
        <time>2011-05-30T11:35:02Z</time>
      </trkpt>
      <trkpt lat="44.56358" lon="6.10629">
        <ele>757</ele>
        <time>2011-05-30T11:35:13Z</time>
      </trkpt>
      <trkpt lat="44.56367" lon="6.106">
        <ele>756</ele>
        <time>2011-05-30T11:35:17Z</time>
      </trkpt>
      <trkpt lat="44.56364" lon="6.10498">
        <ele>754</ele>
        <time>2011-05-30T11:35:29Z</time>
      </trkpt>
      <trkpt lat="44.56359" lon="6.10432">
        <ele>753</ele>
        <time>2011-05-30T11:35:37Z</time>
      </trkpt>
      <trkpt lat="44.56356" lon="6.1041">
        <ele>753</ele>
        <time>2011-05-30T11:35:40Z</time>
      </trkpt>
      <trkpt lat="44.56351" lon="6.1036">
        <ele>753</ele>
        <time>2011-05-30T11:35:47Z</time>
      </trkpt>
      <trkpt lat="44.56342" lon="6.10222">
        <ele>750</ele>
        <time>2011-05-30T11:36:03Z</time>
      </trkpt>
      <trkpt lat="44.5634" lon="6.10189">
        <ele>749</ele>
        <time>2011-05-30T11:36:07Z</time>
      </trkpt>
      <trkpt lat="44.5635" lon="6.10135">
        <ele>749</ele>
        <time>2011-05-30T11:36:14Z</time>
      </trkpt>
      <trkpt lat="44.5638" lon="6.10051">
        <ele>748</ele>
        <time>2011-05-30T11:36:29Z</time>
      </trkpt>
      <trkpt lat="44.56405" lon="6.10052">
        <ele>748</ele>
        <time>2011-05-30T11:36:35Z</time>
      </trkpt>
      <trkpt lat="44.56399" lon="6.10022">
        <ele>748</ele>
        <time>2011-05-30T11:36:41Z</time>
      </trkpt>
      <trkpt lat="44.56388" lon="6.10004">
        <ele>748</ele>
        <time>2011-05-30T11:36:44Z</time>
      </trkpt>
      <trkpt lat="44.56366" lon="6.09917">
        <ele>748</ele>
        <time>2011-05-30T11:36:56Z</time>
      </trkpt>
      <trkpt lat="44.56364" lon="6.09887">
        <ele>747</ele>
        <time>2011-05-30T11:37:00Z</time>
      </trkpt>
      <trkpt lat="44.56367" lon="6.09834">
        <ele>747</ele>
        <time>2011-05-30T11:37:07Z</time>
      </trkpt>
      <trkpt lat="44.56381" lon="6.09692">
        <ele>745</ele>
        <time>2011-05-30T11:37:27Z</time>
      </trkpt>
      <trkpt lat="44.56381" lon="6.09678">
        <ele>745</ele>
        <time>2011-05-30T11:37:29Z</time>
      </trkpt>
      <trkpt lat="44.56379" lon="6.096">
        <ele>745</ele>
        <time>2011-05-30T11:37:40Z</time>
      </trkpt>
      <trkpt lat="44.56389" lon="6.09562">
        <ele>745</ele>
        <time>2011-05-30T11:37:46Z</time>
      </trkpt>
      <trkpt lat="44.56387" lon="6.09537">
        <ele>745</ele>
        <time>2011-05-30T11:37:50Z</time>
      </trkpt>
      <trkpt lat="44.56403" lon="6.09415">
        <ele>743</ele>
        <time>2011-05-30T11:38:07Z</time>
      </trkpt>
      <trkpt lat="44.56413" lon="6.09371">
        <ele>743</ele>
        <time>2011-05-30T11:38:14Z</time>
      </trkpt>
      <trkpt lat="44.56406" lon="6.09327">
        <ele>742</ele>
        <time>2011-05-30T11:38:21Z</time>
      </trkpt>
      <trkpt lat="44.56383" lon="6.0928">
        <ele>742</ele>
        <time>2011-05-30T11:38:32Z</time>
      </trkpt>
      <trkpt lat="44.56369" lon="6.09253">
        <ele>742</ele>
        <time>2011-05-30T11:38:37Z</time>
      </trkpt>
      <trkpt lat="44.56366" lon="6.09238">
        <ele>742</ele>
        <time>2011-05-30T11:38:39Z</time>
      </trkpt>
      <trkpt lat="44.56344" lon="6.09111">
        <ele>743</ele>
        <time>2011-05-30T11:38:58Z</time>
      </trkpt>
      <trkpt lat="44.5635" lon="6.09071">
        <ele>743</ele>
        <time>2011-05-30T11:39:04Z</time>
      </trkpt>
      <trkpt lat="44.56355" lon="6.09057">
        <ele>743</ele>
        <time>2011-05-30T11:39:06Z</time>
      </trkpt>
      <trkpt lat="44.56355" lon="6.08957">
        <ele>741</ele>
        <time>2011-05-30T11:39:22Z</time>
      </trkpt>
      <trkpt lat="44.56351" lon="6.08941">
        <ele>740</ele>
        <time>2011-05-30T11:39:27Z</time>
      </trkpt>
      <trkpt lat="44.56368" lon="6.08928">
        <ele>741</ele>
        <time>2011-05-30T11:39:32Z</time>
      </trkpt>
      <trkpt lat="44.56396" lon="6.08906">
        <ele>741</ele>
        <time>2011-05-30T11:39:43Z</time>
      </trkpt>
      <trkpt lat="44.56404" lon="6.08892">
        <ele>741</ele>
        <time>2011-05-30T11:39:47Z</time>
      </trkpt>
      <trkpt lat="44.56388" lon="6.08853">
        <ele>742</ele>
        <time>2011-05-30T11:39:56Z</time>
      </trkpt>
      <trkpt lat="44.56373" lon="6.08817">
        <ele>743</ele>
        <time>2011-05-30T11:40:03Z</time>
      </trkpt>
      <trkpt lat="44.56367" lon="6.08802">
        <ele>744</ele>
        <time>2011-05-30T11:40:06Z</time>
      </trkpt>
      <trkpt lat="44.56336" lon="6.08726">
        <ele>746</ele>
        <time>2011-05-30T11:40:21Z</time>
      </trkpt>
      <trkpt lat="44.56329" lon="6.08708">
        <ele>746</ele>
        <time>2011-05-30T11:40:25Z</time>
      </trkpt>
      <trkpt lat="44.56304" lon="6.08649">
        <ele>746</ele>
        <time>2011-05-30T11:40:38Z</time>
      </trkpt>
      <trkpt lat="44.56261" lon="6.08542">
        <ele>745</ele>
        <time>2011-05-30T11:40:58Z</time>
      </trkpt>
      <trkpt lat="44.56226" lon="6.08466">
        <ele>744</ele>
        <time>2011-05-30T11:41:12Z</time>
      </trkpt>
      <trkpt lat="44.56208" lon="6.08454">
        <ele>744</ele>
        <time>2011-05-30T11:41:22Z</time>
      </trkpt>
      <trkpt lat="44.56208" lon="6.08454">
        <ele>744</ele>
        <time>2011-05-30T11:41:24Z</time>
      </trkpt>
      <trkpt lat="44.56213" lon="6.08458">
        <ele>744</ele>
        <time>2011-05-30T11:41:26Z</time>
      </trkpt>
      <trkpt lat="44.56213" lon="6.08458">
        <ele>744</ele>
        <time>2011-05-30T11:41:29Z</time>
      </trkpt>
      <trkpt lat="44.56213" lon="6.08458">
        <ele>744</ele>
        <time>2011-05-30T11:41:39Z</time>
      </trkpt>
      <trkpt lat="44.56213" lon="6.08458">
        <ele>744</ele>
        <time>2011-05-30T11:41:55Z</time>
      </trkpt>
      <trkpt lat="44.56222" lon="6.08401">
        <ele>745</ele>
        <time>2011-05-30T11:41:59Z</time>
      </trkpt>
      <trkpt lat="44.56235" lon="6.08399">
        <ele>745</ele>
        <time>2011-05-30T11:42:03Z</time>
      </trkpt>
      <trkpt lat="44.56235" lon="6.08391">
        <ele>745</ele>
        <time>2011-05-30T11:42:07Z</time>
      </trkpt>
      <trkpt lat="44.56223" lon="6.08401">
        <ele>745</ele>
        <time>2011-05-30T11:42:23Z</time>
      </trkpt>
      <trkpt lat="44.56223" lon="6.08401">
        <ele>745</ele>
        <time>2011-05-30T11:42:35Z</time>
      </trkpt>
      <trkpt lat="44.56223" lon="6.08401">
        <ele>745</ele>
        <time>2011-05-30T11:42:43Z</time>
      </trkpt>
      <trkpt lat="44.56223" lon="6.08401">
        <ele>745</ele>
        <time>2011-05-30T11:43:05Z</time>
      </trkpt>
      <trkpt lat="44.56177" lon="6.08329">
        <ele>746</ele>
        <time>2011-05-30T11:43:16Z</time>
      </trkpt>
      <trkpt lat="44.56175" lon="6.08324">
        <ele>745</ele>
        <time>2011-05-30T11:43:17Z</time>
      </trkpt>
      <trkpt lat="44.56156" lon="6.08279">
        <ele>743</ele>
        <time>2011-05-30T11:43:26Z</time>
      </trkpt>
      <trkpt lat="44.56152" lon="6.08269">
        <ele>743</ele>
        <time>2011-05-30T11:43:28Z</time>
      </trkpt>
      <trkpt lat="44.56136" lon="6.08233">
        <ele>742</ele>
        <time>2011-05-30T11:43:42Z</time>
      </trkpt>
      <trkpt lat="44.56143" lon="6.08164">
        <ele>742</ele>
        <time>2011-05-30T11:43:48Z</time>
      </trkpt>
      <trkpt lat="44.56139" lon="6.08142">
        <ele>742</ele>
        <time>2011-05-30T11:43:52Z</time>
      </trkpt>
      <trkpt lat="44.56119" lon="6.08088">
        <ele>743</ele>
        <time>2011-05-30T11:44:06Z</time>
      </trkpt>
      <trkpt lat="44.56107" lon="6.0804">
        <ele>745</ele>
        <time>2011-05-30T11:44:18Z</time>
      </trkpt>
      <trkpt lat="44.56121" lon="6.07973">
        <ele>746</ele>
        <time>2011-05-30T11:44:34Z</time>
      </trkpt>
      <trkpt lat="44.56107" lon="6.07915">
        <ele>747</ele>
        <time>2011-05-30T11:44:47Z</time>
      </trkpt>
      <trkpt lat="44.56094" lon="6.07873">
        <ele>747</ele>
        <time>2011-05-30T11:44:59Z</time>
      </trkpt>
      <trkpt lat="44.56066" lon="6.07789">
        <ele>745</ele>
        <time>2011-05-30T11:45:17Z</time>
      </trkpt>
      <trkpt lat="44.56049" lon="6.07736">
        <ele>745</ele>
        <time>2011-05-30T11:45:31Z</time>
      </trkpt>
      <trkpt lat="44.5601" lon="6.07624">
        <ele>746</ele>
        <time>2011-05-30T11:45:53Z</time>
      </trkpt>
      <trkpt lat="44.55955" lon="6.07571">
        <ele>747</ele>
        <time>2011-05-30T11:46:11Z</time>
      </trkpt>
      <trkpt lat="44.55918" lon="6.07534">
        <ele>747</ele>
        <time>2011-05-30T11:46:21Z</time>
      </trkpt>
      <trkpt lat="44.55882" lon="6.07498">
        <ele>748</ele>
        <time>2011-05-30T11:46:32Z</time>
      </trkpt>
      <trkpt lat="44.55878" lon="6.07494">
        <ele>748</ele>
        <time>2011-05-30T11:46:42Z</time>
      </trkpt>
      <trkpt lat="44.55878" lon="6.07494">
        <ele>748</ele>
        <time>2011-05-30T11:46:55Z</time>
      </trkpt>
    </trkseg>
  </trk>
</gpx>